<?xml version="1.0" encoding="UTF-8" standalone="no" ?>
<gpx xmlns="http://www.topografix.com/GPX/1/1" xmlns:xsi="http://www.w3.org/2001/XMLSchema-instance" xsi:schemaLocation="http://www.topografix.com/GPX/1/1 http://www.topografix.com/GPX/1/1/gpx.xsd" version="1.1" creator="VisuGPX - https://www.visugpx.com">
  <metadata>
    <name>Mont Poupet</name>
    <desc><![CDATA[File with points/tracks from Locus Map/4.31.3]]></desc>
  </metadata>
  <trk>
    <name><![CDATA[2026-01-18 10:10]]></name>
    <extensions>
      <line xmlns="http://www.topografix.com/GPX/gpx_style/0/2">
        <color>FF0000</color>
        <opacity>0.78</opacity>
        <width>3.0</width>
      </line>
    </extensions>
    <trkseg>
      <trkpt lat="46.98861" lon="5.89266">
        <ele>455.02</ele>
        <time>2026-01-18T09:10:22.814Z</time>
      </trkpt>
      <trkpt lat="46.98855" lon="5.89278">
        <ele>455.15</ele>
        <time>2026-01-18T09:10:30.819Z</time>
      </trkpt>
      <trkpt lat="46.98851" lon="5.89292">
        <ele>455.15</ele>
        <time>2026-01-18T09:10:40.817Z</time>
      </trkpt>
      <trkpt lat="46.98848" lon="5.89305">
        <ele>455.15</ele>
        <time>2026-01-18T09:10:49.827Z</time>
      </trkpt>
      <trkpt lat="46.98844" lon="5.89317">
        <ele>455.15</ele>
        <time>2026-01-18T09:11:00.122Z</time>
      </trkpt>
      <trkpt lat="46.9884" lon="5.8933">
        <ele>455.15</ele>
        <time>2026-01-18T09:11:08.530Z</time>
      </trkpt>
      <trkpt lat="46.98837" lon="5.89342">
        <ele>455.15</ele>
        <time>2026-01-18T09:11:18.820Z</time>
      </trkpt>
      <trkpt lat="46.98832" lon="5.89354">
        <ele>455.15</ele>
        <time>2026-01-18T09:11:27.578Z</time>
      </trkpt>
      <trkpt lat="46.98826" lon="5.89364">
        <ele>439.4</ele>
        <time>2026-01-18T09:11:37.823Z</time>
      </trkpt>
      <trkpt lat="46.98823" lon="5.89377">
        <ele>439.15</ele>
        <time>2026-01-18T09:11:47.754Z</time>
      </trkpt>
      <trkpt lat="46.98819" lon="5.89389">
        <ele>439.15</ele>
        <time>2026-01-18T09:11:56.936Z</time>
      </trkpt>
      <trkpt lat="46.98816" lon="5.89402">
        <ele>439.15</ele>
        <time>2026-01-18T09:12:07.193Z</time>
      </trkpt>
      <trkpt lat="46.98812" lon="5.89414">
        <ele>439.15</ele>
        <time>2026-01-18T09:12:20.839Z</time>
      </trkpt>
      <trkpt lat="46.98808" lon="5.89427">
        <ele>439.15</ele>
        <time>2026-01-18T09:12:29.433Z</time>
      </trkpt>
      <trkpt lat="46.98804" lon="5.89439">
        <ele>439.15</ele>
        <time>2026-01-18T09:12:39.848Z</time>
      </trkpt>
      <trkpt lat="46.98801" lon="5.89452">
        <ele>439.15</ele>
        <time>2026-01-18T09:12:50.840Z</time>
      </trkpt>
      <trkpt lat="46.988" lon="5.89466">
        <ele>439.15</ele>
        <time>2026-01-18T09:12:58.799Z</time>
      </trkpt>
      <trkpt lat="46.988" lon="5.8948">
        <ele>439.15</ele>
        <time>2026-01-18T09:13:10.825Z</time>
      </trkpt>
      <trkpt lat="46.98798" lon="5.89494">
        <ele>439.15</ele>
        <time>2026-01-18T09:13:20.844Z</time>
      </trkpt>
      <trkpt lat="46.98796" lon="5.89508">
        <ele>439.15</ele>
        <time>2026-01-18T09:13:30.544Z</time>
      </trkpt>
      <trkpt lat="46.98795" lon="5.89522">
        <ele>439.15</ele>
        <time>2026-01-18T09:13:39.824Z</time>
      </trkpt>
      <trkpt lat="46.98794" lon="5.89536">
        <ele>439.15</ele>
        <time>2026-01-18T09:13:51.632Z</time>
      </trkpt>
      <trkpt lat="46.98794" lon="5.8955">
        <ele>439.15</ele>
        <time>2026-01-18T09:13:59.823Z</time>
      </trkpt>
      <trkpt lat="46.98791" lon="5.89563">
        <ele>439.15</ele>
        <time>2026-01-18T09:14:09.572Z</time>
      </trkpt>
      <trkpt lat="46.98787" lon="5.89576">
        <ele>439.14</ele>
        <time>2026-01-18T09:14:18.693Z</time>
      </trkpt>
      <trkpt lat="46.9878" lon="5.89586">
        <ele>439.14</ele>
        <time>2026-01-18T09:14:27.734Z</time>
      </trkpt>
      <trkpt lat="46.98773" lon="5.89596">
        <ele>439.14</ele>
        <time>2026-01-18T09:14:38.658Z</time>
      </trkpt>
      <trkpt lat="46.98766" lon="5.89602">
        <ele>439.14</ele>
        <time>2026-01-18T09:14:46.828Z</time>
      </trkpt>
      <trkpt lat="46.9876" lon="5.89613">
        <ele>439.14</ele>
        <time>2026-01-18T09:14:58.176Z</time>
      </trkpt>
      <trkpt lat="46.98761" lon="5.89627">
        <ele>439.14</ele>
        <time>2026-01-18T09:15:06.403Z</time>
      </trkpt>
      <trkpt lat="46.9876" lon="5.8964">
        <ele>456.62</ele>
        <time>2026-01-18T09:15:13.700Z</time>
      </trkpt>
      <trkpt lat="46.98761" lon="5.89654">
        <ele>456.54</ele>
        <time>2026-01-18T09:15:23.698Z</time>
      </trkpt>
      <trkpt lat="46.9876" lon="5.89667">
        <ele>457.9</ele>
        <time>2026-01-18T09:15:32.516Z</time>
      </trkpt>
      <trkpt lat="46.98759" lon="5.89681">
        <ele>459.52</ele>
        <time>2026-01-18T09:15:40.762Z</time>
      </trkpt>
      <trkpt lat="46.98755" lon="5.89692">
        <ele>460.03</ele>
        <time>2026-01-18T09:15:49.823Z</time>
      </trkpt>
      <trkpt lat="46.98746" lon="5.89698">
        <ele>459.29</ele>
        <time>2026-01-18T09:15:57.655Z</time>
      </trkpt>
      <trkpt lat="46.98741" lon="5.89708">
        <ele>461.21</ele>
        <time>2026-01-18T09:16:08.178Z</time>
      </trkpt>
      <trkpt lat="46.98732" lon="5.8971">
        <ele>464.69</ele>
        <time>2026-01-18T09:16:18.463Z</time>
      </trkpt>
      <trkpt lat="46.98722" lon="5.89711">
        <ele>467.13</ele>
        <time>2026-01-18T09:16:32.821Z</time>
      </trkpt>
      <trkpt lat="46.98713" lon="5.89712">
        <ele>471.83</ele>
        <time>2026-01-18T09:16:43.458Z</time>
      </trkpt>
      <trkpt lat="46.98704" lon="5.89712">
        <ele>474.41</ele>
        <time>2026-01-18T09:16:55.821Z</time>
      </trkpt>
      <trkpt lat="46.98695" lon="5.89715">
        <ele>472.78</ele>
        <time>2026-01-18T09:17:05.821Z</time>
      </trkpt>
      <trkpt lat="46.98686" lon="5.89715">
        <ele>477.73</ele>
        <time>2026-01-18T09:17:21.401Z</time>
      </trkpt>
      <trkpt lat="46.98677" lon="5.89716">
        <ele>479.48</ele>
        <time>2026-01-18T09:17:36.827Z</time>
      </trkpt>
      <trkpt lat="46.98667" lon="5.89715">
        <ele>482.16</ele>
        <time>2026-01-18T09:17:51.200Z</time>
      </trkpt>
      <trkpt lat="46.98659" lon="5.8971">
        <ele>484.63</ele>
        <time>2026-01-18T09:18:05.796Z</time>
      </trkpt>
      <trkpt lat="46.98651" lon="5.89703">
        <ele>439.14</ele>
        <time>2026-01-18T09:18:19.315Z</time>
      </trkpt>
      <trkpt lat="46.98642" lon="5.89698">
        <ele>439.14</ele>
        <time>2026-01-18T09:18:30.834Z</time>
      </trkpt>
      <trkpt lat="46.98634" lon="5.89692">
        <ele>490.34</ele>
        <time>2026-01-18T09:18:42.441Z</time>
      </trkpt>
      <trkpt lat="46.98625" lon="5.89688">
        <ele>492.19</ele>
        <time>2026-01-18T09:18:52.214Z</time>
      </trkpt>
      <trkpt lat="46.98617" lon="5.8968">
        <ele>496.55</ele>
        <time>2026-01-18T09:19:01.415Z</time>
      </trkpt>
      <trkpt lat="46.98608" lon="5.89678">
        <ele>496.09</ele>
        <time>2026-01-18T09:19:12.826Z</time>
      </trkpt>
      <trkpt lat="46.986" lon="5.89671">
        <ele>497.03</ele>
        <time>2026-01-18T09:19:23.734Z</time>
      </trkpt>
      <trkpt lat="46.98591" lon="5.89666">
        <ele>497.49</ele>
        <time>2026-01-18T09:19:38.853Z</time>
      </trkpt>
      <trkpt lat="46.98582" lon="5.89663">
        <ele>497.97</ele>
        <time>2026-01-18T09:19:51.679Z</time>
      </trkpt>
      <trkpt lat="46.98576" lon="5.89653">
        <ele>502.37</ele>
        <time>2026-01-18T09:20:02.822Z</time>
      </trkpt>
      <trkpt lat="46.98568" lon="5.89644">
        <ele>439.15</ele>
        <time>2026-01-18T09:20:14.802Z</time>
      </trkpt>
      <trkpt lat="46.98562" lon="5.89634">
        <ele>439.14</ele>
        <time>2026-01-18T09:20:22.818Z</time>
      </trkpt>
      <trkpt lat="46.98553" lon="5.89641">
        <ele>439.14</ele>
        <time>2026-01-18T09:21:21.823Z</time>
      </trkpt>
      <trkpt lat="46.98561" lon="5.89635">
        <ele>486.76</ele>
        <time>2026-01-18T09:21:40.821Z</time>
      </trkpt>
      <trkpt lat="46.98554" lon="5.89627">
        <ele>504.68</ele>
        <time>2026-01-18T09:23:44.872Z</time>
      </trkpt>
      <trkpt lat="46.98546" lon="5.89619">
        <ele>456.06</ele>
        <time>2026-01-18T09:23:57.822Z</time>
      </trkpt>
      <trkpt lat="46.98538" lon="5.89611">
        <ele>439.14</ele>
        <time>2026-01-18T09:24:11.773Z</time>
      </trkpt>
      <trkpt lat="46.98531" lon="5.89602">
        <ele>439.14</ele>
        <time>2026-01-18T09:24:23.361Z</time>
      </trkpt>
      <trkpt lat="46.98525" lon="5.89592">
        <ele>439.14</ele>
        <time>2026-01-18T09:24:34.896Z</time>
      </trkpt>
      <trkpt lat="46.98518" lon="5.89584">
        <ele>439.14</ele>
        <time>2026-01-18T09:24:44.539Z</time>
      </trkpt>
      <trkpt lat="46.98511" lon="5.89574">
        <ele>439.16</ele>
        <time>2026-01-18T09:24:54.615Z</time>
      </trkpt>
      <trkpt lat="46.98506" lon="5.89564">
        <ele>439.14</ele>
        <time>2026-01-18T09:25:05.539Z</time>
      </trkpt>
      <trkpt lat="46.98498" lon="5.89555">
        <ele>439.14</ele>
        <time>2026-01-18T09:25:15.352Z</time>
      </trkpt>
      <trkpt lat="46.98491" lon="5.89547">
        <ele>439.14</ele>
        <time>2026-01-18T09:25:23.060Z</time>
      </trkpt>
      <trkpt lat="46.98482" lon="5.89542">
        <ele>439.14</ele>
        <time>2026-01-18T09:25:33.815Z</time>
      </trkpt>
      <trkpt lat="46.98474" lon="5.89535">
        <ele>439.14</ele>
        <time>2026-01-18T09:25:43.820Z</time>
      </trkpt>
      <trkpt lat="46.98467" lon="5.89528">
        <ele>439.14</ele>
        <time>2026-01-18T09:25:52.819Z</time>
      </trkpt>
      <trkpt lat="46.98458" lon="5.89522">
        <ele>439.14</ele>
        <time>2026-01-18T09:26:02.141Z</time>
      </trkpt>
      <trkpt lat="46.98449" lon="5.89517">
        <ele>439.14</ele>
        <time>2026-01-18T09:26:12.642Z</time>
      </trkpt>
      <trkpt lat="46.98441" lon="5.89512">
        <ele>509.92</ele>
        <time>2026-01-18T09:26:21.803Z</time>
      </trkpt>
      <trkpt lat="46.98432" lon="5.89505">
        <ele>517.88</ele>
        <time>2026-01-18T09:26:31.825Z</time>
      </trkpt>
      <trkpt lat="46.98424" lon="5.895">
        <ele>517.73</ele>
        <time>2026-01-18T09:26:44.219Z</time>
      </trkpt>
      <trkpt lat="46.98418" lon="5.89489">
        <ele>519.47</ele>
        <time>2026-01-18T09:26:54.541Z</time>
      </trkpt>
      <trkpt lat="46.98411" lon="5.8948">
        <ele>521.86</ele>
        <time>2026-01-18T09:27:04.715Z</time>
      </trkpt>
      <trkpt lat="46.98405" lon="5.89468">
        <ele>523.95</ele>
        <time>2026-01-18T09:27:14.530Z</time>
      </trkpt>
      <trkpt lat="46.984" lon="5.89458">
        <ele>522.7</ele>
        <time>2026-01-18T09:27:24.597Z</time>
      </trkpt>
      <trkpt lat="46.98394" lon="5.89447">
        <ele>525.36</ele>
        <time>2026-01-18T09:27:34.827Z</time>
      </trkpt>
      <trkpt lat="46.98389" lon="5.89435">
        <ele>525.52</ele>
        <time>2026-01-18T09:27:47.175Z</time>
      </trkpt>
      <trkpt lat="46.98383" lon="5.89425">
        <ele>525.54</ele>
        <time>2026-01-18T09:27:58.480Z</time>
      </trkpt>
      <trkpt lat="46.98378" lon="5.89414">
        <ele>528.34</ele>
        <time>2026-01-18T09:28:06.634Z</time>
      </trkpt>
      <trkpt lat="46.98373" lon="5.89401">
        <ele>532.01</ele>
        <time>2026-01-18T09:28:17.394Z</time>
      </trkpt>
      <trkpt lat="46.98366" lon="5.89393">
        <ele>527.49</ele>
        <time>2026-01-18T09:28:29.024Z</time>
      </trkpt>
      <trkpt lat="46.98358" lon="5.89386">
        <ele>532.13</ele>
        <time>2026-01-18T09:28:44.574Z</time>
      </trkpt>
      <trkpt lat="46.9835" lon="5.89379">
        <ele>530.73</ele>
        <time>2026-01-18T09:28:57.822Z</time>
      </trkpt>
      <trkpt lat="46.98342" lon="5.89372">
        <ele>535.35</ele>
        <time>2026-01-18T09:29:10.276Z</time>
      </trkpt>
      <trkpt lat="46.98333" lon="5.89369">
        <ele>535.32</ele>
        <time>2026-01-18T09:29:20.541Z</time>
      </trkpt>
      <trkpt lat="46.98326" lon="5.89362">
        <ele>534</ele>
        <time>2026-01-18T09:29:31.824Z</time>
      </trkpt>
      <trkpt lat="46.98319" lon="5.89353">
        <ele>536.24</ele>
        <time>2026-01-18T09:29:44.812Z</time>
      </trkpt>
      <trkpt lat="46.9831" lon="5.89348">
        <ele>539.5</ele>
        <time>2026-01-18T09:29:54.054Z</time>
      </trkpt>
      <trkpt lat="46.98302" lon="5.89342">
        <ele>537.93</ele>
        <time>2026-01-18T09:30:04.322Z</time>
      </trkpt>
      <trkpt lat="46.98294" lon="5.89335">
        <ele>538.87</ele>
        <time>2026-01-18T09:30:17.177Z</time>
      </trkpt>
      <trkpt lat="46.98286" lon="5.89328">
        <ele>541.43</ele>
        <time>2026-01-18T09:30:28.340Z</time>
      </trkpt>
      <trkpt lat="46.98277" lon="5.89328">
        <ele>540.64</ele>
        <time>2026-01-18T09:30:40.540Z</time>
      </trkpt>
      <trkpt lat="46.98269" lon="5.8932">
        <ele>541.52</ele>
        <time>2026-01-18T09:30:50.237Z</time>
      </trkpt>
      <trkpt lat="46.9826" lon="5.89315">
        <ele>545.68</ele>
        <time>2026-01-18T09:30:59.657Z</time>
      </trkpt>
      <trkpt lat="46.98251" lon="5.89309">
        <ele>548.88</ele>
        <time>2026-01-18T09:31:09.812Z</time>
      </trkpt>
      <trkpt lat="46.98243" lon="5.89303">
        <ele>551.42</ele>
        <time>2026-01-18T09:31:19.418Z</time>
      </trkpt>
      <trkpt lat="46.98234" lon="5.89301">
        <ele>552.33</ele>
        <time>2026-01-18T09:31:29.656Z</time>
      </trkpt>
      <trkpt lat="46.98225" lon="5.89297">
        <ele>556.05</ele>
        <time>2026-01-18T09:31:45.702Z</time>
      </trkpt>
      <trkpt lat="46.98216" lon="5.89294">
        <ele>556.84</ele>
        <time>2026-01-18T09:31:58.414Z</time>
      </trkpt>
      <trkpt lat="46.98207" lon="5.8929">
        <ele>556.25</ele>
        <time>2026-01-18T09:32:07.655Z</time>
      </trkpt>
      <trkpt lat="46.98199" lon="5.89283">
        <ele>559.89</ele>
        <time>2026-01-18T09:32:17.560Z</time>
      </trkpt>
      <trkpt lat="46.98196" lon="5.8927">
        <ele>561.03</ele>
        <time>2026-01-18T09:33:12.821Z</time>
      </trkpt>
      <trkpt lat="46.98185" lon="5.89272">
        <ele>560.95</ele>
        <time>2026-01-18T09:34:22.420Z</time>
      </trkpt>
      <trkpt lat="46.98175" lon="5.89269">
        <ele>561.3</ele>
        <time>2026-01-18T09:34:29.061Z</time>
      </trkpt>
      <trkpt lat="46.98166" lon="5.8927">
        <ele>563.29</ele>
        <time>2026-01-18T09:34:38.438Z</time>
      </trkpt>
      <trkpt lat="46.98157" lon="5.89267">
        <ele>566.95</ele>
        <time>2026-01-18T09:34:51.818Z</time>
      </trkpt>
      <trkpt lat="46.98148" lon="5.89268">
        <ele>569.14</ele>
        <time>2026-01-18T09:35:04.133Z</time>
      </trkpt>
      <trkpt lat="46.98139" lon="5.89265">
        <ele>572.18</ele>
        <time>2026-01-18T09:35:15.818Z</time>
      </trkpt>
      <trkpt lat="46.9813" lon="5.89258">
        <ele>576.25</ele>
        <time>2026-01-18T09:35:27.818Z</time>
      </trkpt>
      <trkpt lat="46.98122" lon="5.89252">
        <ele>578.67</ele>
        <time>2026-01-18T09:35:40.754Z</time>
      </trkpt>
      <trkpt lat="46.98113" lon="5.89249">
        <ele>583.03</ele>
        <time>2026-01-18T09:35:53.618Z</time>
      </trkpt>
      <trkpt lat="46.98105" lon="5.89243">
        <ele>585.24</ele>
        <time>2026-01-18T09:36:07.481Z</time>
      </trkpt>
      <trkpt lat="46.98096" lon="5.89236">
        <ele>587.93</ele>
        <time>2026-01-18T09:36:18.634Z</time>
      </trkpt>
      <trkpt lat="46.98088" lon="5.89231">
        <ele>588.88</ele>
        <time>2026-01-18T09:36:29.755Z</time>
      </trkpt>
      <trkpt lat="46.98079" lon="5.89223">
        <ele>592.86</ele>
        <time>2026-01-18T09:36:43.698Z</time>
      </trkpt>
      <trkpt lat="46.9807" lon="5.89218">
        <ele>591.03</ele>
        <time>2026-01-18T09:36:54.819Z</time>
      </trkpt>
      <trkpt lat="46.98061" lon="5.89218">
        <ele>588.69</ele>
        <time>2026-01-18T09:37:03.356Z</time>
      </trkpt>
      <trkpt lat="46.98055" lon="5.89207">
        <ele>588.99</ele>
        <time>2026-01-18T09:37:10.201Z</time>
      </trkpt>
      <trkpt lat="46.98048" lon="5.89198">
        <ele>590.11</ele>
        <time>2026-01-18T09:37:19.822Z</time>
      </trkpt>
      <trkpt lat="46.98041" lon="5.89188">
        <ele>588.71</ele>
        <time>2026-01-18T09:37:27.173Z</time>
      </trkpt>
      <trkpt lat="46.98039" lon="5.89175">
        <ele>590.15</ele>
        <time>2026-01-18T09:37:37.814Z</time>
      </trkpt>
      <trkpt lat="46.98032" lon="5.89165">
        <ele>590.39</ele>
        <time>2026-01-18T09:37:48.822Z</time>
      </trkpt>
      <trkpt lat="46.98027" lon="5.89154">
        <ele>592.24</ele>
        <time>2026-01-18T09:37:58.601Z</time>
      </trkpt>
      <trkpt lat="46.98022" lon="5.89142">
        <ele>593.82</ele>
        <time>2026-01-18T09:38:06.463Z</time>
      </trkpt>
      <trkpt lat="46.98017" lon="5.8913">
        <ele>594.61</ele>
        <time>2026-01-18T09:38:15.546Z</time>
      </trkpt>
      <trkpt lat="46.98011" lon="5.89119">
        <ele>595.62</ele>
        <time>2026-01-18T09:38:26.676Z</time>
      </trkpt>
      <trkpt lat="46.98004" lon="5.89109">
        <ele>599.53</ele>
        <time>2026-01-18T09:38:54.545Z</time>
      </trkpt>
      <trkpt lat="46.97997" lon="5.89101">
        <ele>598.51</ele>
        <time>2026-01-18T09:39:04.656Z</time>
      </trkpt>
      <trkpt lat="46.97994" lon="5.89087">
        <ele>600.29</ele>
        <time>2026-01-18T09:39:20.870Z</time>
      </trkpt>
      <trkpt lat="46.97989" lon="5.89076">
        <ele>601.32</ele>
        <time>2026-01-18T09:39:31.063Z</time>
      </trkpt>
      <trkpt lat="46.97982" lon="5.89066">
        <ele>600.15</ele>
        <time>2026-01-18T09:39:39.719Z</time>
      </trkpt>
      <trkpt lat="46.97976" lon="5.89056">
        <ele>598.13</ele>
        <time>2026-01-18T09:39:47.813Z</time>
      </trkpt>
      <trkpt lat="46.97973" lon="5.89043">
        <ele>595.51</ele>
        <time>2026-01-18T09:39:56.817Z</time>
      </trkpt>
      <trkpt lat="46.97975" lon="5.8903">
        <ele>596.36</ele>
        <time>2026-01-18T09:40:03.815Z</time>
      </trkpt>
      <trkpt lat="46.97976" lon="5.89017">
        <ele>596.91</ele>
        <time>2026-01-18T09:40:13.279Z</time>
      </trkpt>
      <trkpt lat="46.97976" lon="5.89003">
        <ele>596.31</ele>
        <time>2026-01-18T09:40:22.300Z</time>
      </trkpt>
      <trkpt lat="46.97973" lon="5.88989">
        <ele>596.16</ele>
        <time>2026-01-18T09:40:30.824Z</time>
      </trkpt>
      <trkpt lat="46.97972" lon="5.88975">
        <ele>594.84</ele>
        <time>2026-01-18T09:40:39.441Z</time>
      </trkpt>
      <trkpt lat="46.97969" lon="5.88961">
        <ele>594.44</ele>
        <time>2026-01-18T09:40:46.362Z</time>
      </trkpt>
      <trkpt lat="46.97964" lon="5.88949">
        <ele>592.05</ele>
        <time>2026-01-18T09:40:56.383Z</time>
      </trkpt>
      <trkpt lat="46.97962" lon="5.88936">
        <ele>587.85</ele>
        <time>2026-01-18T09:41:08.362Z</time>
      </trkpt>
      <trkpt lat="46.97958" lon="5.88924">
        <ele>581.7</ele>
        <time>2026-01-18T09:41:20.442Z</time>
      </trkpt>
      <trkpt lat="46.97958" lon="5.8891">
        <ele>579.49</ele>
        <time>2026-01-18T09:41:30.779Z</time>
      </trkpt>
      <trkpt lat="46.97956" lon="5.88895">
        <ele>576.85</ele>
        <time>2026-01-18T09:41:39.577Z</time>
      </trkpt>
      <trkpt lat="46.97953" lon="5.88881">
        <ele>579.71</ele>
        <time>2026-01-18T09:41:44.582Z</time>
      </trkpt>
      <trkpt lat="46.97948" lon="5.88869">
        <ele>584.4</ele>
        <time>2026-01-18T09:41:50.299Z</time>
      </trkpt>
      <trkpt lat="46.97945" lon="5.88857">
        <ele>587.26</ele>
        <time>2026-01-18T09:41:56.542Z</time>
      </trkpt>
      <trkpt lat="46.9794" lon="5.88844">
        <ele>586.88</ele>
        <time>2026-01-18T09:42:06.823Z</time>
      </trkpt>
      <trkpt lat="46.97935" lon="5.88832">
        <ele>583.76</ele>
        <time>2026-01-18T09:42:15.526Z</time>
      </trkpt>
      <trkpt lat="46.97931" lon="5.8882">
        <ele>580.54</ele>
        <time>2026-01-18T09:42:38.197Z</time>
      </trkpt>
      <trkpt lat="46.97926" lon="5.88807">
        <ele>586.27</ele>
        <time>2026-01-18T09:42:46.662Z</time>
      </trkpt>
      <trkpt lat="46.9792" lon="5.88797">
        <ele>586.35</ele>
        <time>2026-01-18T09:42:58.539Z</time>
      </trkpt>
      <trkpt lat="46.97913" lon="5.88789">
        <ele>589.74</ele>
        <time>2026-01-18T09:43:11.814Z</time>
      </trkpt>
      <trkpt lat="46.97904" lon="5.88783">
        <ele>590.98</ele>
        <time>2026-01-18T09:43:22.830Z</time>
      </trkpt>
      <trkpt lat="46.97897" lon="5.88775">
        <ele>590.77</ele>
        <time>2026-01-18T09:43:35.824Z</time>
      </trkpt>
      <trkpt lat="46.97891" lon="5.88766">
        <ele>592.55</ele>
        <time>2026-01-18T09:43:47.421Z</time>
      </trkpt>
      <trkpt lat="46.97883" lon="5.88757">
        <ele>590.93</ele>
        <time>2026-01-18T09:43:56.737Z</time>
      </trkpt>
      <trkpt lat="46.97877" lon="5.88748">
        <ele>593.38</ele>
        <time>2026-01-18T09:44:04.103Z</time>
      </trkpt>
      <trkpt lat="46.97871" lon="5.88737">
        <ele>597.65</ele>
        <time>2026-01-18T09:44:13.332Z</time>
      </trkpt>
      <trkpt lat="46.97866" lon="5.88727">
        <ele>593.9</ele>
        <time>2026-01-18T09:44:24.075Z</time>
      </trkpt>
      <trkpt lat="46.97863" lon="5.88714">
        <ele>592.68</ele>
        <time>2026-01-18T09:44:31.817Z</time>
      </trkpt>
      <trkpt lat="46.97864" lon="5.887">
        <ele>593.49</ele>
        <time>2026-01-18T09:44:38.532Z</time>
      </trkpt>
      <trkpt lat="46.97866" lon="5.88687">
        <ele>594.77</ele>
        <time>2026-01-18T09:44:44.528Z</time>
      </trkpt>
      <trkpt lat="46.97859" lon="5.88677">
        <ele>592.15</ele>
        <time>2026-01-18T09:44:55.547Z</time>
      </trkpt>
      <trkpt lat="46.9785" lon="5.88672">
        <ele>589.16</ele>
        <time>2026-01-18T09:45:07.607Z</time>
      </trkpt>
      <trkpt lat="46.97843" lon="5.88663">
        <ele>586.35</ele>
        <time>2026-01-18T09:45:17.738Z</time>
      </trkpt>
      <trkpt lat="46.9784" lon="5.8865">
        <ele>582.83</ele>
        <time>2026-01-18T09:45:32.376Z</time>
      </trkpt>
      <trkpt lat="46.9784" lon="5.88636">
        <ele>589.82</ele>
        <time>2026-01-18T09:45:42.581Z</time>
      </trkpt>
      <trkpt lat="46.97836" lon="5.88625">
        <ele>589.01</ele>
        <time>2026-01-18T09:46:48.822Z</time>
      </trkpt>
      <trkpt lat="46.97828" lon="5.88617">
        <ele>587.28</ele>
        <time>2026-01-18T09:47:08.277Z</time>
      </trkpt>
      <trkpt lat="46.97821" lon="5.88609">
        <ele>586.13</ele>
        <time>2026-01-18T09:47:14.544Z</time>
      </trkpt>
      <trkpt lat="46.97819" lon="5.88595">
        <ele>585.43</ele>
        <time>2026-01-18T09:47:25.599Z</time>
      </trkpt>
      <trkpt lat="46.97826" lon="5.88585">
        <ele>585.83</ele>
        <time>2026-01-18T09:47:37.719Z</time>
      </trkpt>
      <trkpt lat="46.97825" lon="5.88571">
        <ele>584.49</ele>
        <time>2026-01-18T09:47:50.615Z</time>
      </trkpt>
      <trkpt lat="46.97824" lon="5.88557">
        <ele>583.65</ele>
        <time>2026-01-18T09:48:00.641Z</time>
      </trkpt>
      <trkpt lat="46.97823" lon="5.88543">
        <ele>583.83</ele>
        <time>2026-01-18T09:48:10.798Z</time>
      </trkpt>
      <trkpt lat="46.9782" lon="5.88531">
        <ele>584.05</ele>
        <time>2026-01-18T09:48:18.619Z</time>
      </trkpt>
      <trkpt lat="46.97817" lon="5.88519">
        <ele>581.71</ele>
        <time>2026-01-18T09:48:30.842Z</time>
      </trkpt>
      <trkpt lat="46.97813" lon="5.88506">
        <ele>582.93</ele>
        <time>2026-01-18T09:48:53.682Z</time>
      </trkpt>
      <trkpt lat="46.97815" lon="5.88489">
        <ele>581.78</ele>
        <time>2026-01-18T09:49:05.846Z</time>
      </trkpt>
      <trkpt lat="46.97817" lon="5.88475">
        <ele>582.89</ele>
        <time>2026-01-18T09:49:14.883Z</time>
      </trkpt>
      <trkpt lat="46.97811" lon="5.88464">
        <ele>585</ele>
        <time>2026-01-18T09:49:27.740Z</time>
      </trkpt>
      <trkpt lat="46.97807" lon="5.88452">
        <ele>584.57</ele>
        <time>2026-01-18T09:49:36.476Z</time>
      </trkpt>
      <trkpt lat="46.97799" lon="5.88445">
        <ele>585.07</ele>
        <time>2026-01-18T09:49:44.875Z</time>
      </trkpt>
      <trkpt lat="46.9779" lon="5.88441">
        <ele>584.7</ele>
        <time>2026-01-18T09:49:53.538Z</time>
      </trkpt>
      <trkpt lat="46.97782" lon="5.88433">
        <ele>584.44</ele>
        <time>2026-01-18T09:50:00.415Z</time>
      </trkpt>
      <trkpt lat="46.97774" lon="5.88425">
        <ele>583.73</ele>
        <time>2026-01-18T09:50:10.602Z</time>
      </trkpt>
      <trkpt lat="46.97766" lon="5.88414">
        <ele>581.8</ele>
        <time>2026-01-18T09:50:16.703Z</time>
      </trkpt>
      <trkpt lat="46.9776" lon="5.88404">
        <ele>582.69</ele>
        <time>2026-01-18T09:50:22.627Z</time>
      </trkpt>
      <trkpt lat="46.97747" lon="5.88397">
        <ele>584.29</ele>
        <time>2026-01-18T09:50:50.876Z</time>
      </trkpt>
      <trkpt lat="46.97738" lon="5.88397">
        <ele>585.25</ele>
        <time>2026-01-18T09:50:58.582Z</time>
      </trkpt>
      <trkpt lat="46.97732" lon="5.88387">
        <ele>587.22</ele>
        <time>2026-01-18T09:51:04.669Z</time>
      </trkpt>
      <trkpt lat="46.97729" lon="5.88374">
        <ele>589.02</ele>
        <time>2026-01-18T09:51:13.443Z</time>
      </trkpt>
      <trkpt lat="46.97723" lon="5.88364">
        <ele>590.86</ele>
        <time>2026-01-18T09:51:22.403Z</time>
      </trkpt>
      <trkpt lat="46.97719" lon="5.88352">
        <ele>591.47</ele>
        <time>2026-01-18T09:51:33.815Z</time>
      </trkpt>
      <trkpt lat="46.97716" lon="5.88339">
        <ele>586.35</ele>
        <time>2026-01-18T09:53:28.454Z</time>
      </trkpt>
      <trkpt lat="46.97711" lon="5.88327">
        <ele>586.92</ele>
        <time>2026-01-18T09:53:36.315Z</time>
      </trkpt>
      <trkpt lat="46.97708" lon="5.88314">
        <ele>586.37</ele>
        <time>2026-01-18T09:53:43.816Z</time>
      </trkpt>
      <trkpt lat="46.977" lon="5.88306">
        <ele>584.35</ele>
        <time>2026-01-18T09:53:54.173Z</time>
      </trkpt>
      <trkpt lat="46.97695" lon="5.88293">
        <ele>583.86</ele>
        <time>2026-01-18T09:54:03.695Z</time>
      </trkpt>
      <trkpt lat="46.97689" lon="5.88283">
        <ele>582.9</ele>
        <time>2026-01-18T09:54:14.874Z</time>
      </trkpt>
      <trkpt lat="46.97683" lon="5.88273">
        <ele>582.34</ele>
        <time>2026-01-18T09:54:27.210Z</time>
      </trkpt>
      <trkpt lat="46.97676" lon="5.88263">
        <ele>580</ele>
        <time>2026-01-18T09:54:37.535Z</time>
      </trkpt>
      <trkpt lat="46.97669" lon="5.88254">
        <ele>575.42</ele>
        <time>2026-01-18T09:54:47.842Z</time>
      </trkpt>
      <trkpt lat="46.97663" lon="5.88243">
        <ele>574.46</ele>
        <time>2026-01-18T09:54:56.880Z</time>
      </trkpt>
      <trkpt lat="46.97657" lon="5.88233">
        <ele>574.43</ele>
        <time>2026-01-18T09:55:05.780Z</time>
      </trkpt>
      <trkpt lat="46.9765" lon="5.88223">
        <ele>572.28</ele>
        <time>2026-01-18T09:55:14.749Z</time>
      </trkpt>
      <trkpt lat="46.97642" lon="5.88214">
        <ele>569.66</ele>
        <time>2026-01-18T09:55:24.461Z</time>
      </trkpt>
      <trkpt lat="46.97637" lon="5.88202">
        <ele>572.94</ele>
        <time>2026-01-18T09:55:35.812Z</time>
      </trkpt>
      <trkpt lat="46.97636" lon="5.88188">
        <ele>581.92</ele>
        <time>2026-01-18T09:57:10.820Z</time>
      </trkpt>
      <trkpt lat="46.97629" lon="5.8818">
        <ele>582.58</ele>
        <time>2026-01-18T09:58:07.213Z</time>
      </trkpt>
      <trkpt lat="46.97627" lon="5.88166">
        <ele>580.21</ele>
        <time>2026-01-18T09:58:15.818Z</time>
      </trkpt>
      <trkpt lat="46.97623" lon="5.88153">
        <ele>579.48</ele>
        <time>2026-01-18T09:58:23.481Z</time>
      </trkpt>
      <trkpt lat="46.97615" lon="5.88143">
        <ele>581.12</ele>
        <time>2026-01-18T09:58:29.159Z</time>
      </trkpt>
      <trkpt lat="46.97609" lon="5.88133">
        <ele>582.37</ele>
        <time>2026-01-18T09:58:40.715Z</time>
      </trkpt>
      <trkpt lat="46.97605" lon="5.8812">
        <ele>578.8</ele>
        <time>2026-01-18T09:58:49.825Z</time>
      </trkpt>
      <trkpt lat="46.97601" lon="5.88106">
        <ele>578.93</ele>
        <time>2026-01-18T09:58:57.800Z</time>
      </trkpt>
      <trkpt lat="46.976" lon="5.88093">
        <ele>576.54</ele>
        <time>2026-01-18T09:59:06.813Z</time>
      </trkpt>
      <trkpt lat="46.97594" lon="5.88082">
        <ele>577.98</ele>
        <time>2026-01-18T09:59:40.302Z</time>
      </trkpt>
      <trkpt lat="46.97587" lon="5.88073">
        <ele>577.13</ele>
        <time>2026-01-18T09:59:46.817Z</time>
      </trkpt>
      <trkpt lat="46.97581" lon="5.88062">
        <ele>574.39</ele>
        <time>2026-01-18T09:59:54.274Z</time>
      </trkpt>
      <trkpt lat="46.97574" lon="5.88051">
        <ele>572.97</ele>
        <time>2026-01-18T10:00:04.602Z</time>
      </trkpt>
      <trkpt lat="46.97572" lon="5.88038">
        <ele>570.35</ele>
        <time>2026-01-18T10:00:14.817Z</time>
      </trkpt>
      <trkpt lat="46.97567" lon="5.88026">
        <ele>570.05</ele>
        <time>2026-01-18T10:00:22.832Z</time>
      </trkpt>
      <trkpt lat="46.97563" lon="5.88013">
        <ele>569.35</ele>
        <time>2026-01-18T10:00:29.657Z</time>
      </trkpt>
      <trkpt lat="46.97562" lon="5.88">
        <ele>567.96</ele>
        <time>2026-01-18T10:00:38.836Z</time>
      </trkpt>
      <trkpt lat="46.9756" lon="5.87986">
        <ele>567.06</ele>
        <time>2026-01-18T10:00:49.683Z</time>
      </trkpt>
      <trkpt lat="46.97556" lon="5.87974">
        <ele>566.35</ele>
        <time>2026-01-18T10:00:56.858Z</time>
      </trkpt>
      <trkpt lat="46.97555" lon="5.87961">
        <ele>567.39</ele>
        <time>2026-01-18T10:01:04.299Z</time>
      </trkpt>
      <trkpt lat="46.97556" lon="5.87945">
        <ele>567.82</ele>
        <time>2026-01-18T10:01:09.822Z</time>
      </trkpt>
      <trkpt lat="46.97559" lon="5.87932">
        <ele>566.3</ele>
        <time>2026-01-18T10:01:16.441Z</time>
      </trkpt>
      <trkpt lat="46.97561" lon="5.87919">
        <ele>562.25</ele>
        <time>2026-01-18T10:01:26.884Z</time>
      </trkpt>
      <trkpt lat="46.97556" lon="5.87906">
        <ele>560.6</ele>
        <time>2026-01-18T10:01:34.260Z</time>
      </trkpt>
      <trkpt lat="46.97552" lon="5.87894">
        <ele>562.93</ele>
        <time>2026-01-18T10:01:42.820Z</time>
      </trkpt>
      <trkpt lat="46.97549" lon="5.87881">
        <ele>564.29</ele>
        <time>2026-01-18T10:02:05.284Z</time>
      </trkpt>
      <trkpt lat="46.97548" lon="5.87868">
        <ele>564.01</ele>
        <time>2026-01-18T10:02:12.037Z</time>
      </trkpt>
      <trkpt lat="46.97546" lon="5.87854">
        <ele>562.89</ele>
        <time>2026-01-18T10:02:19.041Z</time>
      </trkpt>
      <trkpt lat="46.97544" lon="5.87841">
        <ele>566.03</ele>
        <time>2026-01-18T10:02:27.419Z</time>
      </trkpt>
      <trkpt lat="46.97541" lon="5.87828">
        <ele>565.15</ele>
        <time>2026-01-18T10:02:34.597Z</time>
      </trkpt>
      <trkpt lat="46.97539" lon="5.87814">
        <ele>565.16</ele>
        <time>2026-01-18T10:02:41.405Z</time>
      </trkpt>
      <trkpt lat="46.97537" lon="5.87801">
        <ele>564.66</ele>
        <time>2026-01-18T10:02:53.462Z</time>
      </trkpt>
      <trkpt lat="46.97533" lon="5.87788">
        <ele>565.65</ele>
        <time>2026-01-18T10:03:01.162Z</time>
      </trkpt>
      <trkpt lat="46.97532" lon="5.87774">
        <ele>568.56</ele>
        <time>2026-01-18T10:03:09.813Z</time>
      </trkpt>
      <trkpt lat="46.97527" lon="5.87764">
        <ele>565.72</ele>
        <time>2026-01-18T10:03:17.280Z</time>
      </trkpt>
      <trkpt lat="46.97522" lon="5.87753">
        <ele>565.2</ele>
        <time>2026-01-18T10:03:23.819Z</time>
      </trkpt>
      <trkpt lat="46.9752" lon="5.87738">
        <ele>563.4</ele>
        <time>2026-01-18T10:03:31.539Z</time>
      </trkpt>
      <trkpt lat="46.97519" lon="5.87724">
        <ele>562.91</ele>
        <time>2026-01-18T10:03:39.820Z</time>
      </trkpt>
      <trkpt lat="46.97519" lon="5.87711">
        <ele>562.95</ele>
        <time>2026-01-18T10:03:47.702Z</time>
      </trkpt>
      <trkpt lat="46.9752" lon="5.87697">
        <ele>563.25</ele>
        <time>2026-01-18T10:03:54.823Z</time>
      </trkpt>
      <trkpt lat="46.97521" lon="5.87682">
        <ele>562.85</ele>
        <time>2026-01-18T10:04:03.815Z</time>
      </trkpt>
      <trkpt lat="46.97523" lon="5.87669">
        <ele>561.46</ele>
        <time>2026-01-18T10:04:10.535Z</time>
      </trkpt>
      <trkpt lat="46.97529" lon="5.87658">
        <ele>565.87</ele>
        <time>2026-01-18T10:04:45.816Z</time>
      </trkpt>
      <trkpt lat="46.97529" lon="5.87644">
        <ele>565.3</ele>
        <time>2026-01-18T10:05:10.275Z</time>
      </trkpt>
      <trkpt lat="46.97524" lon="5.87632">
        <ele>564.01</ele>
        <time>2026-01-18T10:05:18.818Z</time>
      </trkpt>
      <trkpt lat="46.97524" lon="5.87618">
        <ele>560.62</ele>
        <time>2026-01-18T10:05:28.355Z</time>
      </trkpt>
      <trkpt lat="46.9752" lon="5.87605">
        <ele>559.8</ele>
        <time>2026-01-18T10:05:37.812Z</time>
      </trkpt>
      <trkpt lat="46.97516" lon="5.87594">
        <ele>558.55</ele>
        <time>2026-01-18T10:05:48.811Z</time>
      </trkpt>
      <trkpt lat="46.97515" lon="5.8758">
        <ele>558.16</ele>
        <time>2026-01-18T10:05:57.822Z</time>
      </trkpt>
      <trkpt lat="46.97518" lon="5.87567">
        <ele>559.84</ele>
        <time>2026-01-18T10:06:06.439Z</time>
      </trkpt>
      <trkpt lat="46.9751" lon="5.87562">
        <ele>552.12</ele>
        <time>2026-01-18T10:08:02.776Z</time>
      </trkpt>
      <trkpt lat="46.9751" lon="5.87542">
        <ele>552.83</ele>
        <time>2026-01-18T10:08:07.831Z</time>
      </trkpt>
      <trkpt lat="46.97508" lon="5.87529">
        <ele>554.05</ele>
        <time>2026-01-18T10:08:14.293Z</time>
      </trkpt>
      <trkpt lat="46.97505" lon="5.87516">
        <ele>555.58</ele>
        <time>2026-01-18T10:08:22.157Z</time>
      </trkpt>
      <trkpt lat="46.97504" lon="5.87502">
        <ele>556.76</ele>
        <time>2026-01-18T10:08:29.352Z</time>
      </trkpt>
      <trkpt lat="46.97507" lon="5.87489">
        <ele>558.51</ele>
        <time>2026-01-18T10:08:36.804Z</time>
      </trkpt>
      <trkpt lat="46.97513" lon="5.87477">
        <ele>557.69</ele>
        <time>2026-01-18T10:08:46.779Z</time>
      </trkpt>
      <trkpt lat="46.97517" lon="5.87465">
        <ele>557.58</ele>
        <time>2026-01-18T10:08:54.818Z</time>
      </trkpt>
      <trkpt lat="46.97521" lon="5.87451">
        <ele>555.66</ele>
        <time>2026-01-18T10:09:03.680Z</time>
      </trkpt>
      <trkpt lat="46.97524" lon="5.87438">
        <ele>553.69</ele>
        <time>2026-01-18T10:09:09.817Z</time>
      </trkpt>
      <trkpt lat="46.97526" lon="5.87424">
        <ele>551.74</ele>
        <time>2026-01-18T10:09:16.598Z</time>
      </trkpt>
      <trkpt lat="46.97529" lon="5.87411">
        <ele>553.14</ele>
        <time>2026-01-18T10:09:23.603Z</time>
      </trkpt>
      <trkpt lat="46.97529" lon="5.87398">
        <ele>552.78</ele>
        <time>2026-01-18T10:09:30.679Z</time>
      </trkpt>
      <trkpt lat="46.97534" lon="5.87384">
        <ele>552.14</ele>
        <time>2026-01-18T10:09:38.764Z</time>
      </trkpt>
      <trkpt lat="46.97538" lon="5.87372">
        <ele>551.81</ele>
        <time>2026-01-18T10:09:45.820Z</time>
      </trkpt>
      <trkpt lat="46.97541" lon="5.87358">
        <ele>551.33</ele>
        <time>2026-01-18T10:09:52.814Z</time>
      </trkpt>
      <trkpt lat="46.97539" lon="5.87345">
        <ele>549.29</ele>
        <time>2026-01-18T10:10:00.822Z</time>
      </trkpt>
      <trkpt lat="46.97538" lon="5.87331">
        <ele>547.18</ele>
        <time>2026-01-18T10:10:07.402Z</time>
      </trkpt>
      <trkpt lat="46.97538" lon="5.87317">
        <ele>545.87</ele>
        <time>2026-01-18T10:10:14.540Z</time>
      </trkpt>
      <trkpt lat="46.97546" lon="5.87308">
        <ele>553.29</ele>
        <time>2026-01-18T10:10:48.876Z</time>
      </trkpt>
      <trkpt lat="46.97537" lon="5.87312">
        <ele>542.69</ele>
        <time>2026-01-18T10:11:44.062Z</time>
      </trkpt>
      <trkpt lat="46.97531" lon="5.87302">
        <ele>546.38</ele>
        <time>2026-01-18T10:11:54.822Z</time>
      </trkpt>
      <trkpt lat="46.97522" lon="5.87304">
        <ele>549.97</ele>
        <time>2026-01-18T10:12:08.454Z</time>
      </trkpt>
      <trkpt lat="46.97515" lon="5.87295">
        <ele>552.15</ele>
        <time>2026-01-18T10:12:20.796Z</time>
      </trkpt>
      <trkpt lat="46.97507" lon="5.87285">
        <ele>553.01</ele>
        <time>2026-01-18T10:12:29.824Z</time>
      </trkpt>
      <trkpt lat="46.97502" lon="5.87274">
        <ele>553.45</ele>
        <time>2026-01-18T10:12:42.380Z</time>
      </trkpt>
      <trkpt lat="46.97495" lon="5.87265">
        <ele>552.75</ele>
        <time>2026-01-18T10:12:53.695Z</time>
      </trkpt>
      <trkpt lat="46.97489" lon="5.87256">
        <ele>552.96</ele>
        <time>2026-01-18T10:13:03.540Z</time>
      </trkpt>
      <trkpt lat="46.97481" lon="5.87249">
        <ele>554.46</ele>
        <time>2026-01-18T10:13:19.458Z</time>
      </trkpt>
      <trkpt lat="46.97475" lon="5.87239">
        <ele>558.32</ele>
        <time>2026-01-18T10:13:35.101Z</time>
      </trkpt>
      <trkpt lat="46.97467" lon="5.87231">
        <ele>563.05</ele>
        <time>2026-01-18T10:13:47.262Z</time>
      </trkpt>
      <trkpt lat="46.97459" lon="5.87223">
        <ele>568.25</ele>
        <time>2026-01-18T10:14:02.713Z</time>
      </trkpt>
      <trkpt lat="46.97451" lon="5.87221">
        <ele>567.76</ele>
        <time>2026-01-18T10:14:13.823Z</time>
      </trkpt>
      <trkpt lat="46.97441" lon="5.8722">
        <ele>576.65</ele>
        <time>2026-01-18T10:15:02.865Z</time>
      </trkpt>
      <trkpt lat="46.97434" lon="5.87211">
        <ele>574.76</ele>
        <time>2026-01-18T10:15:13.181Z</time>
      </trkpt>
      <trkpt lat="46.97428" lon="5.87202">
        <ele>575.85</ele>
        <time>2026-01-18T10:15:21.801Z</time>
      </trkpt>
      <trkpt lat="46.97419" lon="5.87195">
        <ele>572.34</ele>
        <time>2026-01-18T10:15:31.817Z</time>
      </trkpt>
      <trkpt lat="46.97413" lon="5.87184">
        <ele>572.29</ele>
        <time>2026-01-18T10:15:40.818Z</time>
      </trkpt>
      <trkpt lat="46.97412" lon="5.87171">
        <ele>572.32</ele>
        <time>2026-01-18T10:15:49.823Z</time>
      </trkpt>
      <trkpt lat="46.97407" lon="5.87159">
        <ele>571.45</ele>
        <time>2026-01-18T10:16:00.816Z</time>
      </trkpt>
      <trkpt lat="46.97406" lon="5.87145">
        <ele>569.45</ele>
        <time>2026-01-18T10:16:10.820Z</time>
      </trkpt>
      <trkpt lat="46.97403" lon="5.87132">
        <ele>567.81</ele>
        <time>2026-01-18T10:16:20.864Z</time>
      </trkpt>
      <trkpt lat="46.97397" lon="5.87122">
        <ele>568.06</ele>
        <time>2026-01-18T10:16:29.017Z</time>
      </trkpt>
      <trkpt lat="46.97389" lon="5.87115">
        <ele>568.86</ele>
        <time>2026-01-18T10:16:38.440Z</time>
      </trkpt>
      <trkpt lat="46.9738" lon="5.87111">
        <ele>570.06</ele>
        <time>2026-01-18T10:16:46.219Z</time>
      </trkpt>
      <trkpt lat="46.97371" lon="5.87109">
        <ele>570.37</ele>
        <time>2026-01-18T10:16:53.578Z</time>
      </trkpt>
      <trkpt lat="46.97362" lon="5.87107">
        <ele>570.49</ele>
        <time>2026-01-18T10:17:02.056Z</time>
      </trkpt>
      <trkpt lat="46.97353" lon="5.87102">
        <ele>571.47</ele>
        <time>2026-01-18T10:17:10.762Z</time>
      </trkpt>
      <trkpt lat="46.97343" lon="5.87099">
        <ele>574.44</ele>
        <time>2026-01-18T10:17:21.654Z</time>
      </trkpt>
      <trkpt lat="46.97337" lon="5.8709">
        <ele>577.05</ele>
        <time>2026-01-18T10:17:29.811Z</time>
      </trkpt>
      <trkpt lat="46.97327" lon="5.87084">
        <ele>577.51</ele>
        <time>2026-01-18T10:17:38.840Z</time>
      </trkpt>
      <trkpt lat="46.97318" lon="5.87079">
        <ele>578.62</ele>
        <time>2026-01-18T10:17:45.816Z</time>
      </trkpt>
      <trkpt lat="46.97311" lon="5.87071">
        <ele>580.5</ele>
        <time>2026-01-18T10:17:54.261Z</time>
      </trkpt>
      <trkpt lat="46.97302" lon="5.87065">
        <ele>581.48</ele>
        <time>2026-01-18T10:18:09.321Z</time>
      </trkpt>
      <trkpt lat="46.97294" lon="5.87061">
        <ele>581.93</ele>
        <time>2026-01-18T10:18:16.376Z</time>
      </trkpt>
      <trkpt lat="46.97286" lon="5.87055">
        <ele>581.15</ele>
        <time>2026-01-18T10:18:26.826Z</time>
      </trkpt>
      <trkpt lat="46.97277" lon="5.87049">
        <ele>581.98</ele>
        <time>2026-01-18T10:18:36.541Z</time>
      </trkpt>
      <trkpt lat="46.97268" lon="5.87052">
        <ele>580.76</ele>
        <time>2026-01-18T10:18:47.983Z</time>
      </trkpt>
      <trkpt lat="46.97259" lon="5.87052">
        <ele>580.04</ele>
        <time>2026-01-18T10:18:57.817Z</time>
      </trkpt>
      <trkpt lat="46.97251" lon="5.87059">
        <ele>581.39</ele>
        <time>2026-01-18T10:19:08.360Z</time>
      </trkpt>
      <trkpt lat="46.97247" lon="5.87071">
        <ele>581.16</ele>
        <time>2026-01-18T10:19:21.558Z</time>
      </trkpt>
      <trkpt lat="46.97242" lon="5.87082">
        <ele>580.18</ele>
        <time>2026-01-18T10:19:32.860Z</time>
      </trkpt>
      <trkpt lat="46.97234" lon="5.87092">
        <ele>580.76</ele>
        <time>2026-01-18T10:19:42.823Z</time>
      </trkpt>
      <trkpt lat="46.97227" lon="5.87101">
        <ele>586.23</ele>
        <time>2026-01-18T10:19:58.815Z</time>
      </trkpt>
      <trkpt lat="46.97219" lon="5.87107">
        <ele>589.43</ele>
        <time>2026-01-18T10:20:06.697Z</time>
      </trkpt>
      <trkpt lat="46.97221" lon="5.8712">
        <ele>591.67</ele>
        <time>2026-01-18T10:20:20.818Z</time>
      </trkpt>
      <trkpt lat="46.9722" lon="5.87134">
        <ele>591.69</ele>
        <time>2026-01-18T10:20:34.526Z</time>
      </trkpt>
      <trkpt lat="46.97216" lon="5.87145">
        <ele>592.71</ele>
        <time>2026-01-18T10:20:50.856Z</time>
      </trkpt>
      <trkpt lat="46.97218" lon="5.87158">
        <ele>597.2</ele>
        <time>2026-01-18T10:21:06.808Z</time>
      </trkpt>
      <trkpt lat="46.97222" lon="5.87171">
        <ele>597.73</ele>
        <time>2026-01-18T10:21:18.439Z</time>
      </trkpt>
      <trkpt lat="46.97223" lon="5.87184">
        <ele>602.46</ele>
        <time>2026-01-18T10:21:35.542Z</time>
      </trkpt>
      <trkpt lat="46.97222" lon="5.87198">
        <ele>602.82</ele>
        <time>2026-01-18T10:21:48.814Z</time>
      </trkpt>
      <trkpt lat="46.97223" lon="5.87212">
        <ele>604.19</ele>
        <time>2026-01-18T10:22:03.516Z</time>
      </trkpt>
      <trkpt lat="46.97218" lon="5.87222">
        <ele>609.36</ele>
        <time>2026-01-18T10:22:26.883Z</time>
      </trkpt>
      <trkpt lat="46.97213" lon="5.87233">
        <ele>614.3</ele>
        <time>2026-01-18T10:22:45.534Z</time>
      </trkpt>
      <trkpt lat="46.97206" lon="5.87243">
        <ele>621.74</ele>
        <time>2026-01-18T10:23:09.039Z</time>
      </trkpt>
      <trkpt lat="46.97199" lon="5.87251">
        <ele>625.69</ele>
        <time>2026-01-18T10:23:28.538Z</time>
      </trkpt>
      <trkpt lat="46.97193" lon="5.87261">
        <ele>628.85</ele>
        <time>2026-01-18T10:23:43.718Z</time>
      </trkpt>
      <trkpt lat="46.97195" lon="5.87275">
        <ele>633.57</ele>
        <time>2026-01-18T10:24:02.414Z</time>
      </trkpt>
      <trkpt lat="46.97197" lon="5.87288">
        <ele>638.95</ele>
        <time>2026-01-18T10:24:15.813Z</time>
      </trkpt>
      <trkpt lat="46.97199" lon="5.87302">
        <ele>638.98</ele>
        <time>2026-01-18T10:24:32.872Z</time>
      </trkpt>
      <trkpt lat="46.972" lon="5.87315">
        <ele>642.51</ele>
        <time>2026-01-18T10:24:47.817Z</time>
      </trkpt>
      <trkpt lat="46.97191" lon="5.87318">
        <ele>640.87</ele>
        <time>2026-01-18T10:25:19.635Z</time>
      </trkpt>
      <trkpt lat="46.97182" lon="5.8732">
        <ele>644.23</ele>
        <time>2026-01-18T10:25:34.522Z</time>
      </trkpt>
      <trkpt lat="46.97173" lon="5.87317">
        <ele>650.45</ele>
        <time>2026-01-18T10:25:50.478Z</time>
      </trkpt>
      <trkpt lat="46.97163" lon="5.87317">
        <ele>652.03</ele>
        <time>2026-01-18T10:26:06.576Z</time>
      </trkpt>
      <trkpt lat="46.97155" lon="5.87321">
        <ele>653.75</ele>
        <time>2026-01-18T10:26:23.811Z</time>
      </trkpt>
      <trkpt lat="46.97146" lon="5.87317">
        <ele>656.58</ele>
        <time>2026-01-18T10:26:38.535Z</time>
      </trkpt>
      <trkpt lat="46.97137" lon="5.87314">
        <ele>662.2</ele>
        <time>2026-01-18T10:26:58.037Z</time>
      </trkpt>
      <trkpt lat="46.97128" lon="5.87308">
        <ele>665.36</ele>
        <time>2026-01-18T10:27:10.558Z</time>
      </trkpt>
      <trkpt lat="46.9712" lon="5.87315">
        <ele>665.86</ele>
        <time>2026-01-18T10:27:37.814Z</time>
      </trkpt>
      <trkpt lat="46.97111" lon="5.8732">
        <ele>673.21</ele>
        <time>2026-01-18T10:29:21.816Z</time>
      </trkpt>
      <trkpt lat="46.9711" lon="5.87334">
        <ele>675.84</ele>
        <time>2026-01-18T10:29:40.812Z</time>
      </trkpt>
      <trkpt lat="46.97113" lon="5.87346">
        <ele>678.12</ele>
        <time>2026-01-18T10:29:49.638Z</time>
      </trkpt>
      <trkpt lat="46.97117" lon="5.87358">
        <ele>681.86</ele>
        <time>2026-01-18T10:30:00.830Z</time>
      </trkpt>
      <trkpt lat="46.97114" lon="5.87372">
        <ele>685.43</ele>
        <time>2026-01-18T10:30:36.279Z</time>
      </trkpt>
      <trkpt lat="46.97105" lon="5.87374">
        <ele>685.8</ele>
        <time>2026-01-18T10:30:49.455Z</time>
      </trkpt>
      <trkpt lat="46.97098" lon="5.87366">
        <ele>689.02</ele>
        <time>2026-01-18T10:31:05.381Z</time>
      </trkpt>
      <trkpt lat="46.97088" lon="5.87365">
        <ele>691.93</ele>
        <time>2026-01-18T10:31:24.816Z</time>
      </trkpt>
      <trkpt lat="46.9708" lon="5.8736">
        <ele>694.37</ele>
        <time>2026-01-18T10:31:35.400Z</time>
      </trkpt>
      <trkpt lat="46.97071" lon="5.87356">
        <ele>698.06</ele>
        <time>2026-01-18T10:31:53.480Z</time>
      </trkpt>
      <trkpt lat="46.97062" lon="5.87358">
        <ele>700.27</ele>
        <time>2026-01-18T10:32:10.826Z</time>
      </trkpt>
      <trkpt lat="46.97053" lon="5.87355">
        <ele>704.59</ele>
        <time>2026-01-18T10:33:03.824Z</time>
      </trkpt>
      <trkpt lat="46.97044" lon="5.87355">
        <ele>701.47</ele>
        <time>2026-01-18T10:33:16.827Z</time>
      </trkpt>
      <trkpt lat="46.97036" lon="5.87363">
        <ele>703.34</ele>
        <time>2026-01-18T10:33:30.677Z</time>
      </trkpt>
      <trkpt lat="46.97032" lon="5.87375">
        <ele>707.25</ele>
        <time>2026-01-18T10:33:51.578Z</time>
      </trkpt>
      <trkpt lat="46.97041" lon="5.8738">
        <ele>707.51</ele>
        <time>2026-01-18T10:35:21.857Z</time>
      </trkpt>
      <trkpt lat="46.97048" lon="5.8739">
        <ele>710.62</ele>
        <time>2026-01-18T10:35:41.599Z</time>
      </trkpt>
      <trkpt lat="46.97051" lon="5.87403">
        <ele>714.23</ele>
        <time>2026-01-18T10:35:55.774Z</time>
      </trkpt>
      <trkpt lat="46.97055" lon="5.87414">
        <ele>716.79</ele>
        <time>2026-01-18T10:36:20.398Z</time>
      </trkpt>
      <trkpt lat="46.97058" lon="5.87428">
        <ele>720.45</ele>
        <time>2026-01-18T10:36:32.660Z</time>
      </trkpt>
      <trkpt lat="46.97064" lon="5.87437">
        <ele>723.49</ele>
        <time>2026-01-18T10:36:44.878Z</time>
      </trkpt>
      <trkpt lat="46.97073" lon="5.87442">
        <ele>724.39</ele>
        <time>2026-01-18T10:36:54.820Z</time>
      </trkpt>
      <trkpt lat="46.97082" lon="5.87439">
        <ele>730.28</ele>
        <time>2026-01-18T10:37:05.812Z</time>
      </trkpt>
      <trkpt lat="46.97075" lon="5.87447">
        <ele>730.31</ele>
        <time>2026-01-18T10:37:42.813Z</time>
      </trkpt>
      <trkpt lat="46.97084" lon="5.87449">
        <ele>734.61</ele>
        <time>2026-01-18T10:42:05.698Z</time>
      </trkpt>
      <trkpt lat="46.97088" lon="5.87461">
        <ele>736.34</ele>
        <time>2026-01-18T10:42:14.780Z</time>
      </trkpt>
      <trkpt lat="46.97095" lon="5.8747">
        <ele>737.45</ele>
        <time>2026-01-18T10:42:27.797Z</time>
      </trkpt>
      <trkpt lat="46.97097" lon="5.87484">
        <ele>734.59</ele>
        <time>2026-01-18T10:42:40.824Z</time>
      </trkpt>
      <trkpt lat="46.97104" lon="5.87495">
        <ele>733.83</ele>
        <time>2026-01-18T10:42:52.384Z</time>
      </trkpt>
      <trkpt lat="46.97109" lon="5.87506">
        <ele>732.33</ele>
        <time>2026-01-18T10:43:01.381Z</time>
      </trkpt>
      <trkpt lat="46.97113" lon="5.87519">
        <ele>736.28</ele>
        <time>2026-01-18T10:43:14.855Z</time>
      </trkpt>
      <trkpt lat="46.97116" lon="5.87532">
        <ele>738.24</ele>
        <time>2026-01-18T10:43:27.536Z</time>
      </trkpt>
      <trkpt lat="46.9712" lon="5.87544">
        <ele>741.13</ele>
        <time>2026-01-18T10:43:38.861Z</time>
      </trkpt>
      <trkpt lat="46.97124" lon="5.87556">
        <ele>743.79</ele>
        <time>2026-01-18T10:43:51.478Z</time>
      </trkpt>
      <trkpt lat="46.97132" lon="5.87564">
        <ele>745.95</ele>
        <time>2026-01-18T10:44:00.536Z</time>
      </trkpt>
      <trkpt lat="46.97134" lon="5.87577">
        <ele>748.02</ele>
        <time>2026-01-18T10:44:12.539Z</time>
      </trkpt>
      <trkpt lat="46.9714" lon="5.87588">
        <ele>750.73</ele>
        <time>2026-01-18T10:44:22.815Z</time>
      </trkpt>
      <trkpt lat="46.97141" lon="5.87601">
        <ele>751.52</ele>
        <time>2026-01-18T10:44:37.817Z</time>
      </trkpt>
      <trkpt lat="46.97143" lon="5.87614">
        <ele>749.08</ele>
        <time>2026-01-18T10:44:47.058Z</time>
      </trkpt>
      <trkpt lat="46.97146" lon="5.87627">
        <ele>748.18</ele>
        <time>2026-01-18T10:44:58.808Z</time>
      </trkpt>
      <trkpt lat="46.97148" lon="5.8764">
        <ele>751.61</ele>
        <time>2026-01-18T10:45:11.419Z</time>
      </trkpt>
      <trkpt lat="46.9715" lon="5.87653">
        <ele>755.5</ele>
        <time>2026-01-18T10:45:27.576Z</time>
      </trkpt>
      <trkpt lat="46.9715" lon="5.87666">
        <ele>764.15</ele>
        <time>2026-01-18T10:45:53.679Z</time>
      </trkpt>
      <trkpt lat="46.97149" lon="5.8768">
        <ele>765.86</ele>
        <time>2026-01-18T10:46:08.558Z</time>
      </trkpt>
      <trkpt lat="46.97147" lon="5.87693">
        <ele>762.24</ele>
        <time>2026-01-18T10:46:18.316Z</time>
      </trkpt>
      <trkpt lat="46.97144" lon="5.87707">
        <ele>757.67</ele>
        <time>2026-01-18T10:46:32.156Z</time>
      </trkpt>
      <trkpt lat="46.97144" lon="5.87723">
        <ele>515.78</ele>
        <time>2026-01-18T10:46:40.848Z</time>
      </trkpt>
      <trkpt lat="46.97151" lon="5.87731">
        <ele>434.25</ele>
        <time>2026-01-18T10:46:55.122Z</time>
      </trkpt>
      <trkpt lat="46.97156" lon="5.87743">
        <ele>434.25</ele>
        <time>2026-01-18T10:47:03.523Z</time>
      </trkpt>
      <trkpt lat="46.97161" lon="5.87754">
        <ele>759.53</ele>
        <time>2026-01-18T10:51:05.835Z</time>
      </trkpt>
      <trkpt lat="46.97159" lon="5.87768">
        <ele>758.53</ele>
        <time>2026-01-18T10:51:33.516Z</time>
      </trkpt>
      <trkpt lat="46.97164" lon="5.87779">
        <ele>760.33</ele>
        <time>2026-01-18T10:51:43.656Z</time>
      </trkpt>
      <trkpt lat="46.97157" lon="5.8777">
        <ele>455.14</ele>
        <time>2026-01-18T10:52:32.877Z</time>
      </trkpt>
      <trkpt lat="46.97162" lon="5.87782">
        <ele>760.57</ele>
        <time>2026-01-18T10:55:09.455Z</time>
      </trkpt>
      <trkpt lat="46.97159" lon="5.87768">
        <ele>758.38</ele>
        <time>2026-01-18T10:56:11.375Z</time>
      </trkpt>
      <trkpt lat="46.97155" lon="5.87754">
        <ele>757.91</ele>
        <time>2026-01-18T10:56:19.678Z</time>
      </trkpt>
      <trkpt lat="46.97153" lon="5.8774">
        <ele>757.15</ele>
        <time>2026-01-18T10:56:26.880Z</time>
      </trkpt>
      <trkpt lat="46.9715" lon="5.87727">
        <ele>756.06</ele>
        <time>2026-01-18T10:56:34.798Z</time>
      </trkpt>
      <trkpt lat="46.97145" lon="5.87714">
        <ele>756.18</ele>
        <time>2026-01-18T10:56:43.818Z</time>
      </trkpt>
      <trkpt lat="46.9714" lon="5.87703">
        <ele>753.91</ele>
        <time>2026-01-18T10:56:50.869Z</time>
      </trkpt>
      <trkpt lat="46.97136" lon="5.8769">
        <ele>752.35</ele>
        <time>2026-01-18T10:56:59.737Z</time>
      </trkpt>
      <trkpt lat="46.97136" lon="5.87676">
        <ele>752.94</ele>
        <time>2026-01-18T10:57:08.380Z</time>
      </trkpt>
      <trkpt lat="46.97136" lon="5.87663">
        <ele>750.97</ele>
        <time>2026-01-18T10:57:15.821Z</time>
      </trkpt>
      <trkpt lat="46.97135" lon="5.87649">
        <ele>749.79</ele>
        <time>2026-01-18T10:57:23.829Z</time>
      </trkpt>
      <trkpt lat="46.9713" lon="5.87636">
        <ele>748.68</ele>
        <time>2026-01-18T10:57:32.878Z</time>
      </trkpt>
      <trkpt lat="46.97128" lon="5.87622">
        <ele>746.97</ele>
        <time>2026-01-18T10:57:41.827Z</time>
      </trkpt>
      <trkpt lat="46.97125" lon="5.87609">
        <ele>748.27</ele>
        <time>2026-01-18T10:57:55.822Z</time>
      </trkpt>
      <trkpt lat="46.97119" lon="5.87599">
        <ele>752.77</ele>
        <time>2026-01-18T10:58:16.834Z</time>
      </trkpt>
      <trkpt lat="46.97114" lon="5.87589">
        <ele>752.64</ele>
        <time>2026-01-18T10:58:25.360Z</time>
      </trkpt>
      <trkpt lat="46.97107" lon="5.8758">
        <ele>751.89</ele>
        <time>2026-01-18T10:58:33.020Z</time>
      </trkpt>
      <trkpt lat="46.97098" lon="5.87577">
        <ele>752.01</ele>
        <time>2026-01-18T10:58:40.159Z</time>
      </trkpt>
      <trkpt lat="46.97089" lon="5.8758">
        <ele>752.92</ele>
        <time>2026-01-18T10:58:50.335Z</time>
      </trkpt>
      <trkpt lat="46.9708" lon="5.87581">
        <ele>754.27</ele>
        <time>2026-01-18T10:59:00.825Z</time>
      </trkpt>
      <trkpt lat="46.9707" lon="5.8758">
        <ele>754.52</ele>
        <time>2026-01-18T10:59:13.258Z</time>
      </trkpt>
      <trkpt lat="46.97063" lon="5.87571">
        <ele>756.09</ele>
        <time>2026-01-18T10:59:22.459Z</time>
      </trkpt>
      <trkpt lat="46.97057" lon="5.8756">
        <ele>754.13</ele>
        <time>2026-01-18T10:59:33.199Z</time>
      </trkpt>
      <trkpt lat="46.97053" lon="5.87547">
        <ele>753.64</ele>
        <time>2026-01-18T10:59:40.284Z</time>
      </trkpt>
      <trkpt lat="46.9705" lon="5.87535">
        <ele>753.48</ele>
        <time>2026-01-18T10:59:49.741Z</time>
      </trkpt>
      <trkpt lat="46.97044" lon="5.87523">
        <ele>753.46</ele>
        <time>2026-01-18T10:59:57.825Z</time>
      </trkpt>
      <trkpt lat="46.9704" lon="5.87511">
        <ele>751.19</ele>
        <time>2026-01-18T11:00:05.820Z</time>
      </trkpt>
      <trkpt lat="46.97036" lon="5.87498">
        <ele>751.82</ele>
        <time>2026-01-18T11:00:13.659Z</time>
      </trkpt>
      <trkpt lat="46.97033" lon="5.87484">
        <ele>751.03</ele>
        <time>2026-01-18T11:00:22.824Z</time>
      </trkpt>
      <trkpt lat="46.97028" lon="5.87472">
        <ele>750.63</ele>
        <time>2026-01-18T11:00:29.826Z</time>
      </trkpt>
      <trkpt lat="46.97027" lon="5.87459">
        <ele>749.07</ele>
        <time>2026-01-18T11:00:39.701Z</time>
      </trkpt>
      <trkpt lat="46.97023" lon="5.87445">
        <ele>746.98</ele>
        <time>2026-01-18T11:00:47.818Z</time>
      </trkpt>
      <trkpt lat="46.97018" lon="5.87434">
        <ele>748.29</ele>
        <time>2026-01-18T11:00:56.363Z</time>
      </trkpt>
      <trkpt lat="46.97021" lon="5.87421">
        <ele>747.63</ele>
        <time>2026-01-18T11:01:05.820Z</time>
      </trkpt>
      <trkpt lat="46.97016" lon="5.87409">
        <ele>586.65</ele>
        <time>2026-01-18T11:01:25.804Z</time>
      </trkpt>
      <trkpt lat="46.97017" lon="5.87423">
        <ele>586.65</ele>
        <time>2026-01-18T11:02:08.891Z</time>
      </trkpt>
      <trkpt lat="46.97011" lon="5.87433">
        <ele>586.65</ele>
        <time>2026-01-18T11:04:09.810Z</time>
      </trkpt>
      <trkpt lat="46.97005" lon="5.87443">
        <ele>586.65</ele>
        <time>2026-01-18T11:04:20.875Z</time>
      </trkpt>
      <trkpt lat="46.96997" lon="5.8745">
        <ele>586.65</ele>
        <time>2026-01-18T11:04:34.183Z</time>
      </trkpt>
      <trkpt lat="46.96989" lon="5.87455">
        <ele>586.65</ele>
        <time>2026-01-18T11:04:45.397Z</time>
      </trkpt>
      <trkpt lat="46.96981" lon="5.87463">
        <ele>586.65</ele>
        <time>2026-01-18T11:04:55.822Z</time>
      </trkpt>
      <trkpt lat="46.96973" lon="5.87469">
        <ele>586.65</ele>
        <time>2026-01-18T11:05:05.714Z</time>
      </trkpt>
      <trkpt lat="46.96964" lon="5.87467">
        <ele>756.25</ele>
        <time>2026-01-18T11:05:15.620Z</time>
      </trkpt>
      <trkpt lat="46.96955" lon="5.87463">
        <ele>756.49</ele>
        <time>2026-01-18T11:05:26.140Z</time>
      </trkpt>
      <trkpt lat="46.96948" lon="5.87454">
        <ele>755.08</ele>
        <time>2026-01-18T11:05:34.825Z</time>
      </trkpt>
      <trkpt lat="46.96941" lon="5.87445">
        <ele>338.95</ele>
        <time>2026-01-18T11:05:43.816Z</time>
      </trkpt>
      <trkpt lat="46.96932" lon="5.87449">
        <ele>338.95</ele>
        <time>2026-01-18T11:06:17.853Z</time>
      </trkpt>
      <trkpt lat="46.96937" lon="5.8746">
        <ele>760.41</ele>
        <time>2026-01-18T11:09:08.870Z</time>
      </trkpt>
      <trkpt lat="46.96944" lon="5.87469">
        <ele>761.36</ele>
        <time>2026-01-18T11:09:20.871Z</time>
      </trkpt>
      <trkpt lat="46.96945" lon="5.87483">
        <ele>365.43</ele>
        <time>2026-01-18T11:09:33.816Z</time>
      </trkpt>
      <trkpt lat="46.96936" lon="5.8749">
        <ele>762.85</ele>
        <time>2026-01-18T11:09:46.719Z</time>
      </trkpt>
      <trkpt lat="46.96929" lon="5.87499">
        <ele>332.84</ele>
        <time>2026-01-18T11:10:20.880Z</time>
      </trkpt>
      <trkpt lat="46.96925" lon="5.87512">
        <ele>332.84</ele>
        <time>2026-01-18T11:10:34.818Z</time>
      </trkpt>
      <trkpt lat="46.96922" lon="5.87524">
        <ele>332.84</ele>
        <time>2026-01-18T11:10:43.820Z</time>
      </trkpt>
      <trkpt lat="46.9692" lon="5.87537">
        <ele>332.84</ele>
        <time>2026-01-18T11:10:50.619Z</time>
      </trkpt>
      <trkpt lat="46.96919" lon="5.87551">
        <ele>332.84</ele>
        <time>2026-01-18T11:11:07.879Z</time>
      </trkpt>
      <trkpt lat="46.96915" lon="5.87564">
        <ele>332.84</ele>
        <time>2026-01-18T11:11:15.818Z</time>
      </trkpt>
      <trkpt lat="46.96916" lon="5.87578">
        <ele>778.45</ele>
        <time>2026-01-18T11:11:41.852Z</time>
      </trkpt>
      <trkpt lat="46.96917" lon="5.87591">
        <ele>781.3</ele>
        <time>2026-01-18T11:11:51.814Z</time>
      </trkpt>
      <trkpt lat="46.96916" lon="5.87605">
        <ele>780.47</ele>
        <time>2026-01-18T11:12:01.677Z</time>
      </trkpt>
      <trkpt lat="46.96913" lon="5.87618">
        <ele>445.84</ele>
        <time>2026-01-18T11:12:09.830Z</time>
      </trkpt>
      <trkpt lat="46.96911" lon="5.87631">
        <ele>334.04</ele>
        <time>2026-01-18T11:12:40.860Z</time>
      </trkpt>
      <trkpt lat="46.96912" lon="5.87644">
        <ele>334.04</ele>
        <time>2026-01-18T11:13:11.816Z</time>
      </trkpt>
      <trkpt lat="46.96911" lon="5.87657">
        <ele>334.04</ele>
        <time>2026-01-18T11:13:23.464Z</time>
      </trkpt>
      <trkpt lat="46.96913" lon="5.8767">
        <ele>334.04</ele>
        <time>2026-01-18T11:13:37.417Z</time>
      </trkpt>
      <trkpt lat="46.96916" lon="5.87682">
        <ele>777.49</ele>
        <time>2026-01-18T11:13:54.817Z</time>
      </trkpt>
      <trkpt lat="46.9692" lon="5.87695">
        <ele>776.32</ele>
        <time>2026-01-18T11:14:11.901Z</time>
      </trkpt>
      <trkpt lat="46.96924" lon="5.87708">
        <ele>773.08</ele>
        <time>2026-01-18T11:14:37.825Z</time>
      </trkpt>
      <trkpt lat="46.96924" lon="5.87722">
        <ele>773.97</ele>
        <time>2026-01-18T11:14:46.481Z</time>
      </trkpt>
      <trkpt lat="46.96926" lon="5.87735">
        <ele>772.08</ele>
        <time>2026-01-18T11:15:07.159Z</time>
      </trkpt>
      <trkpt lat="46.9693" lon="5.87747">
        <ele>769.75</ele>
        <time>2026-01-18T11:15:14.437Z</time>
      </trkpt>
      <trkpt lat="46.96931" lon="5.8776">
        <ele>768.03</ele>
        <time>2026-01-18T11:15:21.822Z</time>
      </trkpt>
      <trkpt lat="46.96935" lon="5.87773">
        <ele>761.85</ele>
        <time>2026-01-18T11:15:35.115Z</time>
      </trkpt>
      <trkpt lat="46.96937" lon="5.87787">
        <ele>759.09</ele>
        <time>2026-01-18T11:15:45.736Z</time>
      </trkpt>
      <trkpt lat="46.9694" lon="5.878">
        <ele>756.02</ele>
        <time>2026-01-18T11:15:53.720Z</time>
      </trkpt>
      <trkpt lat="46.96941" lon="5.87814">
        <ele>755.8</ele>
        <time>2026-01-18T11:16:01.703Z</time>
      </trkpt>
      <trkpt lat="46.96945" lon="5.87826">
        <ele>753.87</ele>
        <time>2026-01-18T11:16:10.381Z</time>
      </trkpt>
      <trkpt lat="46.96945" lon="5.87839">
        <ele>751.77</ele>
        <time>2026-01-18T11:16:21.375Z</time>
      </trkpt>
      <trkpt lat="46.96949" lon="5.87852">
        <ele>750.09</ele>
        <time>2026-01-18T11:16:35.818Z</time>
      </trkpt>
      <trkpt lat="46.96952" lon="5.87865">
        <ele>747.91</ele>
        <time>2026-01-18T11:16:45.274Z</time>
      </trkpt>
      <trkpt lat="46.96954" lon="5.87879">
        <ele>749.33</ele>
        <time>2026-01-18T11:16:53.739Z</time>
      </trkpt>
      <trkpt lat="46.96956" lon="5.87892">
        <ele>749.62</ele>
        <time>2026-01-18T11:17:01.821Z</time>
      </trkpt>
      <trkpt lat="46.96959" lon="5.87906">
        <ele>749.76</ele>
        <time>2026-01-18T11:17:08.335Z</time>
      </trkpt>
      <trkpt lat="46.96962" lon="5.87919">
        <ele>748.97</ele>
        <time>2026-01-18T11:17:16.482Z</time>
      </trkpt>
      <trkpt lat="46.96964" lon="5.87932">
        <ele>749.73</ele>
        <time>2026-01-18T11:17:25.546Z</time>
      </trkpt>
      <trkpt lat="46.96966" lon="5.87945">
        <ele>747.73</ele>
        <time>2026-01-18T11:17:31.812Z</time>
      </trkpt>
      <trkpt lat="46.96969" lon="5.87958">
        <ele>745.96</ele>
        <time>2026-01-18T11:17:40.307Z</time>
      </trkpt>
      <trkpt lat="46.96974" lon="5.8797">
        <ele>744.99</ele>
        <time>2026-01-18T11:17:50.870Z</time>
      </trkpt>
      <trkpt lat="46.96978" lon="5.87982">
        <ele>739.8</ele>
        <time>2026-01-18T11:17:59.617Z</time>
      </trkpt>
      <trkpt lat="46.96979" lon="5.87995">
        <ele>737.04</ele>
        <time>2026-01-18T11:18:08.870Z</time>
      </trkpt>
      <trkpt lat="46.96983" lon="5.88008">
        <ele>738.06</ele>
        <time>2026-01-18T11:18:16.815Z</time>
      </trkpt>
      <trkpt lat="46.96985" lon="5.88022">
        <ele>741.06</ele>
        <time>2026-01-18T11:18:25.742Z</time>
      </trkpt>
      <trkpt lat="46.96986" lon="5.88037">
        <ele>743.84</ele>
        <time>2026-01-18T11:18:31.803Z</time>
      </trkpt>
      <trkpt lat="46.96989" lon="5.8805">
        <ele>743.73</ele>
        <time>2026-01-18T11:18:43.278Z</time>
      </trkpt>
      <trkpt lat="46.96993" lon="5.88062">
        <ele>743.29</ele>
        <time>2026-01-18T11:18:52.741Z</time>
      </trkpt>
      <trkpt lat="46.96996" lon="5.88075">
        <ele>741.51</ele>
        <time>2026-01-18T11:19:04.814Z</time>
      </trkpt>
      <trkpt lat="46.96997" lon="5.8809">
        <ele>741.55</ele>
        <time>2026-01-18T11:19:17.636Z</time>
      </trkpt>
      <trkpt lat="46.96998" lon="5.88103">
        <ele>740.93</ele>
        <time>2026-01-18T11:19:26.615Z</time>
      </trkpt>
      <trkpt lat="46.96999" lon="5.88117">
        <ele>738.17</ele>
        <time>2026-01-18T11:19:35.615Z</time>
      </trkpt>
      <trkpt lat="46.97003" lon="5.88129">
        <ele>739.46</ele>
        <time>2026-01-18T11:19:44.860Z</time>
      </trkpt>
      <trkpt lat="46.97009" lon="5.8814">
        <ele>736.93</ele>
        <time>2026-01-18T11:19:54.541Z</time>
      </trkpt>
      <trkpt lat="46.97012" lon="5.88153">
        <ele>734.61</ele>
        <time>2026-01-18T11:20:05.824Z</time>
      </trkpt>
      <trkpt lat="46.97013" lon="5.88167">
        <ele>730.8</ele>
        <time>2026-01-18T11:20:15.814Z</time>
      </trkpt>
      <trkpt lat="46.97006" lon="5.88175">
        <ele>731.86</ele>
        <time>2026-01-18T11:20:23.822Z</time>
      </trkpt>
      <trkpt lat="46.97002" lon="5.88187">
        <ele>727.54</ele>
        <time>2026-01-18T11:20:41.837Z</time>
      </trkpt>
      <trkpt lat="46.96999" lon="5.88201">
        <ele>728.8</ele>
        <time>2026-01-18T11:21:04.559Z</time>
      </trkpt>
      <trkpt lat="46.97001" lon="5.88214">
        <ele>733.08</ele>
        <time>2026-01-18T11:21:12.441Z</time>
      </trkpt>
      <trkpt lat="46.96999" lon="5.88227">
        <ele>733.44</ele>
        <time>2026-01-18T11:21:24.755Z</time>
      </trkpt>
      <trkpt lat="46.96994" lon="5.88238">
        <ele>732.35</ele>
        <time>2026-01-18T11:21:33.695Z</time>
      </trkpt>
      <trkpt lat="46.96985" lon="5.88245">
        <ele>730.65</ele>
        <time>2026-01-18T11:21:41.717Z</time>
      </trkpt>
      <trkpt lat="46.96975" lon="5.88245">
        <ele>729.33</ele>
        <time>2026-01-18T11:21:47.819Z</time>
      </trkpt>
      <trkpt lat="46.96967" lon="5.88243">
        <ele>726.96</ele>
        <time>2026-01-18T11:21:53.820Z</time>
      </trkpt>
      <trkpt lat="46.96958" lon="5.88238">
        <ele>726.18</ele>
        <time>2026-01-18T11:22:02.867Z</time>
      </trkpt>
      <trkpt lat="46.96948" lon="5.88241">
        <ele>717.62</ele>
        <time>2026-01-18T11:22:43.573Z</time>
      </trkpt>
      <trkpt lat="46.96938" lon="5.8824">
        <ele>716.55</ele>
        <time>2026-01-18T11:22:55.323Z</time>
      </trkpt>
      <trkpt lat="46.96931" lon="5.88248">
        <ele>717.92</ele>
        <time>2026-01-18T11:23:00.814Z</time>
      </trkpt>
      <trkpt lat="46.96922" lon="5.88254">
        <ele>719.32</ele>
        <time>2026-01-18T11:23:06.815Z</time>
      </trkpt>
      <trkpt lat="46.96913" lon="5.88256">
        <ele>719.31</ele>
        <time>2026-01-18T11:23:25.293Z</time>
      </trkpt>
      <trkpt lat="46.96904" lon="5.8826">
        <ele>717.27</ele>
        <time>2026-01-18T11:23:35.099Z</time>
      </trkpt>
      <trkpt lat="46.96896" lon="5.88267">
        <ele>716.23</ele>
        <time>2026-01-18T11:23:53.822Z</time>
      </trkpt>
      <trkpt lat="46.96889" lon="5.88275">
        <ele>715.68</ele>
        <time>2026-01-18T11:24:00.816Z</time>
      </trkpt>
      <trkpt lat="46.96878" lon="5.88284">
        <ele>715.26</ele>
        <time>2026-01-18T11:24:05.819Z</time>
      </trkpt>
      <trkpt lat="46.96869" lon="5.88289">
        <ele>715.74</ele>
        <time>2026-01-18T11:24:13.820Z</time>
      </trkpt>
      <trkpt lat="46.9686" lon="5.88289">
        <ele>717.47</ele>
        <time>2026-01-18T11:24:22.395Z</time>
      </trkpt>
      <trkpt lat="46.96851" lon="5.88288">
        <ele>717.65</ele>
        <time>2026-01-18T11:24:33.124Z</time>
      </trkpt>
      <trkpt lat="46.96842" lon="5.88289">
        <ele>715.52</ele>
        <time>2026-01-18T11:24:45.399Z</time>
      </trkpt>
      <trkpt lat="46.96834" lon="5.88282">
        <ele>716.81</ele>
        <time>2026-01-18T11:24:56.875Z</time>
      </trkpt>
      <trkpt lat="46.96825" lon="5.88276">
        <ele>719.6</ele>
        <time>2026-01-18T11:25:12.742Z</time>
      </trkpt>
      <trkpt lat="46.96816" lon="5.88271">
        <ele>721.47</ele>
        <time>2026-01-18T11:25:25.820Z</time>
      </trkpt>
      <trkpt lat="46.96807" lon="5.88265">
        <ele>725.51</ele>
        <time>2026-01-18T11:25:38.888Z</time>
      </trkpt>
      <trkpt lat="46.96798" lon="5.88264">
        <ele>733.53</ele>
        <time>2026-01-18T11:26:04.475Z</time>
      </trkpt>
      <trkpt lat="46.96789" lon="5.88266">
        <ele>733.75</ele>
        <time>2026-01-18T11:26:17.578Z</time>
      </trkpt>
      <trkpt lat="46.96779" lon="5.88266">
        <ele>734.77</ele>
        <time>2026-01-18T11:26:33.816Z</time>
      </trkpt>
      <trkpt lat="46.9677" lon="5.88269">
        <ele>737.22</ele>
        <time>2026-01-18T11:26:44.869Z</time>
      </trkpt>
      <trkpt lat="46.9676" lon="5.88275">
        <ele>736.7</ele>
        <time>2026-01-18T11:26:50.362Z</time>
      </trkpt>
      <trkpt lat="46.96752" lon="5.88282">
        <ele>737.99</ele>
        <time>2026-01-18T11:26:57.761Z</time>
      </trkpt>
      <trkpt lat="46.96743" lon="5.88288">
        <ele>741.06</ele>
        <time>2026-01-18T11:27:07.817Z</time>
      </trkpt>
      <trkpt lat="46.96736" lon="5.88295">
        <ele>746.43</ele>
        <time>2026-01-18T11:27:19.816Z</time>
      </trkpt>
      <trkpt lat="46.96727" lon="5.883">
        <ele>748.71</ele>
        <time>2026-01-18T11:27:32.874Z</time>
      </trkpt>
      <trkpt lat="46.96726" lon="5.88313">
        <ele>749.63</ele>
        <time>2026-01-18T11:27:49.474Z</time>
      </trkpt>
      <trkpt lat="46.9673" lon="5.88325">
        <ele>750.84</ele>
        <time>2026-01-18T11:27:59.419Z</time>
      </trkpt>
      <trkpt lat="46.96723" lon="5.88334">
        <ele>754.12</ele>
        <time>2026-01-18T11:28:41.820Z</time>
      </trkpt>
      <trkpt lat="46.96718" lon="5.88346">
        <ele>757.72</ele>
        <time>2026-01-18T11:29:00.454Z</time>
      </trkpt>
      <trkpt lat="46.96718" lon="5.88365">
        <ele>762.65</ele>
        <time>2026-01-18T11:29:16.339Z</time>
      </trkpt>
      <trkpt lat="46.96717" lon="5.88378">
        <ele>763.93</ele>
        <time>2026-01-18T11:29:25.816Z</time>
      </trkpt>
      <trkpt lat="46.96718" lon="5.88392">
        <ele>764.81</ele>
        <time>2026-01-18T11:29:35.716Z</time>
      </trkpt>
      <trkpt lat="46.96719" lon="5.88405">
        <ele>769.77</ele>
        <time>2026-01-18T11:29:50.877Z</time>
      </trkpt>
      <trkpt lat="46.96729" lon="5.88407">
        <ele>769.84</ele>
        <time>2026-01-18T11:31:46.807Z</time>
      </trkpt>
      <trkpt lat="46.9672" lon="5.8841">
        <ele>766.77</ele>
        <time>2026-01-18T11:32:18.824Z</time>
      </trkpt>
      <trkpt lat="46.96724" lon="5.88423">
        <ele>774.1</ele>
        <time>2026-01-18T11:32:29.828Z</time>
      </trkpt>
      <trkpt lat="46.96726" lon="5.88437">
        <ele>775.3</ele>
        <time>2026-01-18T11:32:38.868Z</time>
      </trkpt>
      <trkpt lat="46.9673" lon="5.88449">
        <ele>774.69</ele>
        <time>2026-01-18T11:32:47.682Z</time>
      </trkpt>
      <trkpt lat="46.96736" lon="5.88459">
        <ele>775.42</ele>
        <time>2026-01-18T11:32:55.433Z</time>
      </trkpt>
      <trkpt lat="46.9674" lon="5.88471">
        <ele>771.33</ele>
        <time>2026-01-18T11:33:03.397Z</time>
      </trkpt>
      <trkpt lat="46.96745" lon="5.88483">
        <ele>773.21</ele>
        <time>2026-01-18T11:33:13.572Z</time>
      </trkpt>
      <trkpt lat="46.96748" lon="5.88496">
        <ele>773.02</ele>
        <time>2026-01-18T11:33:22.465Z</time>
      </trkpt>
      <trkpt lat="46.96748" lon="5.88509">
        <ele>772.56</ele>
        <time>2026-01-18T11:33:29.807Z</time>
      </trkpt>
      <trkpt lat="46.96748" lon="5.88523">
        <ele>774.27</ele>
        <time>2026-01-18T11:33:39.041Z</time>
      </trkpt>
      <trkpt lat="46.9675" lon="5.88536">
        <ele>773.51</ele>
        <time>2026-01-18T11:33:45.826Z</time>
      </trkpt>
      <trkpt lat="46.96749" lon="5.8855">
        <ele>771.63</ele>
        <time>2026-01-18T11:33:52.682Z</time>
      </trkpt>
      <trkpt lat="46.96748" lon="5.88565">
        <ele>770.36</ele>
        <time>2026-01-18T11:34:02.798Z</time>
      </trkpt>
      <trkpt lat="46.96747" lon="5.88579">
        <ele>770.15</ele>
        <time>2026-01-18T11:34:11.810Z</time>
      </trkpt>
      <trkpt lat="46.9675" lon="5.88592">
        <ele>767.7</ele>
        <time>2026-01-18T11:34:20.132Z</time>
      </trkpt>
      <trkpt lat="46.96751" lon="5.88606">
        <ele>763.65</ele>
        <time>2026-01-18T11:34:31.761Z</time>
      </trkpt>
      <trkpt lat="46.96755" lon="5.88618">
        <ele>761.16</ele>
        <time>2026-01-18T11:34:45.699Z</time>
      </trkpt>
      <trkpt lat="46.96754" lon="5.88632">
        <ele>761.71</ele>
        <time>2026-01-18T11:35:06.562Z</time>
      </trkpt>
      <trkpt lat="46.96756" lon="5.88646">
        <ele>761.2</ele>
        <time>2026-01-18T11:35:21.702Z</time>
      </trkpt>
      <trkpt lat="46.96758" lon="5.88659">
        <ele>762.81</ele>
        <time>2026-01-18T11:35:31.336Z</time>
      </trkpt>
      <trkpt lat="46.96759" lon="5.88674">
        <ele>759.5</ele>
        <time>2026-01-18T11:35:44.593Z</time>
      </trkpt>
      <trkpt lat="46.96756" lon="5.88687">
        <ele>758.44</ele>
        <time>2026-01-18T11:35:55.815Z</time>
      </trkpt>
      <trkpt lat="46.96754" lon="5.88701">
        <ele>758.37</ele>
        <time>2026-01-18T11:36:07.416Z</time>
      </trkpt>
      <trkpt lat="46.96749" lon="5.88713">
        <ele>758.74</ele>
        <time>2026-01-18T11:36:17.487Z</time>
      </trkpt>
      <trkpt lat="46.96744" lon="5.88725">
        <ele>756.72</ele>
        <time>2026-01-18T11:36:27.539Z</time>
      </trkpt>
      <trkpt lat="46.96737" lon="5.88733">
        <ele>756.03</ele>
        <time>2026-01-18T11:36:34.819Z</time>
      </trkpt>
      <trkpt lat="46.96729" lon="5.8874">
        <ele>756.25</ele>
        <time>2026-01-18T11:36:41.835Z</time>
      </trkpt>
      <trkpt lat="46.9672" lon="5.88743">
        <ele>754.84</ele>
        <time>2026-01-18T11:36:49.295Z</time>
      </trkpt>
      <trkpt lat="46.9671" lon="5.88742">
        <ele>746.28</ele>
        <time>2026-01-18T11:37:01.806Z</time>
      </trkpt>
      <trkpt lat="46.96703" lon="5.88735">
        <ele>739.03</ele>
        <time>2026-01-18T11:37:11.822Z</time>
      </trkpt>
      <trkpt lat="46.96693" lon="5.88732">
        <ele>731.9</ele>
        <time>2026-01-18T11:37:55.535Z</time>
      </trkpt>
      <trkpt lat="46.96686" lon="5.88724">
        <ele>731.72</ele>
        <time>2026-01-18T11:38:08.400Z</time>
      </trkpt>
      <trkpt lat="46.96676" lon="5.88722">
        <ele>729.44</ele>
        <time>2026-01-18T11:38:18.536Z</time>
      </trkpt>
      <trkpt lat="46.96668" lon="5.88713">
        <ele>726.01</ele>
        <time>2026-01-18T11:38:28.776Z</time>
      </trkpt>
      <trkpt lat="46.9666" lon="5.88706">
        <ele>724.9</ele>
        <time>2026-01-18T11:38:40.814Z</time>
      </trkpt>
      <trkpt lat="46.96656" lon="5.88694">
        <ele>725.9</ele>
        <time>2026-01-18T11:38:47.260Z</time>
      </trkpt>
      <trkpt lat="46.96649" lon="5.88685">
        <ele>727.64</ele>
        <time>2026-01-18T11:38:55.696Z</time>
      </trkpt>
      <trkpt lat="46.9664" lon="5.88678">
        <ele>724.36</ele>
        <time>2026-01-18T11:39:04.823Z</time>
      </trkpt>
      <trkpt lat="46.96633" lon="5.88671">
        <ele>721.31</ele>
        <time>2026-01-18T11:39:13.556Z</time>
      </trkpt>
      <trkpt lat="46.96627" lon="5.8866">
        <ele>720.06</ele>
        <time>2026-01-18T11:39:21.236Z</time>
      </trkpt>
      <trkpt lat="46.96622" lon="5.88649">
        <ele>722.3</ele>
        <time>2026-01-18T11:39:27.016Z</time>
      </trkpt>
      <trkpt lat="46.96613" lon="5.88642">
        <ele>719.26</ele>
        <time>2026-01-18T11:39:36.824Z</time>
      </trkpt>
      <trkpt lat="46.96606" lon="5.88634">
        <ele>719.7</ele>
        <time>2026-01-18T11:39:46.703Z</time>
      </trkpt>
      <trkpt lat="46.96597" lon="5.88628">
        <ele>718.14</ele>
        <time>2026-01-18T11:39:56.793Z</time>
      </trkpt>
      <trkpt lat="46.96589" lon="5.88619">
        <ele>715.16</ele>
        <time>2026-01-18T11:40:11.543Z</time>
      </trkpt>
      <trkpt lat="46.96582" lon="5.8861">
        <ele>712.64</ele>
        <time>2026-01-18T11:40:17.424Z</time>
      </trkpt>
      <trkpt lat="46.96572" lon="5.88603">
        <ele>710.89</ele>
        <time>2026-01-18T11:40:24.356Z</time>
      </trkpt>
      <trkpt lat="46.96563" lon="5.88597">
        <ele>713.1</ele>
        <time>2026-01-18T11:40:31.676Z</time>
      </trkpt>
      <trkpt lat="46.96555" lon="5.88591">
        <ele>709.49</ele>
        <time>2026-01-18T11:40:41.703Z</time>
      </trkpt>
      <trkpt lat="46.96546" lon="5.88587">
        <ele>707.55</ele>
        <time>2026-01-18T11:40:50.704Z</time>
      </trkpt>
      <trkpt lat="46.96537" lon="5.88584">
        <ele>706.11</ele>
        <time>2026-01-18T11:41:02.481Z</time>
      </trkpt>
      <trkpt lat="46.96528" lon="5.88579">
        <ele>707.31</ele>
        <time>2026-01-18T11:41:09.375Z</time>
      </trkpt>
      <trkpt lat="46.96519" lon="5.88575">
        <ele>710.92</ele>
        <time>2026-01-18T11:41:18.845Z</time>
      </trkpt>
      <trkpt lat="46.96509" lon="5.88572">
        <ele>712.68</ele>
        <time>2026-01-18T11:41:26.723Z</time>
      </trkpt>
      <trkpt lat="46.96499" lon="5.8857">
        <ele>711.06</ele>
        <time>2026-01-18T11:41:36.813Z</time>
      </trkpt>
      <trkpt lat="46.9649" lon="5.88569">
        <ele>709.74</ele>
        <time>2026-01-18T11:41:42.798Z</time>
      </trkpt>
      <trkpt lat="46.96481" lon="5.88567">
        <ele>708.32</ele>
        <time>2026-01-18T11:41:48.816Z</time>
      </trkpt>
      <trkpt lat="46.96474" lon="5.88558">
        <ele>706.21</ele>
        <time>2026-01-18T11:41:58.634Z</time>
      </trkpt>
      <trkpt lat="46.96465" lon="5.88559">
        <ele>708.93</ele>
        <time>2026-01-18T11:42:05.479Z</time>
      </trkpt>
      <trkpt lat="46.96458" lon="5.88569">
        <ele>710.23</ele>
        <time>2026-01-18T11:42:16.716Z</time>
      </trkpt>
      <trkpt lat="46.96449" lon="5.88564">
        <ele>708.52</ele>
        <time>2026-01-18T11:42:31.279Z</time>
      </trkpt>
      <trkpt lat="46.96441" lon="5.88567">
        <ele>711.01</ele>
        <time>2026-01-18T11:42:53.095Z</time>
      </trkpt>
      <trkpt lat="46.96435" lon="5.88556">
        <ele>718.21</ele>
        <time>2026-01-18T11:43:22.115Z</time>
      </trkpt>
      <trkpt lat="46.96426" lon="5.88551">
        <ele>721.78</ele>
        <time>2026-01-18T11:43:41.822Z</time>
      </trkpt>
      <trkpt lat="46.96425" lon="5.88565">
        <ele>727.06</ele>
        <time>2026-01-18T11:43:57.823Z</time>
      </trkpt>
      <trkpt lat="46.96416" lon="5.88569">
        <ele>728.56</ele>
        <time>2026-01-18T11:44:18.822Z</time>
      </trkpt>
      <trkpt lat="46.96407" lon="5.88565">
        <ele>731.93</ele>
        <time>2026-01-18T11:44:32.866Z</time>
      </trkpt>
      <trkpt lat="46.96398" lon="5.88566">
        <ele>736.57</ele>
        <time>2026-01-18T11:44:46.812Z</time>
      </trkpt>
      <trkpt lat="46.96405" lon="5.88556">
        <ele>741.9</ele>
        <time>2026-01-18T11:45:13.814Z</time>
      </trkpt>
      <trkpt lat="46.96397" lon="5.88549">
        <ele>744.78</ele>
        <time>2026-01-18T11:45:47.819Z</time>
      </trkpt>
      <trkpt lat="46.96393" lon="5.88536">
        <ele>753.17</ele>
        <time>2026-01-18T11:49:30.818Z</time>
      </trkpt>
      <trkpt lat="46.96394" lon="5.88523">
        <ele>753.91</ele>
        <time>2026-01-18T12:01:22.818Z</time>
      </trkpt>
      <trkpt lat="46.96391" lon="5.88538">
        <ele>754.1</ele>
        <time>2026-01-18T12:02:22.816Z</time>
      </trkpt>
      <trkpt lat="46.96387" lon="5.8855">
        <ele>753.81</ele>
        <time>2026-01-18T12:02:30.814Z</time>
      </trkpt>
      <trkpt lat="46.96382" lon="5.88538">
        <ele>754.21</ele>
        <time>2026-01-18T12:02:39.816Z</time>
      </trkpt>
      <trkpt lat="46.96389" lon="5.88529">
        <ele>754.55</ele>
        <time>2026-01-18T12:02:47.824Z</time>
      </trkpt>
      <trkpt lat="46.96381" lon="5.88533">
        <ele>739.41</ele>
        <time>2026-01-18T12:23:56.871Z</time>
      </trkpt>
      <trkpt lat="46.9639" lon="5.88527">
        <ele>741.29</ele>
        <time>2026-01-18T12:25:06.818Z</time>
      </trkpt>
      <trkpt lat="46.96396" lon="5.88537">
        <ele>754.64</ele>
        <time>2026-01-18T12:33:05.675Z</time>
      </trkpt>
      <trkpt lat="46.96403" lon="5.88546">
        <ele>741.18</ele>
        <time>2026-01-18T12:33:42.319Z</time>
      </trkpt>
      <trkpt lat="46.964" lon="5.88558">
        <ele>736.05</ele>
        <time>2026-01-18T12:34:10.608Z</time>
      </trkpt>
      <trkpt lat="46.96408" lon="5.88566">
        <ele>732.31</ele>
        <time>2026-01-18T12:34:26.588Z</time>
      </trkpt>
      <trkpt lat="46.96417" lon="5.88571">
        <ele>729.27</ele>
        <time>2026-01-18T12:34:38.530Z</time>
      </trkpt>
      <trkpt lat="46.96423" lon="5.8856">
        <ele>729.22</ele>
        <time>2026-01-18T12:34:56.670Z</time>
      </trkpt>
      <trkpt lat="46.96429" lon="5.88551">
        <ele>724.45</ele>
        <time>2026-01-18T12:35:09.015Z</time>
      </trkpt>
      <trkpt lat="46.96435" lon="5.88562">
        <ele>720.42</ele>
        <time>2026-01-18T12:35:21.398Z</time>
      </trkpt>
      <trkpt lat="46.96445" lon="5.88562">
        <ele>714.28</ele>
        <time>2026-01-18T12:35:44.859Z</time>
      </trkpt>
      <trkpt lat="46.96452" lon="5.8857">
        <ele>712.72</ele>
        <time>2026-01-18T12:35:58.820Z</time>
      </trkpt>
      <trkpt lat="46.96462" lon="5.88569">
        <ele>711.73</ele>
        <time>2026-01-18T12:36:07.453Z</time>
      </trkpt>
      <trkpt lat="46.96469" lon="5.8856">
        <ele>707.1</ele>
        <time>2026-01-18T12:36:16.813Z</time>
      </trkpt>
      <trkpt lat="46.96477" lon="5.88565">
        <ele>704.04</ele>
        <time>2026-01-18T12:36:29.820Z</time>
      </trkpt>
      <trkpt lat="46.96479" lon="5.8858">
        <ele>700.92</ele>
        <time>2026-01-18T12:36:39.327Z</time>
      </trkpt>
      <trkpt lat="46.96485" lon="5.88589">
        <ele>706.39</ele>
        <time>2026-01-18T12:37:23.816Z</time>
      </trkpt>
      <trkpt lat="46.96493" lon="5.88596">
        <ele>708.07</ele>
        <time>2026-01-18T12:37:36.754Z</time>
      </trkpt>
      <trkpt lat="46.96502" lon="5.886">
        <ele>710.34</ele>
        <time>2026-01-18T12:37:58.531Z</time>
      </trkpt>
      <trkpt lat="46.9651" lon="5.88606">
        <ele>713.11</ele>
        <time>2026-01-18T12:38:19.720Z</time>
      </trkpt>
      <trkpt lat="46.96519" lon="5.88611">
        <ele>715.02</ele>
        <time>2026-01-18T12:38:42.773Z</time>
      </trkpt>
      <trkpt lat="46.96528" lon="5.88608">
        <ele>716.11</ele>
        <time>2026-01-18T12:38:55.577Z</time>
      </trkpt>
      <trkpt lat="46.96537" lon="5.88603">
        <ele>717.41</ele>
        <time>2026-01-18T12:39:07.356Z</time>
      </trkpt>
      <trkpt lat="46.96545" lon="5.88611">
        <ele>718.87</ele>
        <time>2026-01-18T12:39:23.029Z</time>
      </trkpt>
      <trkpt lat="46.96554" lon="5.88613">
        <ele>720.8</ele>
        <time>2026-01-18T12:39:32.554Z</time>
      </trkpt>
      <trkpt lat="46.96563" lon="5.88619">
        <ele>723.73</ele>
        <time>2026-01-18T12:39:46.819Z</time>
      </trkpt>
      <trkpt lat="46.96572" lon="5.88623">
        <ele>722.48</ele>
        <time>2026-01-18T12:39:53.820Z</time>
      </trkpt>
      <trkpt lat="46.96578" lon="5.88634">
        <ele>726.34</ele>
        <time>2026-01-18T12:40:08.872Z</time>
      </trkpt>
      <trkpt lat="46.96581" lon="5.88647">
        <ele>728.62</ele>
        <time>2026-01-18T12:40:42.781Z</time>
      </trkpt>
      <trkpt lat="46.96585" lon="5.88659">
        <ele>732.2</ele>
        <time>2026-01-18T12:40:50.875Z</time>
      </trkpt>
      <trkpt lat="46.96577" lon="5.88666">
        <ele>740.59</ele>
        <time>2026-01-18T12:41:22.815Z</time>
      </trkpt>
      <trkpt lat="46.9657" lon="5.88656">
        <ele>740.15</ele>
        <time>2026-01-18T12:41:46.818Z</time>
      </trkpt>
      <trkpt lat="46.96577" lon="5.88665">
        <ele>738.57</ele>
        <time>2026-01-18T12:43:46.556Z</time>
      </trkpt>
      <trkpt lat="46.96584" lon="5.88674">
        <ele>737.54</ele>
        <time>2026-01-18T12:43:59.535Z</time>
      </trkpt>
      <trkpt lat="46.9659" lon="5.88685">
        <ele>738.3</ele>
        <time>2026-01-18T12:44:10.811Z</time>
      </trkpt>
      <trkpt lat="46.96596" lon="5.88695">
        <ele>738.14</ele>
        <time>2026-01-18T12:44:22.830Z</time>
      </trkpt>
      <trkpt lat="46.96603" lon="5.88704">
        <ele>744.06</ele>
        <time>2026-01-18T12:44:31.650Z</time>
      </trkpt>
      <trkpt lat="46.96608" lon="5.88715">
        <ele>743.4</ele>
        <time>2026-01-18T12:44:44.257Z</time>
      </trkpt>
      <trkpt lat="46.96616" lon="5.88723">
        <ele>743.41</ele>
        <time>2026-01-18T12:44:53.541Z</time>
      </trkpt>
      <trkpt lat="46.96622" lon="5.88733">
        <ele>740.14</ele>
        <time>2026-01-18T12:45:01.719Z</time>
      </trkpt>
      <trkpt lat="46.9663" lon="5.88738">
        <ele>741.69</ele>
        <time>2026-01-18T12:45:15.614Z</time>
      </trkpt>
      <trkpt lat="46.96639" lon="5.88738">
        <ele>745.11</ele>
        <time>2026-01-18T12:45:32.883Z</time>
      </trkpt>
      <trkpt lat="46.96647" lon="5.88747">
        <ele>747.05</ele>
        <time>2026-01-18T12:45:42.212Z</time>
      </trkpt>
      <trkpt lat="46.96655" lon="5.88753">
        <ele>748.11</ele>
        <time>2026-01-18T12:45:54.535Z</time>
      </trkpt>
      <trkpt lat="46.96661" lon="5.88763">
        <ele>749.29</ele>
        <time>2026-01-18T12:46:05.588Z</time>
      </trkpt>
      <trkpt lat="46.9667" lon="5.88767">
        <ele>749.03</ele>
        <time>2026-01-18T12:46:16.613Z</time>
      </trkpt>
      <trkpt lat="46.96679" lon="5.88773">
        <ele>746.83</ele>
        <time>2026-01-18T12:46:25.333Z</time>
      </trkpt>
      <trkpt lat="46.96686" lon="5.88781">
        <ele>746.99</ele>
        <time>2026-01-18T12:46:33.435Z</time>
      </trkpt>
      <trkpt lat="46.96694" lon="5.88788">
        <ele>749.06</ele>
        <time>2026-01-18T12:46:43.827Z</time>
      </trkpt>
      <trkpt lat="46.96703" lon="5.88789">
        <ele>752.46</ele>
        <time>2026-01-18T12:46:53.817Z</time>
      </trkpt>
      <trkpt lat="46.96712" lon="5.88788">
        <ele>753.47</ele>
        <time>2026-01-18T12:47:01.819Z</time>
      </trkpt>
      <trkpt lat="46.96717" lon="5.888">
        <ele>752.53</ele>
        <time>2026-01-18T12:47:11.449Z</time>
      </trkpt>
      <trkpt lat="46.96726" lon="5.88806">
        <ele>751.59</ele>
        <time>2026-01-18T12:47:20.550Z</time>
      </trkpt>
      <trkpt lat="46.96736" lon="5.88805">
        <ele>752.09</ele>
        <time>2026-01-18T12:47:27.823Z</time>
      </trkpt>
      <trkpt lat="46.96744" lon="5.88811">
        <ele>751.17</ele>
        <time>2026-01-18T12:47:35.227Z</time>
      </trkpt>
      <trkpt lat="46.96749" lon="5.88822">
        <ele>755.09</ele>
        <time>2026-01-18T12:47:47.288Z</time>
      </trkpt>
      <trkpt lat="46.96753" lon="5.88835">
        <ele>753.57</ele>
        <time>2026-01-18T12:47:57.375Z</time>
      </trkpt>
      <trkpt lat="46.96762" lon="5.88832">
        <ele>752.69</ele>
        <time>2026-01-18T12:48:07.821Z</time>
      </trkpt>
      <trkpt lat="46.9677" lon="5.88826">
        <ele>751.56</ele>
        <time>2026-01-18T12:48:23.817Z</time>
      </trkpt>
      <trkpt lat="46.96779" lon="5.88827">
        <ele>753.8</ele>
        <time>2026-01-18T12:49:17.809Z</time>
      </trkpt>
      <trkpt lat="46.96788" lon="5.88824">
        <ele>757.17</ele>
        <time>2026-01-18T12:50:12.214Z</time>
      </trkpt>
      <trkpt lat="46.96796" lon="5.88831">
        <ele>756.04</ele>
        <time>2026-01-18T12:50:23.186Z</time>
      </trkpt>
      <trkpt lat="46.96804" lon="5.88839">
        <ele>755.82</ele>
        <time>2026-01-18T12:50:38.730Z</time>
      </trkpt>
      <trkpt lat="46.96813" lon="5.88838">
        <ele>759.67</ele>
        <time>2026-01-18T12:50:59.821Z</time>
      </trkpt>
      <trkpt lat="46.96822" lon="5.88842">
        <ele>760.48</ele>
        <time>2026-01-18T12:51:09.820Z</time>
      </trkpt>
      <trkpt lat="46.96831" lon="5.88843">
        <ele>760.04</ele>
        <time>2026-01-18T12:51:18.823Z</time>
      </trkpt>
      <trkpt lat="46.96837" lon="5.88854">
        <ele>762.37</ele>
        <time>2026-01-18T12:51:27.132Z</time>
      </trkpt>
      <trkpt lat="46.96845" lon="5.88859">
        <ele>762.7</ele>
        <time>2026-01-18T12:51:38.407Z</time>
      </trkpt>
      <trkpt lat="46.9685" lon="5.88873">
        <ele>763.41</ele>
        <time>2026-01-18T12:51:46.794Z</time>
      </trkpt>
      <trkpt lat="46.96859" lon="5.88881">
        <ele>763.01</ele>
        <time>2026-01-18T12:51:56.708Z</time>
      </trkpt>
      <trkpt lat="46.96867" lon="5.88884">
        <ele>760.95</ele>
        <time>2026-01-18T12:52:08.056Z</time>
      </trkpt>
      <trkpt lat="46.96876" lon="5.8889">
        <ele>762.67</ele>
        <time>2026-01-18T12:52:17.822Z</time>
      </trkpt>
      <trkpt lat="46.96885" lon="5.8889">
        <ele>765.1</ele>
        <time>2026-01-18T12:52:27.634Z</time>
      </trkpt>
      <trkpt lat="46.96894" lon="5.88886">
        <ele>765.78</ele>
        <time>2026-01-18T12:52:38.864Z</time>
      </trkpt>
      <trkpt lat="46.96902" lon="5.88877">
        <ele>766.59</ele>
        <time>2026-01-18T12:52:47.748Z</time>
      </trkpt>
      <trkpt lat="46.9691" lon="5.88868">
        <ele>766.57</ele>
        <time>2026-01-18T12:52:55.091Z</time>
      </trkpt>
      <trkpt lat="46.96916" lon="5.88859">
        <ele>767.14</ele>
        <time>2026-01-18T12:53:04.818Z</time>
      </trkpt>
      <trkpt lat="46.96925" lon="5.88864">
        <ele>768.18</ele>
        <time>2026-01-18T12:53:23.820Z</time>
      </trkpt>
      <trkpt lat="46.9693" lon="5.88875">
        <ele>769.93</ele>
        <time>2026-01-18T12:53:33.272Z</time>
      </trkpt>
      <trkpt lat="46.96939" lon="5.88881">
        <ele>772.16</ele>
        <time>2026-01-18T12:53:47.807Z</time>
      </trkpt>
      <trkpt lat="46.96945" lon="5.88891">
        <ele>770.14</ele>
        <time>2026-01-18T12:53:59.538Z</time>
      </trkpt>
      <trkpt lat="46.96953" lon="5.88899">
        <ele>770.9</ele>
        <time>2026-01-18T12:54:07.818Z</time>
      </trkpt>
      <trkpt lat="46.9696" lon="5.88907">
        <ele>769.04</ele>
        <time>2026-01-18T12:54:17.540Z</time>
      </trkpt>
      <trkpt lat="46.96967" lon="5.88917">
        <ele>770.16</ele>
        <time>2026-01-18T12:54:25.730Z</time>
      </trkpt>
      <trkpt lat="46.96976" lon="5.88923">
        <ele>771.12</ele>
        <time>2026-01-18T12:54:43.816Z</time>
      </trkpt>
      <trkpt lat="46.96985" lon="5.88923">
        <ele>769.95</ele>
        <time>2026-01-18T12:54:54.671Z</time>
      </trkpt>
      <trkpt lat="46.96994" lon="5.88921">
        <ele>770.01</ele>
        <time>2026-01-18T12:55:06.369Z</time>
      </trkpt>
      <trkpt lat="46.97003" lon="5.88925">
        <ele>769.43</ele>
        <time>2026-01-18T12:55:14.637Z</time>
      </trkpt>
      <trkpt lat="46.97012" lon="5.88923">
        <ele>772.17</ele>
        <time>2026-01-18T12:55:26.314Z</time>
      </trkpt>
      <trkpt lat="46.97021" lon="5.88924">
        <ele>771.56</ele>
        <time>2026-01-18T12:55:38.863Z</time>
      </trkpt>
      <trkpt lat="46.9703" lon="5.88929">
        <ele>773.52</ele>
        <time>2026-01-18T12:55:45.407Z</time>
      </trkpt>
      <trkpt lat="46.97039" lon="5.88935">
        <ele>773</ele>
        <time>2026-01-18T12:55:53.538Z</time>
      </trkpt>
      <trkpt lat="46.97047" lon="5.8894">
        <ele>774.26</ele>
        <time>2026-01-18T12:56:01.820Z</time>
      </trkpt>
      <trkpt lat="46.97056" lon="5.88946">
        <ele>771.21</ele>
        <time>2026-01-18T12:56:13.823Z</time>
      </trkpt>
      <trkpt lat="46.97065" lon="5.88949">
        <ele>772.96</ele>
        <time>2026-01-18T12:56:24.095Z</time>
      </trkpt>
      <trkpt lat="46.97074" lon="5.88951">
        <ele>776.22</ele>
        <time>2026-01-18T12:56:35.046Z</time>
      </trkpt>
      <trkpt lat="46.97083" lon="5.88946">
        <ele>779.35</ele>
        <time>2026-01-18T12:56:46.820Z</time>
      </trkpt>
      <trkpt lat="46.97091" lon="5.8894">
        <ele>779.11</ele>
        <time>2026-01-18T12:57:03.817Z</time>
      </trkpt>
      <trkpt lat="46.971" lon="5.8894">
        <ele>778.69</ele>
        <time>2026-01-18T12:57:15.749Z</time>
      </trkpt>
      <trkpt lat="46.97108" lon="5.88931">
        <ele>777.77</ele>
        <time>2026-01-18T12:57:23.542Z</time>
      </trkpt>
      <trkpt lat="46.97117" lon="5.88925">
        <ele>777.43</ele>
        <time>2026-01-18T12:57:32.570Z</time>
      </trkpt>
      <trkpt lat="46.97127" lon="5.88922">
        <ele>776.48</ele>
        <time>2026-01-18T12:57:39.296Z</time>
      </trkpt>
      <trkpt lat="46.97134" lon="5.88913">
        <ele>775.92</ele>
        <time>2026-01-18T12:57:46.817Z</time>
      </trkpt>
      <trkpt lat="46.97141" lon="5.88904">
        <ele>775.95</ele>
        <time>2026-01-18T12:57:56.469Z</time>
      </trkpt>
      <trkpt lat="46.97145" lon="5.88892">
        <ele>777.75</ele>
        <time>2026-01-18T12:58:06.808Z</time>
      </trkpt>
      <trkpt lat="46.97153" lon="5.88884">
        <ele>775.46</ele>
        <time>2026-01-18T12:58:15.524Z</time>
      </trkpt>
      <trkpt lat="46.97162" lon="5.88883">
        <ele>776.29</ele>
        <time>2026-01-18T12:58:25.819Z</time>
      </trkpt>
      <trkpt lat="46.97171" lon="5.88882">
        <ele>776.13</ele>
        <time>2026-01-18T12:58:33.817Z</time>
      </trkpt>
      <trkpt lat="46.9718" lon="5.88882">
        <ele>774.2</ele>
        <time>2026-01-18T12:58:43.820Z</time>
      </trkpt>
      <trkpt lat="46.9719" lon="5.88878">
        <ele>775.32</ele>
        <time>2026-01-18T12:58:52.692Z</time>
      </trkpt>
      <trkpt lat="46.97198" lon="5.88871">
        <ele>776.23</ele>
        <time>2026-01-18T12:59:01.711Z</time>
      </trkpt>
      <trkpt lat="46.97207" lon="5.88866">
        <ele>781.69</ele>
        <time>2026-01-18T12:59:09.821Z</time>
      </trkpt>
      <trkpt lat="46.97216" lon="5.88864">
        <ele>783.08</ele>
        <time>2026-01-18T12:59:18.068Z</time>
      </trkpt>
      <trkpt lat="46.97224" lon="5.88858">
        <ele>783.52</ele>
        <time>2026-01-18T12:59:27.128Z</time>
      </trkpt>
      <trkpt lat="46.97231" lon="5.88849">
        <ele>782.43</ele>
        <time>2026-01-18T12:59:40.215Z</time>
      </trkpt>
      <trkpt lat="46.9724" lon="5.88847">
        <ele>783.03</ele>
        <time>2026-01-18T12:59:49.528Z</time>
      </trkpt>
      <trkpt lat="46.9725" lon="5.88842">
        <ele>783.29</ele>
        <time>2026-01-18T13:00:01.833Z</time>
      </trkpt>
      <trkpt lat="46.97252" lon="5.88828">
        <ele>789.14</ele>
        <time>2026-01-18T13:01:51.821Z</time>
      </trkpt>
      <trkpt lat="46.97247" lon="5.88817">
        <ele>789.36</ele>
        <time>2026-01-18T13:01:59.817Z</time>
      </trkpt>
      <trkpt lat="46.97245" lon="5.88804">
        <ele>791.08</ele>
        <time>2026-01-18T13:02:07.817Z</time>
      </trkpt>
      <trkpt lat="46.97243" lon="5.88791">
        <ele>789.82</ele>
        <time>2026-01-18T13:02:16.827Z</time>
      </trkpt>
      <trkpt lat="46.9725" lon="5.88782">
        <ele>787.54</ele>
        <time>2026-01-18T13:02:34.821Z</time>
      </trkpt>
      <trkpt lat="46.97258" lon="5.88787">
        <ele>786.11</ele>
        <time>2026-01-18T13:02:42.878Z</time>
      </trkpt>
      <trkpt lat="46.97267" lon="5.88791">
        <ele>787.81</ele>
        <time>2026-01-18T13:02:50.860Z</time>
      </trkpt>
      <trkpt lat="46.97275" lon="5.88798">
        <ele>789.75</ele>
        <time>2026-01-18T13:03:43.534Z</time>
      </trkpt>
      <trkpt lat="46.97284" lon="5.88795">
        <ele>786.86</ele>
        <time>2026-01-18T13:03:50.861Z</time>
      </trkpt>
      <trkpt lat="46.97295" lon="5.8879">
        <ele>785.65</ele>
        <time>2026-01-18T13:03:56.805Z</time>
      </trkpt>
      <trkpt lat="46.97308" lon="5.88783">
        <ele>785.84</ele>
        <time>2026-01-18T13:04:02.391Z</time>
      </trkpt>
      <trkpt lat="46.97318" lon="5.88777">
        <ele>786.53</ele>
        <time>2026-01-18T13:04:07.606Z</time>
      </trkpt>
      <trkpt lat="46.97326" lon="5.88772">
        <ele>786.07</ele>
        <time>2026-01-18T13:04:14.371Z</time>
      </trkpt>
      <trkpt lat="46.97336" lon="5.88772">
        <ele>786.53</ele>
        <time>2026-01-18T13:04:20.713Z</time>
      </trkpt>
      <trkpt lat="46.97328" lon="5.88779">
        <ele>783.1</ele>
        <time>2026-01-18T13:05:02.991Z</time>
      </trkpt>
      <trkpt lat="46.97329" lon="5.88793">
        <ele>785.74</ele>
        <time>2026-01-18T13:06:09.730Z</time>
      </trkpt>
      <trkpt lat="46.97338" lon="5.88798">
        <ele>782.37</ele>
        <time>2026-01-18T13:06:15.822Z</time>
      </trkpt>
      <trkpt lat="46.97347" lon="5.88799">
        <ele>777.67</ele>
        <time>2026-01-18T13:06:25.333Z</time>
      </trkpt>
      <trkpt lat="46.97356" lon="5.88802">
        <ele>774.28</ele>
        <time>2026-01-18T13:06:36.529Z</time>
      </trkpt>
      <trkpt lat="46.97364" lon="5.88808">
        <ele>773.69</ele>
        <time>2026-01-18T13:06:48.112Z</time>
      </trkpt>
      <trkpt lat="46.97373" lon="5.88815">
        <ele>772.15</ele>
        <time>2026-01-18T13:07:01.415Z</time>
      </trkpt>
      <trkpt lat="46.97382" lon="5.88823">
        <ele>772.2</ele>
        <time>2026-01-18T13:07:09.823Z</time>
      </trkpt>
      <trkpt lat="46.97391" lon="5.88825">
        <ele>770.73</ele>
        <time>2026-01-18T13:07:16.198Z</time>
      </trkpt>
      <trkpt lat="46.974" lon="5.88825">
        <ele>768.76</ele>
        <time>2026-01-18T13:07:24.674Z</time>
      </trkpt>
      <trkpt lat="46.97409" lon="5.88831">
        <ele>767.53</ele>
        <time>2026-01-18T13:07:33.819Z</time>
      </trkpt>
      <trkpt lat="46.97419" lon="5.88833">
        <ele>767.03</ele>
        <time>2026-01-18T13:07:43.764Z</time>
      </trkpt>
      <trkpt lat="46.97426" lon="5.88843">
        <ele>768.44</ele>
        <time>2026-01-18T13:07:48.769Z</time>
      </trkpt>
      <trkpt lat="46.97423" lon="5.88856">
        <ele>764.09</ele>
        <time>2026-01-18T13:08:07.818Z</time>
      </trkpt>
      <trkpt lat="46.97424" lon="5.8887">
        <ele>762.34</ele>
        <time>2026-01-18T13:08:17.750Z</time>
      </trkpt>
      <trkpt lat="46.97425" lon="5.88884">
        <ele>761.7</ele>
        <time>2026-01-18T13:08:27.822Z</time>
      </trkpt>
      <trkpt lat="46.97426" lon="5.88898">
        <ele>761.75</ele>
        <time>2026-01-18T13:08:36.213Z</time>
      </trkpt>
      <trkpt lat="46.97428" lon="5.8891">
        <ele>767.16</ele>
        <time>2026-01-18T13:08:59.818Z</time>
      </trkpt>
      <trkpt lat="46.97428" lon="5.88925">
        <ele>766.99</ele>
        <time>2026-01-18T13:09:11.824Z</time>
      </trkpt>
      <trkpt lat="46.97435" lon="5.88934">
        <ele>765.51</ele>
        <time>2026-01-18T13:09:25.472Z</time>
      </trkpt>
      <trkpt lat="46.97438" lon="5.88946">
        <ele>764.48</ele>
        <time>2026-01-18T13:09:34.821Z</time>
      </trkpt>
      <trkpt lat="46.97439" lon="5.88961">
        <ele>763.86</ele>
        <time>2026-01-18T13:09:50.104Z</time>
      </trkpt>
      <trkpt lat="46.97439" lon="5.88974">
        <ele>763.81</ele>
        <time>2026-01-18T13:09:58.824Z</time>
      </trkpt>
      <trkpt lat="46.97444" lon="5.88986">
        <ele>763.72</ele>
        <time>2026-01-18T13:10:14.748Z</time>
      </trkpt>
      <trkpt lat="46.97453" lon="5.88991">
        <ele>765.45</ele>
        <time>2026-01-18T13:10:24.827Z</time>
      </trkpt>
      <trkpt lat="46.97462" lon="5.88991">
        <ele>766.82</ele>
        <time>2026-01-18T13:10:38.166Z</time>
      </trkpt>
      <trkpt lat="46.97472" lon="5.88986">
        <ele>771.15</ele>
        <time>2026-01-18T13:10:50.863Z</time>
      </trkpt>
      <trkpt lat="46.97481" lon="5.88983">
        <ele>771.42</ele>
        <time>2026-01-18T13:11:02.829Z</time>
      </trkpt>
      <trkpt lat="46.9749" lon="5.88985">
        <ele>773.19</ele>
        <time>2026-01-18T13:11:10.816Z</time>
      </trkpt>
      <trkpt lat="46.97499" lon="5.88989">
        <ele>774.14</ele>
        <time>2026-01-18T13:11:21.726Z</time>
      </trkpt>
      <trkpt lat="46.97508" lon="5.88989">
        <ele>776</ele>
        <time>2026-01-18T13:11:32.879Z</time>
      </trkpt>
      <trkpt lat="46.97513" lon="5.89001">
        <ele>772.86</ele>
        <time>2026-01-18T13:12:08.864Z</time>
      </trkpt>
      <trkpt lat="46.97503" lon="5.89002">
        <ele>780.03</ele>
        <time>2026-01-18T13:13:18.854Z</time>
      </trkpt>
      <trkpt lat="46.97512" lon="5.89003">
        <ele>777.05</ele>
        <time>2026-01-18T13:13:39.546Z</time>
      </trkpt>
      <trkpt lat="46.97521" lon="5.89008">
        <ele>773.14</ele>
        <time>2026-01-18T13:13:47.827Z</time>
      </trkpt>
      <trkpt lat="46.97529" lon="5.89015">
        <ele>769.66</ele>
        <time>2026-01-18T13:13:59.228Z</time>
      </trkpt>
      <trkpt lat="46.97534" lon="5.89026">
        <ele>768.48</ele>
        <time>2026-01-18T13:14:11.814Z</time>
      </trkpt>
      <trkpt lat="46.97543" lon="5.89034">
        <ele>767.17</ele>
        <time>2026-01-18T13:15:18.817Z</time>
      </trkpt>
      <trkpt lat="46.9755" lon="5.89048">
        <ele>764.78</ele>
        <time>2026-01-18T13:15:24.823Z</time>
      </trkpt>
      <trkpt lat="46.97556" lon="5.89063">
        <ele>766.17</ele>
        <time>2026-01-18T13:15:31.713Z</time>
      </trkpt>
      <trkpt lat="46.97564" lon="5.8907">
        <ele>765.58</ele>
        <time>2026-01-18T13:15:39.526Z</time>
      </trkpt>
      <trkpt lat="46.97572" lon="5.89077">
        <ele>761.31</ele>
        <time>2026-01-18T13:15:51.826Z</time>
      </trkpt>
      <trkpt lat="46.97581" lon="5.8908">
        <ele>758.25</ele>
        <time>2026-01-18T13:16:00.523Z</time>
      </trkpt>
      <trkpt lat="46.97588" lon="5.89089">
        <ele>756.51</ele>
        <time>2026-01-18T13:16:09.467Z</time>
      </trkpt>
      <trkpt lat="46.97593" lon="5.89101">
        <ele>756.68</ele>
        <time>2026-01-18T13:16:15.820Z</time>
      </trkpt>
      <trkpt lat="46.97602" lon="5.89104">
        <ele>755.15</ele>
        <time>2026-01-18T13:16:23.389Z</time>
      </trkpt>
      <trkpt lat="46.9761" lon="5.89108">
        <ele>752.64</ele>
        <time>2026-01-18T13:16:30.751Z</time>
      </trkpt>
      <trkpt lat="46.97618" lon="5.89115">
        <ele>749.89</ele>
        <time>2026-01-18T13:16:37.819Z</time>
      </trkpt>
      <trkpt lat="46.97626" lon="5.89123">
        <ele>748.43</ele>
        <time>2026-01-18T13:16:47.772Z</time>
      </trkpt>
      <trkpt lat="46.97636" lon="5.89126">
        <ele>747.91</ele>
        <time>2026-01-18T13:16:56.430Z</time>
      </trkpt>
      <trkpt lat="46.97642" lon="5.89135">
        <ele>748.62</ele>
        <time>2026-01-18T13:17:07.363Z</time>
      </trkpt>
      <trkpt lat="46.9765" lon="5.89142">
        <ele>749.05</ele>
        <time>2026-01-18T13:17:20.491Z</time>
      </trkpt>
      <trkpt lat="46.97659" lon="5.89146">
        <ele>749.35</ele>
        <time>2026-01-18T13:17:29.429Z</time>
      </trkpt>
      <trkpt lat="46.97667" lon="5.89153">
        <ele>749</ele>
        <time>2026-01-18T13:17:39.309Z</time>
      </trkpt>
      <trkpt lat="46.97674" lon="5.89161">
        <ele>748.94</ele>
        <time>2026-01-18T13:17:51.826Z</time>
      </trkpt>
      <trkpt lat="46.97682" lon="5.89172">
        <ele>750.31</ele>
        <time>2026-01-18T13:18:05.827Z</time>
      </trkpt>
      <trkpt lat="46.97689" lon="5.89182">
        <ele>748.21</ele>
        <time>2026-01-18T13:18:13.565Z</time>
      </trkpt>
      <trkpt lat="46.97699" lon="5.89187">
        <ele>746.66</ele>
        <time>2026-01-18T13:18:23.821Z</time>
      </trkpt>
      <trkpt lat="46.97705" lon="5.89197">
        <ele>749.16</ele>
        <time>2026-01-18T13:18:31.818Z</time>
      </trkpt>
      <trkpt lat="46.97711" lon="5.89209">
        <ele>750.61</ele>
        <time>2026-01-18T13:18:41.820Z</time>
      </trkpt>
      <trkpt lat="46.97717" lon="5.89219">
        <ele>749</ele>
        <time>2026-01-18T13:18:51.816Z</time>
      </trkpt>
      <trkpt lat="46.97725" lon="5.89228">
        <ele>750.15</ele>
        <time>2026-01-18T13:19:02.392Z</time>
      </trkpt>
      <trkpt lat="46.9773" lon="5.89239">
        <ele>752.48</ele>
        <time>2026-01-18T13:19:11.807Z</time>
      </trkpt>
      <trkpt lat="46.97737" lon="5.89248">
        <ele>753.49</ele>
        <time>2026-01-18T13:19:23.823Z</time>
      </trkpt>
      <trkpt lat="46.97745" lon="5.89255">
        <ele>752.65</ele>
        <time>2026-01-18T13:19:32.667Z</time>
      </trkpt>
      <trkpt lat="46.9775" lon="5.89267">
        <ele>749.63</ele>
        <time>2026-01-18T13:19:41.786Z</time>
      </trkpt>
      <trkpt lat="46.97755" lon="5.89279">
        <ele>750.52</ele>
        <time>2026-01-18T13:19:59.820Z</time>
      </trkpt>
      <trkpt lat="46.97763" lon="5.89286">
        <ele>750.89</ele>
        <time>2026-01-18T13:20:08.858Z</time>
      </trkpt>
      <trkpt lat="46.97772" lon="5.8929">
        <ele>749.45</ele>
        <time>2026-01-18T13:20:16.004Z</time>
      </trkpt>
      <trkpt lat="46.97781" lon="5.89292">
        <ele>746.9</ele>
        <time>2026-01-18T13:20:28.204Z</time>
      </trkpt>
      <trkpt lat="46.97785" lon="5.89305">
        <ele>747.62</ele>
        <time>2026-01-18T13:20:37.814Z</time>
      </trkpt>
      <trkpt lat="46.97789" lon="5.89317">
        <ele>747.46</ele>
        <time>2026-01-18T13:20:47.822Z</time>
      </trkpt>
      <trkpt lat="46.97796" lon="5.89326">
        <ele>747.23</ele>
        <time>2026-01-18T13:20:58.055Z</time>
      </trkpt>
      <trkpt lat="46.97803" lon="5.89335">
        <ele>748.31</ele>
        <time>2026-01-18T13:21:06.821Z</time>
      </trkpt>
      <trkpt lat="46.97809" lon="5.89346">
        <ele>747.29</ele>
        <time>2026-01-18T13:21:15.824Z</time>
      </trkpt>
      <trkpt lat="46.97814" lon="5.89358">
        <ele>746.94</ele>
        <time>2026-01-18T13:21:29.311Z</time>
      </trkpt>
      <trkpt lat="46.97818" lon="5.89371">
        <ele>743.87</ele>
        <time>2026-01-18T13:21:43.054Z</time>
      </trkpt>
      <trkpt lat="46.97818" lon="5.89384">
        <ele>745.09</ele>
        <time>2026-01-18T13:21:48.825Z</time>
      </trkpt>
      <trkpt lat="46.97825" lon="5.89393">
        <ele>743.5</ele>
        <time>2026-01-18T13:22:02.553Z</time>
      </trkpt>
      <trkpt lat="46.97831" lon="5.89403">
        <ele>744.11</ele>
        <time>2026-01-18T13:22:07.820Z</time>
      </trkpt>
      <trkpt lat="46.9784" lon="5.89411">
        <ele>743.22</ele>
        <time>2026-01-18T13:22:25.202Z</time>
      </trkpt>
      <trkpt lat="46.97844" lon="5.89423">
        <ele>744.35</ele>
        <time>2026-01-18T13:22:32.432Z</time>
      </trkpt>
      <trkpt lat="46.97845" lon="5.89437">
        <ele>735.85</ele>
        <time>2026-01-18T13:23:02.473Z</time>
      </trkpt>
      <trkpt lat="46.97845" lon="5.8945">
        <ele>735.04</ele>
        <time>2026-01-18T13:23:14.531Z</time>
      </trkpt>
      <trkpt lat="46.97844" lon="5.89463">
        <ele>733.45</ele>
        <time>2026-01-18T13:23:26.452Z</time>
      </trkpt>
      <trkpt lat="46.97839" lon="5.89475">
        <ele>730.45</ele>
        <time>2026-01-18T13:23:44.665Z</time>
      </trkpt>
      <trkpt lat="46.97844" lon="5.89487">
        <ele>729.13</ele>
        <time>2026-01-18T13:23:53.813Z</time>
      </trkpt>
      <trkpt lat="46.97852" lon="5.89492">
        <ele>727.56</ele>
        <time>2026-01-18T13:24:33.821Z</time>
      </trkpt>
      <trkpt lat="46.97858" lon="5.89504">
        <ele>725.95</ele>
        <time>2026-01-18T13:24:42.792Z</time>
      </trkpt>
      <trkpt lat="46.97865" lon="5.89513">
        <ele>722.16</ele>
        <time>2026-01-18T13:24:56.049Z</time>
      </trkpt>
      <trkpt lat="46.97861" lon="5.89525">
        <ele>720.06</ele>
        <time>2026-01-18T13:25:12.532Z</time>
      </trkpt>
      <trkpt lat="46.97855" lon="5.89535">
        <ele>718.23</ele>
        <time>2026-01-18T13:25:34.908Z</time>
      </trkpt>
      <trkpt lat="46.97859" lon="5.89548">
        <ele>715.76</ele>
        <time>2026-01-18T13:25:45.368Z</time>
      </trkpt>
      <trkpt lat="46.97863" lon="5.89562">
        <ele>716.52</ele>
        <time>2026-01-18T13:25:55.830Z</time>
      </trkpt>
      <trkpt lat="46.9787" lon="5.89571">
        <ele>713.97</ele>
        <time>2026-01-18T13:26:07.820Z</time>
      </trkpt>
      <trkpt lat="46.97872" lon="5.89584">
        <ele>710.94</ele>
        <time>2026-01-18T13:26:24.994Z</time>
      </trkpt>
      <trkpt lat="46.97875" lon="5.89597">
        <ele>707.24</ele>
        <time>2026-01-18T13:26:38.544Z</time>
      </trkpt>
      <trkpt lat="46.97878" lon="5.8961">
        <ele>706.23</ele>
        <time>2026-01-18T13:26:49.806Z</time>
      </trkpt>
      <trkpt lat="46.97874" lon="5.89622">
        <ele>700.24</ele>
        <time>2026-01-18T13:27:04.819Z</time>
      </trkpt>
      <trkpt lat="46.97876" lon="5.89635">
        <ele>696.41</ele>
        <time>2026-01-18T13:27:23.429Z</time>
      </trkpt>
      <trkpt lat="46.97878" lon="5.89648">
        <ele>697.07</ele>
        <time>2026-01-18T13:27:31.967Z</time>
      </trkpt>
      <trkpt lat="46.97879" lon="5.89661">
        <ele>693.45</ele>
        <time>2026-01-18T13:27:48.819Z</time>
      </trkpt>
      <trkpt lat="46.97878" lon="5.89674">
        <ele>688.66</ele>
        <time>2026-01-18T13:28:03.648Z</time>
      </trkpt>
      <trkpt lat="46.97883" lon="5.89686">
        <ele>685.32</ele>
        <time>2026-01-18T13:28:22.764Z</time>
      </trkpt>
      <trkpt lat="46.97889" lon="5.89697">
        <ele>679.54</ele>
        <time>2026-01-18T13:28:40.818Z</time>
      </trkpt>
      <trkpt lat="46.97898" lon="5.89701">
        <ele>680.02</ele>
        <time>2026-01-18T13:29:32.878Z</time>
      </trkpt>
      <trkpt lat="46.97892" lon="5.89712">
        <ele>677.35</ele>
        <time>2026-01-18T13:30:59.786Z</time>
      </trkpt>
      <trkpt lat="46.97889" lon="5.89724">
        <ele>673.52</ele>
        <time>2026-01-18T13:31:17.819Z</time>
      </trkpt>
      <trkpt lat="46.97891" lon="5.89737">
        <ele>673.05</ele>
        <time>2026-01-18T13:31:30.840Z</time>
      </trkpt>
      <trkpt lat="46.97892" lon="5.89751">
        <ele>668.22</ele>
        <time>2026-01-18T13:31:50.704Z</time>
      </trkpt>
      <trkpt lat="46.97894" lon="5.89763">
        <ele>667.44</ele>
        <time>2026-01-18T13:32:07.748Z</time>
      </trkpt>
      <trkpt lat="46.97895" lon="5.89778">
        <ele>660.92</ele>
        <time>2026-01-18T13:32:26.886Z</time>
      </trkpt>
      <trkpt lat="46.97896" lon="5.89792">
        <ele>656.16</ele>
        <time>2026-01-18T13:32:54.826Z</time>
      </trkpt>
      <trkpt lat="46.97894" lon="5.89805">
        <ele>653.54</ele>
        <time>2026-01-18T13:33:05.901Z</time>
      </trkpt>
      <trkpt lat="46.97898" lon="5.89818">
        <ele>648.32</ele>
        <time>2026-01-18T13:33:22.820Z</time>
      </trkpt>
      <trkpt lat="46.97906" lon="5.89826">
        <ele>646.09</ele>
        <time>2026-01-18T13:33:32.878Z</time>
      </trkpt>
      <trkpt lat="46.97915" lon="5.89825">
        <ele>644.62</ele>
        <time>2026-01-18T13:33:42.646Z</time>
      </trkpt>
      <trkpt lat="46.97922" lon="5.89833">
        <ele>641.81</ele>
        <time>2026-01-18T13:33:57.706Z</time>
      </trkpt>
      <trkpt lat="46.97932" lon="5.89836">
        <ele>639.45</ele>
        <time>2026-01-18T13:34:06.807Z</time>
      </trkpt>
      <trkpt lat="46.9794" lon="5.89842">
        <ele>639.08</ele>
        <time>2026-01-18T13:34:15.545Z</time>
      </trkpt>
      <trkpt lat="46.97949" lon="5.89846">
        <ele>637.92</ele>
        <time>2026-01-18T13:34:25.672Z</time>
      </trkpt>
      <trkpt lat="46.97958" lon="5.8985">
        <ele>640.45</ele>
        <time>2026-01-18T13:34:35.817Z</time>
      </trkpt>
      <trkpt lat="46.97968" lon="5.89852">
        <ele>640.62</ele>
        <time>2026-01-18T13:34:47.820Z</time>
      </trkpt>
      <trkpt lat="46.97976" lon="5.89857">
        <ele>638.62</ele>
        <time>2026-01-18T13:34:55.822Z</time>
      </trkpt>
      <trkpt lat="46.9798" lon="5.89869">
        <ele>638.67</ele>
        <time>2026-01-18T13:35:06.456Z</time>
      </trkpt>
      <trkpt lat="46.97986" lon="5.89881">
        <ele>637.34</ele>
        <time>2026-01-18T13:35:14.851Z</time>
      </trkpt>
      <trkpt lat="46.97989" lon="5.89895">
        <ele>635.39</ele>
        <time>2026-01-18T13:35:29.688Z</time>
      </trkpt>
      <trkpt lat="46.97988" lon="5.89908">
        <ele>635.23</ele>
        <time>2026-01-18T13:35:41.289Z</time>
      </trkpt>
      <trkpt lat="46.97985" lon="5.89921">
        <ele>636.12</ele>
        <time>2026-01-18T13:35:49.589Z</time>
      </trkpt>
      <trkpt lat="46.97981" lon="5.89933">
        <ele>637.32</ele>
        <time>2026-01-18T13:36:07.823Z</time>
      </trkpt>
      <trkpt lat="46.97978" lon="5.89959">
        <ele>635.06</ele>
        <time>2026-01-18T13:36:28.841Z</time>
      </trkpt>
      <trkpt lat="46.97973" lon="5.89973">
        <ele>632.35</ele>
        <time>2026-01-18T13:36:34.447Z</time>
      </trkpt>
      <trkpt lat="46.97969" lon="5.89985">
        <ele>631.84</ele>
        <time>2026-01-18T13:36:52.406Z</time>
      </trkpt>
      <trkpt lat="46.97968" lon="5.89998">
        <ele>629.25</ele>
        <time>2026-01-18T13:37:00.652Z</time>
      </trkpt>
      <trkpt lat="46.97964" lon="5.9001">
        <ele>625.94</ele>
        <time>2026-01-18T13:37:10.447Z</time>
      </trkpt>
      <trkpt lat="46.97961" lon="5.90024">
        <ele>623.95</ele>
        <time>2026-01-18T13:37:22.810Z</time>
      </trkpt>
      <trkpt lat="46.97958" lon="5.90037">
        <ele>624.51</ele>
        <time>2026-01-18T13:38:14.856Z</time>
      </trkpt>
      <trkpt lat="46.97954" lon="5.9005">
        <ele>631.89</ele>
        <time>2026-01-18T13:42:25.817Z</time>
      </trkpt>
      <trkpt lat="46.97963" lon="5.90052">
        <ele>632.72</ele>
        <time>2026-01-18T13:42:57.252Z</time>
      </trkpt>
      <trkpt lat="46.97972" lon="5.90056">
        <ele>631.53</ele>
        <time>2026-01-18T13:43:04.027Z</time>
      </trkpt>
      <trkpt lat="46.9798" lon="5.9006">
        <ele>629.4</ele>
        <time>2026-01-18T13:43:11.817Z</time>
      </trkpt>
      <trkpt lat="46.97988" lon="5.9007">
        <ele>626.4</ele>
        <time>2026-01-18T13:43:25.690Z</time>
      </trkpt>
      <trkpt lat="46.97994" lon="5.90081">
        <ele>627.73</ele>
        <time>2026-01-18T13:43:37.817Z</time>
      </trkpt>
      <trkpt lat="46.98003" lon="5.90088">
        <ele>627.51</ele>
        <time>2026-01-18T13:43:46.819Z</time>
      </trkpt>
      <trkpt lat="46.98009" lon="5.90097">
        <ele>625.71</ele>
        <time>2026-01-18T13:43:54.473Z</time>
      </trkpt>
      <trkpt lat="46.98018" lon="5.90102">
        <ele>620.93</ele>
        <time>2026-01-18T13:44:02.866Z</time>
      </trkpt>
      <trkpt lat="46.98027" lon="5.90107">
        <ele>616.68</ele>
        <time>2026-01-18T13:44:12.593Z</time>
      </trkpt>
      <trkpt lat="46.98036" lon="5.90112">
        <ele>615.45</ele>
        <time>2026-01-18T13:44:22.165Z</time>
      </trkpt>
      <trkpt lat="46.98043" lon="5.90121">
        <ele>615.53</ele>
        <time>2026-01-18T13:44:30.478Z</time>
      </trkpt>
      <trkpt lat="46.98049" lon="5.90132">
        <ele>613.56</ele>
        <time>2026-01-18T13:44:37.548Z</time>
      </trkpt>
      <trkpt lat="46.98055" lon="5.90142">
        <ele>612.61</ele>
        <time>2026-01-18T13:44:46.305Z</time>
      </trkpt>
      <trkpt lat="46.98059" lon="5.90154">
        <ele>611.77</ele>
        <time>2026-01-18T13:44:53.818Z</time>
      </trkpt>
      <trkpt lat="46.98068" lon="5.90158">
        <ele>611.3</ele>
        <time>2026-01-18T13:45:02.766Z</time>
      </trkpt>
      <trkpt lat="46.98075" lon="5.90168">
        <ele>612.5</ele>
        <time>2026-01-18T13:45:08.859Z</time>
      </trkpt>
      <trkpt lat="46.9808" lon="5.90179">
        <ele>612.15</ele>
        <time>2026-01-18T13:45:16.728Z</time>
      </trkpt>
      <trkpt lat="46.98088" lon="5.90188">
        <ele>610.56</ele>
        <time>2026-01-18T13:45:24.823Z</time>
      </trkpt>
      <trkpt lat="46.98093" lon="5.90198">
        <ele>609.97</ele>
        <time>2026-01-18T13:45:34.365Z</time>
      </trkpt>
      <trkpt lat="46.98099" lon="5.90208">
        <ele>608.71</ele>
        <time>2026-01-18T13:45:43.820Z</time>
      </trkpt>
      <trkpt lat="46.98105" lon="5.90218">
        <ele>606.55</ele>
        <time>2026-01-18T13:45:55.534Z</time>
      </trkpt>
      <trkpt lat="46.98114" lon="5.90223">
        <ele>602.83</ele>
        <time>2026-01-18T13:46:08.449Z</time>
      </trkpt>
      <trkpt lat="46.98118" lon="5.90235">
        <ele>598.7</ele>
        <time>2026-01-18T13:46:28.614Z</time>
      </trkpt>
      <trkpt lat="46.98124" lon="5.90246">
        <ele>598.24</ele>
        <time>2026-01-18T13:46:48.433Z</time>
      </trkpt>
      <trkpt lat="46.98133" lon="5.90248">
        <ele>596.31</ele>
        <time>2026-01-18T13:47:07.633Z</time>
      </trkpt>
      <trkpt lat="46.9814" lon="5.90258">
        <ele>593.63</ele>
        <time>2026-01-18T13:47:27.817Z</time>
      </trkpt>
      <trkpt lat="46.98149" lon="5.90256">
        <ele>581.65</ele>
        <time>2026-01-18T13:48:21.824Z</time>
      </trkpt>
      <trkpt lat="46.9814" lon="5.90252">
        <ele>579.39</ele>
        <time>2026-01-18T13:48:52.814Z</time>
      </trkpt>
      <trkpt lat="46.98149" lon="5.90257">
        <ele>581.91</ele>
        <time>2026-01-18T13:49:07.823Z</time>
      </trkpt>
      <trkpt lat="46.98158" lon="5.90264">
        <ele>582.59</ele>
        <time>2026-01-18T13:49:13.270Z</time>
      </trkpt>
      <trkpt lat="46.98166" lon="5.90271">
        <ele>581.56</ele>
        <time>2026-01-18T13:49:19.552Z</time>
      </trkpt>
      <trkpt lat="46.98174" lon="5.9028">
        <ele>581.33</ele>
        <time>2026-01-18T13:49:26.874Z</time>
      </trkpt>
      <trkpt lat="46.98181" lon="5.90288">
        <ele>580.92</ele>
        <time>2026-01-18T13:49:37.818Z</time>
      </trkpt>
      <trkpt lat="46.98179" lon="5.90302">
        <ele>581.07</ele>
        <time>2026-01-18T13:49:47.828Z</time>
      </trkpt>
      <trkpt lat="46.98177" lon="5.90316">
        <ele>579.21</ele>
        <time>2026-01-18T13:49:58.792Z</time>
      </trkpt>
      <trkpt lat="46.98176" lon="5.9033">
        <ele>583.03</ele>
        <time>2026-01-18T13:50:10.824Z</time>
      </trkpt>
      <trkpt lat="46.98177" lon="5.90344">
        <ele>585.17</ele>
        <time>2026-01-18T13:50:25.689Z</time>
      </trkpt>
      <trkpt lat="46.98186" lon="5.90351">
        <ele>587.27</ele>
        <time>2026-01-18T13:51:00.825Z</time>
      </trkpt>
      <trkpt lat="46.98194" lon="5.90358">
        <ele>585.96</ele>
        <time>2026-01-18T13:51:08.850Z</time>
      </trkpt>
      <trkpt lat="46.98203" lon="5.9036">
        <ele>582.21</ele>
        <time>2026-01-18T13:51:22.816Z</time>
      </trkpt>
      <trkpt lat="46.98212" lon="5.90364">
        <ele>580.07</ele>
        <time>2026-01-18T13:51:34.864Z</time>
      </trkpt>
      <trkpt lat="46.98221" lon="5.90366">
        <ele>577.54</ele>
        <time>2026-01-18T13:51:45.548Z</time>
      </trkpt>
      <trkpt lat="46.98231" lon="5.90365">
        <ele>574.98</ele>
        <time>2026-01-18T13:51:54.131Z</time>
      </trkpt>
      <trkpt lat="46.98239" lon="5.90371">
        <ele>574.91</ele>
        <time>2026-01-18T13:52:04.375Z</time>
      </trkpt>
      <trkpt lat="46.98247" lon="5.90379">
        <ele>577.54</ele>
        <time>2026-01-18T13:52:10.820Z</time>
      </trkpt>
      <trkpt lat="46.98255" lon="5.90386">
        <ele>573.19</ele>
        <time>2026-01-18T13:52:23.767Z</time>
      </trkpt>
      <trkpt lat="46.98264" lon="5.90392">
        <ele>574.24</ele>
        <time>2026-01-18T13:52:32.882Z</time>
      </trkpt>
      <trkpt lat="46.98272" lon="5.90398">
        <ele>571.98</ele>
        <time>2026-01-18T13:52:41.828Z</time>
      </trkpt>
      <trkpt lat="46.98282" lon="5.90404">
        <ele>571.1</ele>
        <time>2026-01-18T13:52:52.528Z</time>
      </trkpt>
      <trkpt lat="46.9829" lon="5.90412">
        <ele>568.72</ele>
        <time>2026-01-18T13:53:02.878Z</time>
      </trkpt>
      <trkpt lat="46.98297" lon="5.9042">
        <ele>566.13</ele>
        <time>2026-01-18T13:53:11.818Z</time>
      </trkpt>
      <trkpt lat="46.98305" lon="5.90428">
        <ele>566.37</ele>
        <time>2026-01-18T13:53:20.866Z</time>
      </trkpt>
      <trkpt lat="46.98314" lon="5.90434">
        <ele>566.38</ele>
        <time>2026-01-18T13:53:31.823Z</time>
      </trkpt>
      <trkpt lat="46.98323" lon="5.90437">
        <ele>565.39</ele>
        <time>2026-01-18T13:53:40.819Z</time>
      </trkpt>
      <trkpt lat="46.98332" lon="5.90439">
        <ele>565.42</ele>
        <time>2026-01-18T13:53:50.349Z</time>
      </trkpt>
      <trkpt lat="46.98341" lon="5.90444">
        <ele>564.97</ele>
        <time>2026-01-18T13:53:57.823Z</time>
      </trkpt>
      <trkpt lat="46.98349" lon="5.90452">
        <ele>567.62</ele>
        <time>2026-01-18T13:54:06.444Z</time>
      </trkpt>
      <trkpt lat="46.98357" lon="5.90459">
        <ele>561.29</ele>
        <time>2026-01-18T13:54:15.403Z</time>
      </trkpt>
      <trkpt lat="46.98366" lon="5.90463">
        <ele>555.52</ele>
        <time>2026-01-18T13:54:24.374Z</time>
      </trkpt>
      <trkpt lat="46.98373" lon="5.90472">
        <ele>553.94</ele>
        <time>2026-01-18T13:54:33.333Z</time>
      </trkpt>
      <trkpt lat="46.98382" lon="5.90478">
        <ele>554.67</ele>
        <time>2026-01-18T13:54:42.851Z</time>
      </trkpt>
      <trkpt lat="46.98386" lon="5.9049">
        <ele>555.96</ele>
        <time>2026-01-18T13:54:48.820Z</time>
      </trkpt>
      <trkpt lat="46.98393" lon="5.90498">
        <ele>557.24</ele>
        <time>2026-01-18T13:54:59.828Z</time>
      </trkpt>
      <trkpt lat="46.984" lon="5.90507">
        <ele>558.41</ele>
        <time>2026-01-18T13:55:09.880Z</time>
      </trkpt>
      <trkpt lat="46.98409" lon="5.90513">
        <ele>559.08</ele>
        <time>2026-01-18T13:55:20.771Z</time>
      </trkpt>
      <trkpt lat="46.98416" lon="5.90522">
        <ele>559.4</ele>
        <time>2026-01-18T13:55:29.827Z</time>
      </trkpt>
      <trkpt lat="46.98424" lon="5.90531">
        <ele>557.72</ele>
        <time>2026-01-18T13:55:40.539Z</time>
      </trkpt>
      <trkpt lat="46.98431" lon="5.90541">
        <ele>559.74</ele>
        <time>2026-01-18T13:55:47.820Z</time>
      </trkpt>
      <trkpt lat="46.98439" lon="5.90548">
        <ele>558.73</ele>
        <time>2026-01-18T13:55:58.814Z</time>
      </trkpt>
      <trkpt lat="46.98448" lon="5.90554">
        <ele>555.8</ele>
        <time>2026-01-18T13:56:10.828Z</time>
      </trkpt>
      <trkpt lat="46.98456" lon="5.90559">
        <ele>552.45</ele>
        <time>2026-01-18T13:56:21.822Z</time>
      </trkpt>
      <trkpt lat="46.98463" lon="5.90568">
        <ele>549.23</ele>
        <time>2026-01-18T13:56:29.970Z</time>
      </trkpt>
      <trkpt lat="46.98471" lon="5.90573">
        <ele>546.8</ele>
        <time>2026-01-18T13:56:38.895Z</time>
      </trkpt>
      <trkpt lat="46.98476" lon="5.90585">
        <ele>545.64</ele>
        <time>2026-01-18T13:56:48.071Z</time>
      </trkpt>
      <trkpt lat="46.98484" lon="5.9059">
        <ele>544.58</ele>
        <time>2026-01-18T13:56:55.532Z</time>
      </trkpt>
      <trkpt lat="46.98491" lon="5.906">
        <ele>543.25</ele>
        <time>2026-01-18T13:57:05.265Z</time>
      </trkpt>
      <trkpt lat="46.98495" lon="5.90612">
        <ele>546.05</ele>
        <time>2026-01-18T13:57:14.862Z</time>
      </trkpt>
      <trkpt lat="46.98502" lon="5.90621">
        <ele>550.13</ele>
        <time>2026-01-18T13:57:58.823Z</time>
      </trkpt>
      <trkpt lat="46.98501" lon="5.90635">
        <ele>541.33</ele>
        <time>2026-01-18T13:59:13.770Z</time>
      </trkpt>
      <trkpt lat="46.98506" lon="5.90648">
        <ele>539.1</ele>
        <time>2026-01-18T13:59:22.969Z</time>
      </trkpt>
      <trkpt lat="46.98512" lon="5.90659">
        <ele>535.62</ele>
        <time>2026-01-18T13:59:31.823Z</time>
      </trkpt>
      <trkpt lat="46.98516" lon="5.9067">
        <ele>532.57</ele>
        <time>2026-01-18T13:59:38.822Z</time>
      </trkpt>
      <trkpt lat="46.98519" lon="5.90683">
        <ele>532.27</ele>
        <time>2026-01-18T13:59:45.628Z</time>
      </trkpt>
      <trkpt lat="46.98518" lon="5.90697">
        <ele>535.61</ele>
        <time>2026-01-18T13:59:51.809Z</time>
      </trkpt>
      <trkpt lat="46.98516" lon="5.9071">
        <ele>538.76</ele>
        <time>2026-01-18T13:59:58.809Z</time>
      </trkpt>
      <trkpt lat="46.98517" lon="5.90724">
        <ele>540.97</ele>
        <time>2026-01-18T14:00:04.767Z</time>
      </trkpt>
      <trkpt lat="46.9852" lon="5.90737">
        <ele>538.98</ele>
        <time>2026-01-18T14:00:12.824Z</time>
      </trkpt>
      <trkpt lat="46.98524" lon="5.90749">
        <ele>538.33</ele>
        <time>2026-01-18T14:00:20.450Z</time>
      </trkpt>
      <trkpt lat="46.98527" lon="5.90762">
        <ele>536.42</ele>
        <time>2026-01-18T14:00:27.445Z</time>
      </trkpt>
      <trkpt lat="46.98531" lon="5.90774">
        <ele>535.44</ele>
        <time>2026-01-18T14:00:33.747Z</time>
      </trkpt>
      <trkpt lat="46.98536" lon="5.90785">
        <ele>534.58</ele>
        <time>2026-01-18T14:00:42.531Z</time>
      </trkpt>
      <trkpt lat="46.98541" lon="5.90797">
        <ele>535.59</ele>
        <time>2026-01-18T14:00:48.284Z</time>
      </trkpt>
      <trkpt lat="46.98549" lon="5.90804">
        <ele>535.15</ele>
        <time>2026-01-18T14:00:56.530Z</time>
      </trkpt>
      <trkpt lat="46.98557" lon="5.9081">
        <ele>533.92</ele>
        <time>2026-01-18T14:01:03.544Z</time>
      </trkpt>
      <trkpt lat="46.98562" lon="5.90822">
        <ele>536.56</ele>
        <time>2026-01-18T14:01:09.685Z</time>
      </trkpt>
      <trkpt lat="46.98566" lon="5.90834">
        <ele>541.36</ele>
        <time>2026-01-18T14:01:15.818Z</time>
      </trkpt>
      <trkpt lat="46.98573" lon="5.90844">
        <ele>543.76</ele>
        <time>2026-01-18T14:01:24.152Z</time>
      </trkpt>
      <trkpt lat="46.9858" lon="5.90856">
        <ele>546.63</ele>
        <time>2026-01-18T14:01:31.469Z</time>
      </trkpt>
      <trkpt lat="46.98588" lon="5.90862">
        <ele>547.5</ele>
        <time>2026-01-18T14:01:39.151Z</time>
      </trkpt>
      <trkpt lat="46.98596" lon="5.90868">
        <ele>546.87</ele>
        <time>2026-01-18T14:01:46.167Z</time>
      </trkpt>
      <trkpt lat="46.98605" lon="5.90873">
        <ele>545.39</ele>
        <time>2026-01-18T14:01:53.824Z</time>
      </trkpt>
      <trkpt lat="46.98614" lon="5.90879">
        <ele>547.9</ele>
        <time>2026-01-18T14:02:01.821Z</time>
      </trkpt>
      <trkpt lat="46.98622" lon="5.90885">
        <ele>547.11</ele>
        <time>2026-01-18T14:02:12.820Z</time>
      </trkpt>
      <trkpt lat="46.98631" lon="5.90887">
        <ele>546.09</ele>
        <time>2026-01-18T14:02:21.820Z</time>
      </trkpt>
      <trkpt lat="46.9864" lon="5.9089">
        <ele>545.61</ele>
        <time>2026-01-18T14:02:33.451Z</time>
      </trkpt>
      <trkpt lat="46.98649" lon="5.90893">
        <ele>546.9</ele>
        <time>2026-01-18T14:02:43.822Z</time>
      </trkpt>
      <trkpt lat="46.98658" lon="5.90896">
        <ele>545.68</ele>
        <time>2026-01-18T14:02:52.819Z</time>
      </trkpt>
      <trkpt lat="46.98668" lon="5.90898">
        <ele>543.15</ele>
        <time>2026-01-18T14:03:01.820Z</time>
      </trkpt>
      <trkpt lat="46.98677" lon="5.90904">
        <ele>541.4</ele>
        <time>2026-01-18T14:03:09.825Z</time>
      </trkpt>
      <trkpt lat="46.98686" lon="5.90907">
        <ele>540.33</ele>
        <time>2026-01-18T14:03:18.429Z</time>
      </trkpt>
      <trkpt lat="46.98695" lon="5.90913">
        <ele>538.43</ele>
        <time>2026-01-18T14:03:28.821Z</time>
      </trkpt>
      <trkpt lat="46.98702" lon="5.90924">
        <ele>536.4</ele>
        <time>2026-01-18T14:03:38.823Z</time>
      </trkpt>
      <trkpt lat="46.98708" lon="5.90934">
        <ele>535.34</ele>
        <time>2026-01-18T14:03:46.822Z</time>
      </trkpt>
      <trkpt lat="46.98716" lon="5.90943">
        <ele>535.83</ele>
        <time>2026-01-18T14:03:57.824Z</time>
      </trkpt>
      <trkpt lat="46.98724" lon="5.90952">
        <ele>536.77</ele>
        <time>2026-01-18T14:04:06.829Z</time>
      </trkpt>
      <trkpt lat="46.98732" lon="5.90957">
        <ele>537.4</ele>
        <time>2026-01-18T14:04:19.820Z</time>
      </trkpt>
      <trkpt lat="46.98739" lon="5.90968">
        <ele>538.55</ele>
        <time>2026-01-18T14:04:28.817Z</time>
      </trkpt>
      <trkpt lat="46.98743" lon="5.9098">
        <ele>538.19</ele>
        <time>2026-01-18T14:04:40.773Z</time>
      </trkpt>
      <trkpt lat="46.98749" lon="5.90991">
        <ele>536.08</ele>
        <time>2026-01-18T14:04:49.819Z</time>
      </trkpt>
      <trkpt lat="46.98756" lon="5.91">
        <ele>530.18</ele>
        <time>2026-01-18T14:04:58.816Z</time>
      </trkpt>
      <trkpt lat="46.98762" lon="5.9101">
        <ele>529.94</ele>
        <time>2026-01-18T14:05:06.591Z</time>
      </trkpt>
      <trkpt lat="46.98769" lon="5.91019">
        <ele>529.65</ele>
        <time>2026-01-18T14:05:14.355Z</time>
      </trkpt>
      <trkpt lat="46.98777" lon="5.91028">
        <ele>528.8</ele>
        <time>2026-01-18T14:05:26.554Z</time>
      </trkpt>
      <trkpt lat="46.98784" lon="5.91037">
        <ele>527.79</ele>
        <time>2026-01-18T14:05:38.820Z</time>
      </trkpt>
      <trkpt lat="46.9879" lon="5.91047">
        <ele>530.16</ele>
        <time>2026-01-18T14:05:47.795Z</time>
      </trkpt>
      <trkpt lat="46.98796" lon="5.9106">
        <ele>530.33</ele>
        <time>2026-01-18T14:05:57.821Z</time>
      </trkpt>
      <trkpt lat="46.98801" lon="5.91072">
        <ele>529.83</ele>
        <time>2026-01-18T14:06:06.816Z</time>
      </trkpt>
      <trkpt lat="46.98809" lon="5.9108">
        <ele>529.53</ele>
        <time>2026-01-18T14:06:19.351Z</time>
      </trkpt>
      <trkpt lat="46.98816" lon="5.9109">
        <ele>529.44</ele>
        <time>2026-01-18T14:06:27.826Z</time>
      </trkpt>
      <trkpt lat="46.98825" lon="5.9109">
        <ele>523.84</ele>
        <time>2026-01-18T14:06:52.819Z</time>
      </trkpt>
      <trkpt lat="46.98834" lon="5.91097">
        <ele>521.62</ele>
        <time>2026-01-18T14:07:03.273Z</time>
      </trkpt>
      <trkpt lat="46.98843" lon="5.91099">
        <ele>518.73</ele>
        <time>2026-01-18T14:07:13.830Z</time>
      </trkpt>
      <trkpt lat="46.98834" lon="5.91092">
        <ele>514.87</ele>
        <time>2026-01-18T14:08:17.820Z</time>
      </trkpt>
      <trkpt lat="46.98834" lon="5.91105">
        <ele>525.99</ele>
        <time>2026-01-18T14:10:36.823Z</time>
      </trkpt>
      <trkpt lat="46.98837" lon="5.91092">
        <ele>517.08</ele>
        <time>2026-01-18T14:11:02.888Z</time>
      </trkpt>
      <trkpt lat="46.98827" lon="5.91091">
        <ele>517.38</ele>
        <time>2026-01-18T14:11:16.819Z</time>
      </trkpt>
      <trkpt lat="46.98837" lon="5.91093">
        <ele>518.8</ele>
        <time>2026-01-18T14:12:54.820Z</time>
      </trkpt>
      <trkpt lat="46.98849" lon="5.9111">
        <ele>522.87</ele>
        <time>2026-01-18T14:13:12.307Z</time>
      </trkpt>
      <trkpt lat="46.98842" lon="5.91121">
        <ele>523.58</ele>
        <time>2026-01-18T14:13:30.850Z</time>
      </trkpt>
      <trkpt lat="46.98831" lon="5.91136">
        <ele>525.39</ele>
        <time>2026-01-18T14:13:43.819Z</time>
      </trkpt>
      <trkpt lat="46.98822" lon="5.91143">
        <ele>524.36</ele>
        <time>2026-01-18T14:13:49.819Z</time>
      </trkpt>
      <trkpt lat="46.98814" lon="5.91154">
        <ele>522.16</ele>
        <time>2026-01-18T14:13:55.431Z</time>
      </trkpt>
      <trkpt lat="46.98806" lon="5.91159">
        <ele>519.05</ele>
        <time>2026-01-18T14:14:04.005Z</time>
      </trkpt>
      <trkpt lat="46.98795" lon="5.91157">
        <ele>518.02</ele>
        <time>2026-01-18T14:14:12.818Z</time>
      </trkpt>
      <trkpt lat="46.98785" lon="5.91152">
        <ele>515.74</ele>
        <time>2026-01-18T14:14:17.820Z</time>
      </trkpt>
      <trkpt lat="46.98775" lon="5.91149">
        <ele>513.05</ele>
        <time>2026-01-18T14:14:23.803Z</time>
      </trkpt>
      <trkpt lat="46.98766" lon="5.91146">
        <ele>513.44</ele>
        <time>2026-01-18T14:14:28.822Z</time>
      </trkpt>
      <trkpt lat="46.98755" lon="5.91152">
        <ele>511.32</ele>
        <time>2026-01-18T14:14:41.816Z</time>
      </trkpt>
      <trkpt lat="46.9874" lon="5.91167">
        <ele>510.57</ele>
        <time>2026-01-18T14:14:59.024Z</time>
      </trkpt>
      <trkpt lat="46.98727" lon="5.91173">
        <ele>510.7</ele>
        <time>2026-01-18T14:15:05.668Z</time>
      </trkpt>
      <trkpt lat="46.98715" lon="5.91177">
        <ele>510.51</ele>
        <time>2026-01-18T14:15:10.810Z</time>
      </trkpt>
      <trkpt lat="46.98704" lon="5.9118">
        <ele>510.36</ele>
        <time>2026-01-18T14:15:16.809Z</time>
      </trkpt>
      <trkpt lat="46.98693" lon="5.91187">
        <ele>511.04</ele>
        <time>2026-01-18T14:15:38.881Z</time>
      </trkpt>
      <trkpt lat="46.98678" lon="5.912">
        <ele>511.36</ele>
        <time>2026-01-18T14:15:44.811Z</time>
      </trkpt>
      <trkpt lat="46.98681" lon="5.91213">
        <ele>508.31</ele>
        <time>2026-01-18T14:16:02.884Z</time>
      </trkpt>
      <trkpt lat="46.9868" lon="5.91229">
        <ele>510.09</ele>
        <time>2026-01-18T14:16:08.844Z</time>
      </trkpt>
      <trkpt lat="46.9869" lon="5.91235">
        <ele>509.89</ele>
        <time>2026-01-18T14:16:36.538Z</time>
      </trkpt>
      <trkpt lat="46.98703" lon="5.91252">
        <ele>510.21</ele>
        <time>2026-01-18T14:16:41.733Z</time>
      </trkpt>
      <trkpt lat="46.98708" lon="5.91263">
        <ele>509.84</ele>
        <time>2026-01-18T14:16:48.767Z</time>
      </trkpt>
      <trkpt lat="46.98712" lon="5.91274">
        <ele>508.91</ele>
        <time>2026-01-18T14:16:59.589Z</time>
      </trkpt>
      <trkpt lat="46.98722" lon="5.91281">
        <ele>508.81</ele>
        <time>2026-01-18T14:17:24.817Z</time>
      </trkpt>
      <trkpt lat="46.98731" lon="5.91279">
        <ele>506.94</ele>
        <time>2026-01-18T14:17:34.820Z</time>
      </trkpt>
      <trkpt lat="46.98724" lon="5.91271">
        <ele>504.71</ele>
        <time>2026-01-18T14:18:01.255Z</time>
      </trkpt>
      <trkpt lat="46.98712" lon="5.91256">
        <ele>505.19</ele>
        <time>2026-01-18T14:18:25.344Z</time>
      </trkpt>
      <trkpt lat="46.987" lon="5.91247">
        <ele>505.68</ele>
        <time>2026-01-18T14:18:30.819Z</time>
      </trkpt>
      <trkpt lat="46.98691" lon="5.9123">
        <ele>505.13</ele>
        <time>2026-01-18T14:18:36.817Z</time>
      </trkpt>
      <trkpt lat="46.98705" lon="5.91244">
        <ele>508.39</ele>
        <time>2026-01-18T14:18:48.817Z</time>
      </trkpt>
      <trkpt lat="46.98695" lon="5.91242">
        <ele>502.66</ele>
        <time>2026-01-18T14:19:20.847Z</time>
      </trkpt>
      <trkpt lat="46.98704" lon="5.91237">
        <ele>501.46</ele>
        <time>2026-01-18T14:19:46.809Z</time>
      </trkpt>
      <trkpt lat="46.98708" lon="5.91249">
        <ele>502.56</ele>
        <time>2026-01-18T14:20:12.167Z</time>
      </trkpt>
      <trkpt lat="46.98717" lon="5.9126">
        <ele>504.84</ele>
        <time>2026-01-18T14:20:38.856Z</time>
      </trkpt>
      <trkpt lat="46.98711" lon="5.9127">
        <ele>507.71</ele>
        <time>2026-01-18T14:21:57.207Z</time>
      </trkpt>
      <trkpt lat="46.98705" lon="5.91282">
        <ele>507.42</ele>
        <time>2026-01-18T14:22:02.672Z</time>
      </trkpt>
      <trkpt lat="46.98704" lon="5.91298">
        <ele>506.17</ele>
        <time>2026-01-18T14:22:12.840Z</time>
      </trkpt>
      <trkpt lat="46.98702" lon="5.91312">
        <ele>504.72</ele>
        <time>2026-01-18T14:22:23.829Z</time>
      </trkpt>
      <trkpt lat="46.98701" lon="5.91326">
        <ele>502.51</ele>
        <time>2026-01-18T14:22:38.730Z</time>
      </trkpt>
      <trkpt lat="46.98701" lon="5.91342">
        <ele>500.68</ele>
        <time>2026-01-18T14:22:43.923Z</time>
      </trkpt>
      <trkpt lat="46.98705" lon="5.91355">
        <ele>498.61</ele>
        <time>2026-01-18T14:22:50.285Z</time>
      </trkpt>
      <trkpt lat="46.98708" lon="5.91369">
        <ele>495.02</ele>
        <time>2026-01-18T14:23:01.148Z</time>
      </trkpt>
      <trkpt lat="46.98706" lon="5.91383">
        <ele>494.91</ele>
        <time>2026-01-18T14:23:06.170Z</time>
      </trkpt>
      <trkpt lat="46.98695" lon="5.91404">
        <ele>492.46</ele>
        <time>2026-01-18T14:24:15.818Z</time>
      </trkpt>
      <trkpt lat="46.98699" lon="5.91416">
        <ele>492.11</ele>
        <time>2026-01-18T14:24:31.801Z</time>
      </trkpt>
      <trkpt lat="46.98708" lon="5.9141">
        <ele>491.31</ele>
        <time>2026-01-18T14:24:40.827Z</time>
      </trkpt>
      <trkpt lat="46.98715" lon="5.91401">
        <ele>489.61</ele>
        <time>2026-01-18T14:25:12.821Z</time>
      </trkpt>
      <trkpt lat="46.9872" lon="5.91413">
        <ele>489.91</ele>
        <time>2026-01-18T14:25:21.816Z</time>
      </trkpt>
      <trkpt lat="46.98715" lon="5.91402">
        <ele>488.31</ele>
        <time>2026-01-18T14:25:42.819Z</time>
      </trkpt>
      <trkpt lat="46.98715" lon="5.91388">
        <ele>488.57</ele>
        <time>2026-01-18T14:25:48.820Z</time>
      </trkpt>
      <trkpt lat="46.98717" lon="5.91402">
        <ele>487.83</ele>
        <time>2026-01-18T14:26:05.821Z</time>
      </trkpt>
      <trkpt lat="46.98721" lon="5.91421">
        <ele>485.16</ele>
        <time>2026-01-18T14:26:17.572Z</time>
      </trkpt>
      <trkpt lat="46.98729" lon="5.91436">
        <ele>482.87</ele>
        <time>2026-01-18T14:26:29.652Z</time>
      </trkpt>
      <trkpt lat="46.98735" lon="5.91446">
        <ele>481.58</ele>
        <time>2026-01-18T14:26:42.822Z</time>
      </trkpt>
      <trkpt lat="46.98747" lon="5.91463">
        <ele>479.21</ele>
        <time>2026-01-18T14:26:57.821Z</time>
      </trkpt>
      <trkpt lat="46.98748" lon="5.91478">
        <ele>477.43</ele>
        <time>2026-01-18T14:27:07.167Z</time>
      </trkpt>
      <trkpt lat="46.98751" lon="5.91491">
        <ele>475.26</ele>
        <time>2026-01-18T14:27:24.825Z</time>
      </trkpt>
      <trkpt lat="46.98747" lon="5.91504">
        <ele>474.59</ele>
        <time>2026-01-18T14:27:34.305Z</time>
      </trkpt>
      <trkpt lat="46.98746" lon="5.9153">
        <ele>474.76</ele>
        <time>2026-01-18T14:27:51.667Z</time>
      </trkpt>
      <trkpt lat="46.98737" lon="5.91535">
        <ele>473.43</ele>
        <time>2026-01-18T14:28:02.882Z</time>
      </trkpt>
      <trkpt lat="46.98739" lon="5.91557">
        <ele>472.56</ele>
        <time>2026-01-18T14:28:18.476Z</time>
      </trkpt>
      <trkpt lat="46.98732" lon="5.91587">
        <ele>470.36</ele>
        <time>2026-01-18T14:28:48.773Z</time>
      </trkpt>
      <trkpt lat="46.98727" lon="5.91609">
        <ele>467.51</ele>
        <time>2026-01-18T14:29:04.817Z</time>
      </trkpt>
      <trkpt lat="46.98723" lon="5.91627">
        <ele>465.52</ele>
        <time>2026-01-18T14:29:20.791Z</time>
      </trkpt>
      <trkpt lat="46.9872" lon="5.9164">
        <ele>459.19</ele>
        <time>2026-01-18T14:29:58.817Z</time>
      </trkpt>
      <trkpt lat="46.98713" lon="5.91652">
        <ele>454.71</ele>
        <time>2026-01-18T14:30:46.272Z</time>
      </trkpt>
      <trkpt lat="46.98707" lon="5.91664">
        <ele>455.02</ele>
        <time>2026-01-18T14:30:51.789Z</time>
      </trkpt>
      <trkpt lat="46.987" lon="5.91686">
        <ele>453.08</ele>
        <time>2026-01-18T14:31:13.430Z</time>
      </trkpt>
      <trkpt lat="46.98698" lon="5.91699">
        <ele>451.66</ele>
        <time>2026-01-18T14:31:18.544Z</time>
      </trkpt>
      <trkpt lat="46.98701" lon="5.91712">
        <ele>450.35</ele>
        <time>2026-01-18T14:31:31.817Z</time>
      </trkpt>
      <trkpt lat="46.98708" lon="5.91736">
        <ele>447.05</ele>
        <time>2026-01-18T14:31:46.823Z</time>
      </trkpt>
      <trkpt lat="46.98708" lon="5.91754">
        <ele>443.83</ele>
        <time>2026-01-18T14:31:58.822Z</time>
      </trkpt>
      <trkpt lat="46.9871" lon="5.91775">
        <ele>440.07</ele>
        <time>2026-01-18T14:32:21.820Z</time>
      </trkpt>
      <trkpt lat="46.98707" lon="5.91795">
        <ele>439.21</ele>
        <time>2026-01-18T14:32:39.627Z</time>
      </trkpt>
      <trkpt lat="46.98704" lon="5.91809">
        <ele>438.71</ele>
        <time>2026-01-18T14:32:52.348Z</time>
      </trkpt>
      <trkpt lat="46.98702" lon="5.91822">
        <ele>438.7</ele>
        <time>2026-01-18T14:33:10.818Z</time>
      </trkpt>
      <trkpt lat="46.987" lon="5.91837">
        <ele>439</ele>
        <time>2026-01-18T14:33:17.575Z</time>
      </trkpt>
      <trkpt lat="46.98694" lon="5.91855">
        <ele>438.9</ele>
        <time>2026-01-18T14:33:31.585Z</time>
      </trkpt>
      <trkpt lat="46.98687" lon="5.91867">
        <ele>436.88</ele>
        <time>2026-01-18T14:33:39.819Z</time>
      </trkpt>
      <trkpt lat="46.9868" lon="5.91877">
        <ele>434.01</ele>
        <time>2026-01-18T14:34:00.292Z</time>
      </trkpt>
      <trkpt lat="46.98674" lon="5.91888">
        <ele>430.62</ele>
        <time>2026-01-18T14:34:11.820Z</time>
      </trkpt>
      <trkpt lat="46.9867" lon="5.919">
        <ele>426.49</ele>
        <time>2026-01-18T14:34:18.825Z</time>
      </trkpt>
      <trkpt lat="46.98664" lon="5.91912">
        <ele>425.09</ele>
        <time>2026-01-18T14:34:24.813Z</time>
      </trkpt>
      <trkpt lat="46.9866" lon="5.91924">
        <ele>425.12</ele>
        <time>2026-01-18T14:35:00.808Z</time>
      </trkpt>
      <trkpt lat="46.98664" lon="5.91936">
        <ele>422.81</ele>
        <time>2026-01-18T14:35:18.787Z</time>
      </trkpt>
      <trkpt lat="46.98673" lon="5.91953">
        <ele>420.55</ele>
        <time>2026-01-18T14:35:24.091Z</time>
      </trkpt>
      <trkpt lat="46.98676" lon="5.91965">
        <ele>419.77</ele>
        <time>2026-01-18T14:35:36.311Z</time>
      </trkpt>
      <trkpt lat="46.98672" lon="5.91979">
        <ele>418.6</ele>
        <time>2026-01-18T14:35:51.652Z</time>
      </trkpt>
      <trkpt lat="46.98666" lon="5.91989">
        <ele>416.9</ele>
        <time>2026-01-18T14:36:09.544Z</time>
      </trkpt>
      <trkpt lat="46.98663" lon="5.92008">
        <ele>415.89</ele>
        <time>2026-01-18T14:36:14.864Z</time>
      </trkpt>
      <trkpt lat="46.98654" lon="5.92015">
        <ele>414.27</ele>
        <time>2026-01-18T14:36:30.820Z</time>
      </trkpt>
      <trkpt lat="46.98646" lon="5.92023">
        <ele>412.4</ele>
        <time>2026-01-18T14:36:58.713Z</time>
      </trkpt>
      <trkpt lat="46.9864" lon="5.9204">
        <ele>410.82</ele>
        <time>2026-01-18T14:37:07.820Z</time>
      </trkpt>
      <trkpt lat="46.9863" lon="5.92058">
        <ele>408.63</ele>
        <time>2026-01-18T14:37:12.825Z</time>
      </trkpt>
      <trkpt lat="46.98618" lon="5.92073">
        <ele>407.19</ele>
        <time>2026-01-18T14:38:21.085Z</time>
      </trkpt>
      <trkpt lat="46.98611" lon="5.92082">
        <ele>407.68</ele>
        <time>2026-01-18T14:38:28.828Z</time>
      </trkpt>
      <trkpt lat="46.98602" lon="5.92086">
        <ele>407.89</ele>
        <time>2026-01-18T14:38:40.814Z</time>
      </trkpt>
      <trkpt lat="46.98592" lon="5.92086">
        <ele>407.79</ele>
        <time>2026-01-18T14:39:01.089Z</time>
      </trkpt>
      <trkpt lat="46.98582" lon="5.92099">
        <ele>406.6</ele>
        <time>2026-01-18T14:39:13.818Z</time>
      </trkpt>
      <trkpt lat="46.98577" lon="5.9211">
        <ele>406.1</ele>
        <time>2026-01-18T14:39:19.823Z</time>
      </trkpt>
      <trkpt lat="46.9858" lon="5.92123">
        <ele>407.43</ele>
        <time>2026-01-18T14:39:34.824Z</time>
      </trkpt>
      <trkpt lat="46.98574" lon="5.92135">
        <ele>407.71</ele>
        <time>2026-01-18T14:39:56.883Z</time>
      </trkpt>
      <trkpt lat="46.98565" lon="5.92141">
        <ele>407.4</ele>
        <time>2026-01-18T14:40:02.403Z</time>
      </trkpt>
      <trkpt lat="46.98558" lon="5.92149">
        <ele>406.79</ele>
        <time>2026-01-18T14:40:26.644Z</time>
      </trkpt>
      <trkpt lat="46.98558" lon="5.92164">
        <ele>404.89</ele>
        <time>2026-01-18T14:40:50.412Z</time>
      </trkpt>
      <trkpt lat="46.98565" lon="5.92173">
        <ele>402.49</ele>
        <time>2026-01-18T14:41:11.579Z</time>
      </trkpt>
      <trkpt lat="46.98575" lon="5.92181">
        <ele>402.29</ele>
        <time>2026-01-18T14:41:21.826Z</time>
      </trkpt>
      <trkpt lat="46.98581" lon="5.9219">
        <ele>401.54</ele>
        <time>2026-01-18T14:41:26.887Z</time>
      </trkpt>
      <trkpt lat="46.98574" lon="5.92197">
        <ele>398.4</ele>
        <time>2026-01-18T14:41:51.842Z</time>
      </trkpt>
      <trkpt lat="46.98576" lon="5.92211">
        <ele>393.22</ele>
        <time>2026-01-18T14:42:14.349Z</time>
      </trkpt>
      <trkpt lat="46.98572" lon="5.92226">
        <ele>386.55</ele>
        <time>2026-01-18T14:42:28.818Z</time>
      </trkpt>
      <trkpt lat="46.98568" lon="5.92238">
        <ele>385.99</ele>
        <time>2026-01-18T14:42:38.150Z</time>
      </trkpt>
      <trkpt lat="46.9856" lon="5.92246">
        <ele>386.16</ele>
        <time>2026-01-18T14:42:49.540Z</time>
      </trkpt>
      <trkpt lat="46.98554" lon="5.92272">
        <ele>384.79</ele>
        <time>2026-01-18T14:42:54.826Z</time>
      </trkpt>
      <trkpt lat="46.98564" lon="5.92275">
        <ele>384.19</ele>
        <time>2026-01-18T14:43:00.365Z</time>
      </trkpt>
      <trkpt lat="46.98556" lon="5.92262">
        <ele>382.99</ele>
        <time>2026-01-18T14:43:20.671Z</time>
      </trkpt>
      <trkpt lat="46.98553" lon="5.92276">
        <ele>382</ele>
        <time>2026-01-18T14:43:33.906Z</time>
      </trkpt>
      <trkpt lat="46.9855" lon="5.9229">
        <ele>381.81</ele>
        <time>2026-01-18T14:43:41.576Z</time>
      </trkpt>
      <trkpt lat="46.98546" lon="5.92301">
        <ele>381.3</ele>
        <time>2026-01-18T14:43:50.853Z</time>
      </trkpt>
      <trkpt lat="46.98537" lon="5.92313">
        <ele>380.8</ele>
        <time>2026-01-18T14:44:06.566Z</time>
      </trkpt>
      <trkpt lat="46.98525" lon="5.9233">
        <ele>380.16</ele>
        <time>2026-01-18T14:44:12.810Z</time>
      </trkpt>
      <trkpt lat="46.98514" lon="5.92345">
        <ele>379.18</ele>
        <time>2026-01-18T14:44:27.813Z</time>
      </trkpt>
      <trkpt lat="46.98507" lon="5.92356">
        <ele>378.96</ele>
        <time>2026-01-18T14:44:32.868Z</time>
      </trkpt>
      <trkpt lat="46.98504" lon="5.92368">
        <ele>377.35</ele>
        <time>2026-01-18T14:44:39.809Z</time>
      </trkpt>
      <trkpt lat="46.98502" lon="5.92384">
        <ele>373.13</ele>
        <time>2026-01-18T14:44:56.874Z</time>
      </trkpt>
      <trkpt lat="46.98498" lon="5.92404">
        <ele>372.89</ele>
        <time>2026-01-18T14:45:09.594Z</time>
      </trkpt>
      <trkpt lat="46.98497" lon="5.92418">
        <ele>372.58</ele>
        <time>2026-01-18T14:45:15.050Z</time>
      </trkpt>
      <trkpt lat="46.98503" lon="5.92429">
        <ele>372.83</ele>
        <time>2026-01-18T14:45:23.042Z</time>
      </trkpt>
      <trkpt lat="46.98512" lon="5.92427">
        <ele>372.12</ele>
        <time>2026-01-18T14:46:07.814Z</time>
      </trkpt>
      <trkpt lat="46.98517" lon="5.92439">
        <ele>369.86</ele>
        <time>2026-01-18T14:46:23.704Z</time>
      </trkpt>
      <trkpt lat="46.98515" lon="5.92416">
        <ele>374.43</ele>
        <time>2026-01-18T14:46:39.811Z</time>
      </trkpt>
      <trkpt lat="46.98517" lon="5.92436">
        <ele>372.66</ele>
        <time>2026-01-18T14:47:41.817Z</time>
      </trkpt>
      <trkpt lat="46.98531" lon="5.92445">
        <ele>372.61</ele>
        <time>2026-01-18T14:48:27.341Z</time>
      </trkpt>
      <trkpt lat="46.98545" lon="5.92446">
        <ele>372.37</ele>
        <time>2026-01-18T14:48:48.823Z</time>
      </trkpt>
      <trkpt lat="46.98558" lon="5.92437">
        <ele>372.19</ele>
        <time>2026-01-18T14:48:54.822Z</time>
      </trkpt>
      <trkpt lat="46.98568" lon="5.92435">
        <ele>372.89</ele>
        <time>2026-01-18T14:49:25.505Z</time>
      </trkpt>
      <trkpt lat="46.98585" lon="5.92418">
        <ele>373.29</ele>
        <time>2026-01-18T14:49:30.722Z</time>
      </trkpt>
      <trkpt lat="46.98593" lon="5.92411">
        <ele>374.48</ele>
        <time>2026-01-18T14:49:35.819Z</time>
      </trkpt>
      <trkpt lat="46.98587" lon="5.924">
        <ele>375.49</ele>
        <time>2026-01-18T14:50:00.830Z</time>
      </trkpt>
      <trkpt lat="46.98587" lon="5.92386">
        <ele>372.79</ele>
        <time>2026-01-18T14:50:41.819Z</time>
      </trkpt>
      <trkpt lat="46.98567" lon="5.92389">
        <ele>371.86</ele>
        <time>2026-01-18T14:50:57.742Z</time>
      </trkpt>
      <trkpt lat="46.98553" lon="5.92395">
        <ele>369.21</ele>
        <time>2026-01-18T14:51:29.823Z</time>
      </trkpt>
      <trkpt lat="46.98541" lon="5.9239">
        <ele>369.29</ele>
        <time>2026-01-18T14:51:35.562Z</time>
      </trkpt>
      <trkpt lat="46.98531" lon="5.92391">
        <ele>371.28</ele>
        <time>2026-01-18T14:51:51.577Z</time>
      </trkpt>
      <trkpt lat="46.98526" lon="5.92405">
        <ele>368.51</ele>
        <time>2026-01-18T14:52:29.815Z</time>
      </trkpt>
      <trkpt lat="46.98536" lon="5.92401">
        <ele>375.94</ele>
        <time>2026-01-18T14:53:03.823Z</time>
      </trkpt>
      <trkpt lat="46.98529" lon="5.9241">
        <ele>375.29</ele>
        <time>2026-01-18T14:53:08.862Z</time>
      </trkpt>
      <trkpt lat="46.98532" lon="5.92423">
        <ele>375.36</ele>
        <time>2026-01-18T14:53:36.814Z</time>
      </trkpt>
      <trkpt lat="46.98528" lon="5.92409">
        <ele>376.88</ele>
        <time>2026-01-18T14:54:08.855Z</time>
      </trkpt>
      <trkpt lat="46.98538" lon="5.92408">
        <ele>379.04</ele>
        <time>2026-01-18T14:54:40.842Z</time>
      </trkpt>
      <trkpt lat="46.98548" lon="5.92409">
        <ele>373.67</ele>
        <time>2026-01-18T14:54:47.820Z</time>
      </trkpt>
      <trkpt lat="46.98556" lon="5.92401">
        <ele>370.16</ele>
        <time>2026-01-18T14:55:15.846Z</time>
      </trkpt>
      <trkpt lat="46.98566" lon="5.924">
        <ele>379.39</ele>
        <time>2026-01-18T14:55:25.817Z</time>
      </trkpt>
      <trkpt lat="46.98573" lon="5.92392">
        <ele>376.49</ele>
        <time>2026-01-18T14:56:10.306Z</time>
      </trkpt>
      <trkpt lat="46.98575" lon="5.92379">
        <ele>374.79</ele>
        <time>2026-01-18T14:56:20.361Z</time>
      </trkpt>
      <trkpt lat="46.98584" lon="5.9238">
        <ele>374.39</ele>
        <time>2026-01-18T14:56:37.788Z</time>
      </trkpt>
      <trkpt lat="46.98586" lon="5.92395">
        <ele>374.79</ele>
        <time>2026-01-18T14:56:57.816Z</time>
      </trkpt>
      <trkpt lat="46.98586" lon="5.92409">
        <ele>373.19</ele>
        <time>2026-01-18T14:57:29.598Z</time>
      </trkpt>
      <trkpt lat="46.98577" lon="5.92417">
        <ele>376.88</ele>
        <time>2026-01-18T14:57:34.818Z</time>
      </trkpt>
      <trkpt lat="46.98569" lon="5.92426">
        <ele>376.29</ele>
        <time>2026-01-18T14:57:40.818Z</time>
      </trkpt>
      <trkpt lat="46.98554" lon="5.92431">
        <ele>376.78</ele>
        <time>2026-01-18T14:57:57.564Z</time>
      </trkpt>
      <trkpt lat="46.98546" lon="5.92437">
        <ele>376.29</ele>
        <time>2026-01-18T14:58:02.877Z</time>
      </trkpt>
      <trkpt lat="46.98532" lon="5.92438">
        <ele>375.18</ele>
        <time>2026-01-18T14:58:35.813Z</time>
      </trkpt>
      <trkpt lat="46.98523" lon="5.92441">
        <ele>378.18</ele>
        <time>2026-01-18T14:59:12.815Z</time>
      </trkpt>
      <trkpt lat="46.98513" lon="5.9244">
        <ele>379.21</ele>
        <time>2026-01-18T14:59:19.817Z</time>
      </trkpt>
      <trkpt lat="46.98502" lon="5.92425">
        <ele>382.17</ele>
        <time>2026-01-18T14:59:35.824Z</time>
      </trkpt>
      <trkpt lat="46.98502" lon="5.9241">
        <ele>374.04</ele>
        <time>2026-01-18T15:00:49.406Z</time>
      </trkpt>
      <trkpt lat="46.98502" lon="5.9239">
        <ele>372.29</ele>
        <time>2026-01-18T15:01:10.064Z</time>
      </trkpt>
      <trkpt lat="46.98508" lon="5.92379">
        <ele>372.1</ele>
        <time>2026-01-18T15:01:15.903Z</time>
      </trkpt>
      <trkpt lat="46.98513" lon="5.92361">
        <ele>371.91</ele>
        <time>2026-01-18T15:01:32.980Z</time>
      </trkpt>
      <trkpt lat="46.98517" lon="5.92348">
        <ele>370.84</ele>
        <time>2026-01-18T15:01:49.730Z</time>
      </trkpt>
      <trkpt lat="46.98528" lon="5.92327">
        <ele>369.27</ele>
        <time>2026-01-18T15:01:54.819Z</time>
      </trkpt>
      <trkpt lat="46.98535" lon="5.9232">
        <ele>365.26</ele>
        <time>2026-01-18T15:02:35.813Z</time>
      </trkpt>
      <trkpt lat="46.98542" lon="5.9231">
        <ele>364.91</ele>
        <time>2026-01-18T15:02:44.864Z</time>
      </trkpt>
      <trkpt lat="46.9855" lon="5.92294">
        <ele>365.66</ele>
        <time>2026-01-18T15:02:59.820Z</time>
      </trkpt>
      <trkpt lat="46.98558" lon="5.92283">
        <ele>366.8</ele>
        <time>2026-01-18T15:04:58.815Z</time>
      </trkpt>
      <trkpt lat="46.98566" lon="5.92276">
        <ele>366.57</ele>
        <time>2026-01-18T15:05:04.835Z</time>
      </trkpt>
      <trkpt lat="46.98571" lon="5.92259">
        <ele>367.01</ele>
        <time>2026-01-18T15:05:18.825Z</time>
      </trkpt>
      <trkpt lat="46.98577" lon="5.92241">
        <ele>370.32</ele>
        <time>2026-01-18T15:05:23.825Z</time>
      </trkpt>
      <trkpt lat="46.98578" lon="5.92228">
        <ele>372.21</ele>
        <time>2026-01-18T15:05:38.865Z</time>
      </trkpt>
      <trkpt lat="46.98574" lon="5.92213">
        <ele>371.22</ele>
        <time>2026-01-18T15:05:46.000Z</time>
      </trkpt>
      <trkpt lat="46.98573" lon="5.92194">
        <ele>368.83</ele>
        <time>2026-01-18T15:05:58.404Z</time>
      </trkpt>
      <trkpt lat="46.98579" lon="5.92177">
        <ele>368.74</ele>
        <time>2026-01-18T15:06:03.579Z</time>
      </trkpt>
      <trkpt lat="46.98587" lon="5.92166">
        <ele>375.74</ele>
        <time>2026-01-18T15:06:14.855Z</time>
      </trkpt>
      <trkpt lat="46.98596" lon="5.92156">
        <ele>375.59</ele>
        <time>2026-01-18T15:06:34.819Z</time>
      </trkpt>
      <trkpt lat="46.98607" lon="5.92151">
        <ele>375.21</ele>
        <time>2026-01-18T15:06:40.817Z</time>
      </trkpt>
      <trkpt lat="46.98625" lon="5.92147">
        <ele>377.17</ele>
        <time>2026-01-18T15:07:02.880Z</time>
      </trkpt>
      <trkpt lat="46.98635" lon="5.92144">
        <ele>377.89</ele>
        <time>2026-01-18T15:07:08.379Z</time>
      </trkpt>
      <trkpt lat="46.98645" lon="5.92143">
        <ele>378.59</ele>
        <time>2026-01-18T15:07:18.326Z</time>
      </trkpt>
      <trkpt lat="46.98664" lon="5.92138">
        <ele>379.99</ele>
        <time>2026-01-18T15:07:44.587Z</time>
      </trkpt>
      <trkpt lat="46.98678" lon="5.92135">
        <ele>381.74</ele>
        <time>2026-01-18T15:07:59.964Z</time>
      </trkpt>
      <trkpt lat="46.9869" lon="5.92126">
        <ele>382.89</ele>
        <time>2026-01-18T15:08:14.279Z</time>
      </trkpt>
      <trkpt lat="46.987" lon="5.9212">
        <ele>383.12</ele>
        <time>2026-01-18T15:08:20.359Z</time>
      </trkpt>
      <trkpt lat="46.98711" lon="5.92115">
        <ele>383.79</ele>
        <time>2026-01-18T15:08:25.825Z</time>
      </trkpt>
      <trkpt lat="46.9872" lon="5.9211">
        <ele>383.92</ele>
        <time>2026-01-18T15:08:36.185Z</time>
      </trkpt>
      <trkpt lat="46.98731" lon="5.92105">
        <ele>384.27</ele>
        <time>2026-01-18T15:08:46.814Z</time>
      </trkpt>
      <trkpt lat="46.98746" lon="5.92099">
        <ele>385.02</ele>
        <time>2026-01-18T15:08:59.279Z</time>
      </trkpt>
      <trkpt lat="46.98762" lon="5.92088">
        <ele>384.82</ele>
        <time>2026-01-18T15:09:06.305Z</time>
      </trkpt>
      <trkpt lat="46.98777" lon="5.92085">
        <ele>386.05</ele>
        <time>2026-01-18T15:09:23.008Z</time>
      </trkpt>
      <trkpt lat="46.98789" lon="5.92079">
        <ele>385.9</ele>
        <time>2026-01-18T15:09:39.263Z</time>
      </trkpt>
      <trkpt lat="46.98804" lon="5.92071">
        <ele>386.85</ele>
        <time>2026-01-18T15:09:48.706Z</time>
      </trkpt>
      <trkpt lat="46.98814" lon="5.92067">
        <ele>388.24</ele>
        <time>2026-01-18T15:09:57.243Z</time>
      </trkpt>
      <trkpt lat="46.98825" lon="5.92063">
        <ele>390.48</ele>
        <time>2026-01-18T15:10:08.856Z</time>
      </trkpt>
      <trkpt lat="46.98833" lon="5.92056">
        <ele>389.7</ele>
        <time>2026-01-18T15:10:55.642Z</time>
      </trkpt>
      <trkpt lat="46.98844" lon="5.92048">
        <ele>390.25</ele>
        <time>2026-01-18T15:11:00.817Z</time>
      </trkpt>
      <trkpt lat="46.98854" lon="5.92043">
        <ele>390.7</ele>
        <time>2026-01-18T15:11:21.363Z</time>
      </trkpt>
      <trkpt lat="46.98867" lon="5.92041">
        <ele>390.98</ele>
        <time>2026-01-18T15:11:30.820Z</time>
      </trkpt>
      <trkpt lat="46.98882" lon="5.92039">
        <ele>391.34</ele>
        <time>2026-01-18T15:11:35.826Z</time>
      </trkpt>
      <trkpt lat="46.98894" lon="5.92037">
        <ele>391.6</ele>
        <time>2026-01-18T15:11:40.965Z</time>
      </trkpt>
      <trkpt lat="46.98904" lon="5.92033">
        <ele>393.52</ele>
        <time>2026-01-18T15:11:46.683Z</time>
      </trkpt>
      <trkpt lat="46.98915" lon="5.9203">
        <ele>394.14</ele>
        <time>2026-01-18T15:12:00.249Z</time>
      </trkpt>
      <trkpt lat="46.98925" lon="5.92021">
        <ele>396.25</ele>
        <time>2026-01-18T15:12:10.442Z</time>
      </trkpt>
      <trkpt lat="46.98933" lon="5.92012">
        <ele>397.88</ele>
        <time>2026-01-18T15:12:15.746Z</time>
      </trkpt>
      <trkpt lat="46.98938" lon="5.92001">
        <ele>400.1</ele>
        <time>2026-01-18T15:12:23.799Z</time>
      </trkpt>
      <trkpt lat="46.98932" lon="5.9199">
        <ele>399.98</ele>
        <time>2026-01-18T15:12:37.822Z</time>
      </trkpt>
      <trkpt lat="46.98923" lon="5.91979">
        <ele>400.42</ele>
        <time>2026-01-18T15:12:42.822Z</time>
      </trkpt>
      <trkpt lat="46.98915" lon="5.91974">
        <ele>401.93</ele>
        <time>2026-01-18T15:12:59.739Z</time>
      </trkpt>
      <trkpt lat="46.98896" lon="5.91964">
        <ele>403.72</ele>
        <time>2026-01-18T15:13:05.206Z</time>
      </trkpt>
      <trkpt lat="46.98883" lon="5.91956">
        <ele>407.09</ele>
        <time>2026-01-18T15:13:35.824Z</time>
      </trkpt>
      <trkpt lat="46.98874" lon="5.91951">
        <ele>407.44</ele>
        <time>2026-01-18T15:13:45.401Z</time>
      </trkpt>
      <trkpt lat="46.9886" lon="5.91946">
        <ele>409.33</ele>
        <time>2026-01-18T15:13:55.602Z</time>
      </trkpt>
      <trkpt lat="46.98851" lon="5.91941">
        <ele>409.23</ele>
        <time>2026-01-18T15:14:06.823Z</time>
      </trkpt>
      <trkpt lat="46.98842" lon="5.91936">
        <ele>409.23</ele>
        <time>2026-01-18T15:14:20.450Z</time>
      </trkpt>
      <trkpt lat="46.98832" lon="5.91935">
        <ele>409.19</ele>
        <time>2026-01-18T15:14:25.742Z</time>
      </trkpt>
      <trkpt lat="46.98822" lon="5.9194">
        <ele>410.03</ele>
        <time>2026-01-18T15:14:37.462Z</time>
      </trkpt>
      <trkpt lat="46.98811" lon="5.91938">
        <ele>410.24</ele>
        <time>2026-01-18T15:14:43.304Z</time>
      </trkpt>
      <trkpt lat="46.98802" lon="5.91936">
        <ele>407.71</ele>
        <time>2026-01-18T15:14:53.818Z</time>
      </trkpt>
      <trkpt lat="46.98791" lon="5.9194">
        <ele>399.26</ele>
        <time>2026-01-18T15:15:06.825Z</time>
      </trkpt>
      <trkpt lat="46.98782" lon="5.91937">
        <ele>397.2</ele>
        <time>2026-01-18T15:15:19.826Z</time>
      </trkpt>
      <trkpt lat="46.98771" lon="5.91938">
        <ele>398.08</ele>
        <time>2026-01-18T15:15:25.520Z</time>
      </trkpt>
      <trkpt lat="46.98761" lon="5.91936">
        <ele>398.05</ele>
        <time>2026-01-18T15:15:37.823Z</time>
      </trkpt>
      <trkpt lat="46.98749" lon="5.91937">
        <ele>399.14</ele>
        <time>2026-01-18T15:15:42.835Z</time>
      </trkpt>
      <trkpt lat="46.9874" lon="5.91931">
        <ele>401.39</ele>
        <time>2026-01-18T15:15:52.849Z</time>
      </trkpt>
      <trkpt lat="46.98731" lon="5.91931">
        <ele>401.27</ele>
        <time>2026-01-18T15:15:59.814Z</time>
      </trkpt>
      <trkpt lat="46.98721" lon="5.91929">
        <ele>399.74</ele>
        <time>2026-01-18T15:16:08.858Z</time>
      </trkpt>
      <trkpt lat="46.98709" lon="5.91931">
        <ele>401.1</ele>
        <time>2026-01-18T15:16:30.818Z</time>
      </trkpt>
      <trkpt lat="46.987" lon="5.91929">
        <ele>407.31</ele>
        <time>2026-01-18T15:16:37.822Z</time>
      </trkpt>
      <trkpt lat="46.9869" lon="5.91926">
        <ele>409.43</ele>
        <time>2026-01-18T15:16:43.823Z</time>
      </trkpt>
      <trkpt lat="46.98682" lon="5.91919">
        <ele>411.95</ele>
        <time>2026-01-18T15:16:51.360Z</time>
      </trkpt>
      <trkpt lat="46.98673" lon="5.91911">
        <ele>415.39</ele>
        <time>2026-01-18T15:17:01.767Z</time>
      </trkpt>
      <trkpt lat="46.9867" lon="5.91897">
        <ele>415.89</ele>
        <time>2026-01-18T15:17:17.823Z</time>
      </trkpt>
      <trkpt lat="46.98679" lon="5.91884">
        <ele>414.78</ele>
        <time>2026-01-18T15:17:29.239Z</time>
      </trkpt>
      <trkpt lat="46.98685" lon="5.91871">
        <ele>413.56</ele>
        <time>2026-01-18T15:17:44.860Z</time>
      </trkpt>
      <trkpt lat="46.9869" lon="5.91855">
        <ele>413.44</ele>
        <time>2026-01-18T15:17:58.245Z</time>
      </trkpt>
      <trkpt lat="46.98695" lon="5.91836">
        <ele>413.27</ele>
        <time>2026-01-18T15:18:15.639Z</time>
      </trkpt>
      <trkpt lat="46.98696" lon="5.91821">
        <ele>411.8</ele>
        <time>2026-01-18T15:18:41.518Z</time>
      </trkpt>
      <trkpt lat="46.98698" lon="5.91803">
        <ele>414.49</ele>
        <time>2026-01-18T15:18:47.151Z</time>
      </trkpt>
      <trkpt lat="46.98702" lon="5.91788">
        <ele>417.88</ele>
        <time>2026-01-18T15:19:00.564Z</time>
      </trkpt>
      <trkpt lat="46.98712" lon="5.91768">
        <ele>421.48</ele>
        <time>2026-01-18T15:19:14.866Z</time>
      </trkpt>
      <trkpt lat="46.98715" lon="5.91755">
        <ele>425.03</ele>
        <time>2026-01-18T15:19:35.142Z</time>
      </trkpt>
      <trkpt lat="46.98712" lon="5.91737">
        <ele>428.2</ele>
        <time>2026-01-18T15:19:54.397Z</time>
      </trkpt>
      <trkpt lat="46.98709" lon="5.91721">
        <ele>428.67</ele>
        <time>2026-01-18T15:20:09.822Z</time>
      </trkpt>
      <trkpt lat="46.98708" lon="5.91706">
        <ele>428.41</ele>
        <time>2026-01-18T15:20:24.776Z</time>
      </trkpt>
      <trkpt lat="46.98706" lon="5.91688">
        <ele>430.2</ele>
        <time>2026-01-18T15:20:46.817Z</time>
      </trkpt>
      <trkpt lat="46.98708" lon="5.9167">
        <ele>432.13</ele>
        <time>2026-01-18T15:20:56.222Z</time>
      </trkpt>
      <trkpt lat="46.98711" lon="5.91657">
        <ele>432.99</ele>
        <time>2026-01-18T15:21:02.745Z</time>
      </trkpt>
      <trkpt lat="46.98715" lon="5.91644">
        <ele>434.3</ele>
        <time>2026-01-18T15:21:22.815Z</time>
      </trkpt>
      <trkpt lat="46.98714" lon="5.91631">
        <ele>434.5</ele>
        <time>2026-01-18T15:21:48.816Z</time>
      </trkpt>
      <trkpt lat="46.98715" lon="5.91617">
        <ele>435.18</ele>
        <time>2026-01-18T15:22:39.829Z</time>
      </trkpt>
      <trkpt lat="46.98717" lon="5.91603">
        <ele>437.48</ele>
        <time>2026-01-18T15:22:55.561Z</time>
      </trkpt>
      <trkpt lat="46.98722" lon="5.9159">
        <ele>439.36</ele>
        <time>2026-01-18T15:23:24.805Z</time>
      </trkpt>
      <trkpt lat="46.98723" lon="5.91571">
        <ele>441.41</ele>
        <time>2026-01-18T15:23:45.833Z</time>
      </trkpt>
      <trkpt lat="46.98729" lon="5.9156">
        <ele>443.11</ele>
        <time>2026-01-18T15:23:59.833Z</time>
      </trkpt>
      <trkpt lat="46.98736" lon="5.91551">
        <ele>444.81</ele>
        <time>2026-01-18T15:24:10.822Z</time>
      </trkpt>
      <trkpt lat="46.98737" lon="5.91536">
        <ele>446.63</ele>
        <time>2026-01-18T15:25:45.815Z</time>
      </trkpt>
      <trkpt lat="46.98743" lon="5.91509">
        <ele>450.06</ele>
        <time>2026-01-18T15:26:18.085Z</time>
      </trkpt>
      <trkpt lat="46.9875" lon="5.91485">
        <ele>452.71</ele>
        <time>2026-01-18T15:26:29.745Z</time>
      </trkpt>
      <trkpt lat="46.98748" lon="5.9147">
        <ele>455.11</ele>
        <time>2026-01-18T15:27:11.620Z</time>
      </trkpt>
      <trkpt lat="46.98742" lon="5.91451">
        <ele>455.91</ele>
        <time>2026-01-18T15:27:21.605Z</time>
      </trkpt>
      <trkpt lat="46.98735" lon="5.91435">
        <ele>457.76</ele>
        <time>2026-01-18T15:27:36.745Z</time>
      </trkpt>
      <trkpt lat="46.98728" lon="5.91416">
        <ele>458.38</ele>
        <time>2026-01-18T15:27:55.358Z</time>
      </trkpt>
      <trkpt lat="46.98726" lon="5.91401">
        <ele>459.6</ele>
        <time>2026-01-18T15:28:11.785Z</time>
      </trkpt>
      <trkpt lat="46.98723" lon="5.91385">
        <ele>463.2</ele>
        <time>2026-01-18T15:28:27.817Z</time>
      </trkpt>
      <trkpt lat="46.98728" lon="5.91372">
        <ele>465.71</ele>
        <time>2026-01-18T15:28:54.183Z</time>
      </trkpt>
      <trkpt lat="46.98735" lon="5.91361">
        <ele>466.55</ele>
        <time>2026-01-18T15:29:02.879Z</time>
      </trkpt>
      <trkpt lat="46.98741" lon="5.91352">
        <ele>469.81</ele>
        <time>2026-01-18T15:29:32.241Z</time>
      </trkpt>
      <trkpt lat="46.98747" lon="5.91333">
        <ele>469.89</ele>
        <time>2026-01-18T15:30:01.821Z</time>
      </trkpt>
      <trkpt lat="46.98755" lon="5.91328">
        <ele>471.2</ele>
        <time>2026-01-18T15:31:22.861Z</time>
      </trkpt>
      <trkpt lat="46.9876" lon="5.91315">
        <ele>472.83</ele>
        <time>2026-01-18T15:31:32.956Z</time>
      </trkpt>
      <trkpt lat="46.98756" lon="5.91302">
        <ele>474.91</ele>
        <time>2026-01-18T15:31:52.827Z</time>
      </trkpt>
      <trkpt lat="46.98745" lon="5.91296">
        <ele>476.72</ele>
        <time>2026-01-18T15:32:03.680Z</time>
      </trkpt>
      <trkpt lat="46.98738" lon="5.91287">
        <ele>481.46</ele>
        <time>2026-01-18T15:32:08.866Z</time>
      </trkpt>
      <trkpt lat="46.98728" lon="5.91277">
        <ele>485.86</ele>
        <time>2026-01-18T15:32:15.922Z</time>
      </trkpt>
      <trkpt lat="46.98716" lon="5.91265">
        <ele>491.32</ele>
        <time>2026-01-18T15:32:29.827Z</time>
      </trkpt>
      <trkpt lat="46.9871" lon="5.91256">
        <ele>491.51</ele>
        <time>2026-01-18T15:32:36.380Z</time>
      </trkpt>
      <trkpt lat="46.98708" lon="5.91241">
        <ele>493.76</ele>
        <time>2026-01-18T15:32:44.322Z</time>
      </trkpt>
      <trkpt lat="46.98713" lon="5.91223">
        <ele>496.41</ele>
        <time>2026-01-18T15:33:00.807Z</time>
      </trkpt>
      <trkpt lat="46.98719" lon="5.91211">
        <ele>496.74</ele>
        <time>2026-01-18T15:33:08.461Z</time>
      </trkpt>
      <trkpt lat="46.98724" lon="5.91198">
        <ele>497.43</ele>
        <time>2026-01-18T15:33:20.520Z</time>
      </trkpt>
      <trkpt lat="46.98731" lon="5.91181">
        <ele>499.94</ele>
        <time>2026-01-18T15:33:37.822Z</time>
      </trkpt>
      <trkpt lat="46.98742" lon="5.91172">
        <ele>503.4</ele>
        <time>2026-01-18T15:33:55.683Z</time>
      </trkpt>
      <trkpt lat="46.98751" lon="5.91161">
        <ele>505.46</ele>
        <time>2026-01-18T15:34:07.420Z</time>
      </trkpt>
      <trkpt lat="46.98758" lon="5.91152">
        <ele>507.38</ele>
        <time>2026-01-18T15:34:13.829Z</time>
      </trkpt>
      <trkpt lat="46.98769" lon="5.91148">
        <ele>511.7</ele>
        <time>2026-01-18T15:34:31.741Z</time>
      </trkpt>
      <trkpt lat="46.98782" lon="5.91135">
        <ele>511.99</ele>
        <time>2026-01-18T15:34:59.140Z</time>
      </trkpt>
      <trkpt lat="46.98791" lon="5.91129">
        <ele>513.06</ele>
        <time>2026-01-18T15:35:06.816Z</time>
      </trkpt>
      <trkpt lat="46.98803" lon="5.91121">
        <ele>515.27</ele>
        <time>2026-01-18T15:35:20.867Z</time>
      </trkpt>
      <trkpt lat="46.98812" lon="5.91114">
        <ele>517.07</ele>
        <time>2026-01-18T15:35:26.762Z</time>
      </trkpt>
      <trkpt lat="46.98821" lon="5.91109">
        <ele>518.04</ele>
        <time>2026-01-18T15:35:41.822Z</time>
      </trkpt>
      <trkpt lat="46.9883" lon="5.91103">
        <ele>518.37</ele>
        <time>2026-01-18T15:35:47.819Z</time>
      </trkpt>
      <trkpt lat="46.98838" lon="5.91093">
        <ele>518.64</ele>
        <time>2026-01-18T15:35:52.819Z</time>
      </trkpt>
      <trkpt lat="46.98847" lon="5.91086">
        <ele>516.8</ele>
        <time>2026-01-18T15:36:03.481Z</time>
      </trkpt>
      <trkpt lat="46.98854" lon="5.91077">
        <ele>514.52</ele>
        <time>2026-01-18T15:36:13.757Z</time>
      </trkpt>
      <trkpt lat="46.98869" lon="5.91068">
        <ele>516.96</ele>
        <time>2026-01-18T15:36:18.827Z</time>
      </trkpt>
      <trkpt lat="46.98879" lon="5.91061">
        <ele>519.22</ele>
        <time>2026-01-18T15:36:31.816Z</time>
      </trkpt>
      <trkpt lat="46.98883" lon="5.91047">
        <ele>518.29</ele>
        <time>2026-01-18T15:36:36.822Z</time>
      </trkpt>
      <trkpt lat="46.9889" lon="5.91038">
        <ele>520.1</ele>
        <time>2026-01-18T15:36:44.579Z</time>
      </trkpt>
      <trkpt lat="46.98896" lon="5.91028">
        <ele>521</ele>
        <time>2026-01-18T15:36:54.827Z</time>
      </trkpt>
      <trkpt lat="46.98902" lon="5.91018">
        <ele>521.64</ele>
        <time>2026-01-18T15:37:01.185Z</time>
      </trkpt>
      <trkpt lat="46.98909" lon="5.91007">
        <ele>519.35</ele>
        <time>2026-01-18T15:37:10.561Z</time>
      </trkpt>
      <trkpt lat="46.9892" lon="5.90994">
        <ele>519.97</ele>
        <time>2026-01-18T15:37:28.285Z</time>
      </trkpt>
      <trkpt lat="46.98928" lon="5.90983">
        <ele>518.97</ele>
        <time>2026-01-18T15:37:34.425Z</time>
      </trkpt>
      <trkpt lat="46.98936" lon="5.90975">
        <ele>519.66</ele>
        <time>2026-01-18T15:37:40.605Z</time>
      </trkpt>
      <trkpt lat="46.98944" lon="5.90966">
        <ele>520.06</ele>
        <time>2026-01-18T15:37:51.816Z</time>
      </trkpt>
      <trkpt lat="46.98951" lon="5.90956">
        <ele>517.98</ele>
        <time>2026-01-18T15:37:58.422Z</time>
      </trkpt>
      <trkpt lat="46.98958" lon="5.90949">
        <ele>516.03</ele>
        <time>2026-01-18T15:38:04.823Z</time>
      </trkpt>
      <trkpt lat="46.98967" lon="5.90939">
        <ele>515.56</ele>
        <time>2026-01-18T15:38:11.780Z</time>
      </trkpt>
      <trkpt lat="46.98976" lon="5.90932">
        <ele>512.98</ele>
        <time>2026-01-18T15:38:27.813Z</time>
      </trkpt>
      <trkpt lat="46.98984" lon="5.90923">
        <ele>512.29</ele>
        <time>2026-01-18T15:38:33.583Z</time>
      </trkpt>
      <trkpt lat="46.98993" lon="5.90915">
        <ele>513.6</ele>
        <time>2026-01-18T15:38:39.848Z</time>
      </trkpt>
      <trkpt lat="46.99" lon="5.90904">
        <ele>512.5</ele>
        <time>2026-01-18T15:38:57.817Z</time>
      </trkpt>
      <trkpt lat="46.99008" lon="5.90894">
        <ele>510.43</ele>
        <time>2026-01-18T15:39:13.817Z</time>
      </trkpt>
      <trkpt lat="46.99017" lon="5.90888">
        <ele>509.42</ele>
        <time>2026-01-18T15:39:24.402Z</time>
      </trkpt>
      <trkpt lat="46.99024" lon="5.9088">
        <ele>508.45</ele>
        <time>2026-01-18T15:39:32.947Z</time>
      </trkpt>
      <trkpt lat="46.99035" lon="5.90873">
        <ele>507.99</ele>
        <time>2026-01-18T15:39:38.884Z</time>
      </trkpt>
      <trkpt lat="46.99042" lon="5.90864">
        <ele>504.23</ele>
        <time>2026-01-18T15:39:52.818Z</time>
      </trkpt>
      <trkpt lat="46.99046" lon="5.9085">
        <ele>502.41</ele>
        <time>2026-01-18T15:40:00.834Z</time>
      </trkpt>
      <trkpt lat="46.99049" lon="5.90838">
        <ele>502.37</ele>
        <time>2026-01-18T15:40:21.813Z</time>
      </trkpt>
      <trkpt lat="46.99053" lon="5.90826">
        <ele>502.45</ele>
        <time>2026-01-18T15:40:27.815Z</time>
      </trkpt>
      <trkpt lat="46.99057" lon="5.90812">
        <ele>502.04</ele>
        <time>2026-01-18T15:40:33.822Z</time>
      </trkpt>
      <trkpt lat="46.99064" lon="5.90801">
        <ele>499.41</ele>
        <time>2026-01-18T15:40:39.819Z</time>
      </trkpt>
      <trkpt lat="46.99066" lon="5.90785">
        <ele>498.6</ele>
        <time>2026-01-18T15:40:47.478Z</time>
      </trkpt>
      <trkpt lat="46.9907" lon="5.9077">
        <ele>496.79</ele>
        <time>2026-01-18T15:41:02.667Z</time>
      </trkpt>
      <trkpt lat="46.99073" lon="5.90752">
        <ele>495.61</ele>
        <time>2026-01-18T15:41:13.698Z</time>
      </trkpt>
      <trkpt lat="46.99075" lon="5.90735">
        <ele>495.41</ele>
        <time>2026-01-18T15:41:18.829Z</time>
      </trkpt>
      <trkpt lat="46.99082" lon="5.90723">
        <ele>495.47</ele>
        <time>2026-01-18T15:41:25.822Z</time>
      </trkpt>
      <trkpt lat="46.99083" lon="5.90706">
        <ele>497.31</ele>
        <time>2026-01-18T15:41:45.847Z</time>
      </trkpt>
      <trkpt lat="46.99084" lon="5.90692">
        <ele>498.11</ele>
        <time>2026-01-18T15:42:03.424Z</time>
      </trkpt>
      <trkpt lat="46.99077" lon="5.90673">
        <ele>498.13</ele>
        <time>2026-01-18T15:42:08.558Z</time>
      </trkpt>
      <trkpt lat="46.99075" lon="5.90658">
        <ele>497.36</ele>
        <time>2026-01-18T15:42:24.059Z</time>
      </trkpt>
      <trkpt lat="46.99071" lon="5.90639">
        <ele>495.49</ele>
        <time>2026-01-18T15:42:37.701Z</time>
      </trkpt>
      <trkpt lat="46.99074" lon="5.90624">
        <ele>494.33</ele>
        <time>2026-01-18T15:42:45.441Z</time>
      </trkpt>
      <trkpt lat="46.99078" lon="5.90602">
        <ele>492.89</ele>
        <time>2026-01-18T15:43:00.821Z</time>
      </trkpt>
      <trkpt lat="46.99079" lon="5.90587">
        <ele>491.44</ele>
        <time>2026-01-18T15:43:12.518Z</time>
      </trkpt>
      <trkpt lat="46.99081" lon="5.90572">
        <ele>491.08</ele>
        <time>2026-01-18T15:43:19.818Z</time>
      </trkpt>
      <trkpt lat="46.99084" lon="5.90555">
        <ele>491.11</ele>
        <time>2026-01-18T15:43:33.824Z</time>
      </trkpt>
      <trkpt lat="46.99082" lon="5.90535">
        <ele>491.7</ele>
        <time>2026-01-18T15:43:45.824Z</time>
      </trkpt>
      <trkpt lat="46.9908" lon="5.9051">
        <ele>491.48</ele>
        <time>2026-01-18T15:43:58.827Z</time>
      </trkpt>
      <trkpt lat="46.99081" lon="5.90495">
        <ele>490.06</ele>
        <time>2026-01-18T15:44:20.662Z</time>
      </trkpt>
      <trkpt lat="46.99081" lon="5.90477">
        <ele>488.23</ele>
        <time>2026-01-18T15:44:36.321Z</time>
      </trkpt>
      <trkpt lat="46.99083" lon="5.90462">
        <ele>488.13</ele>
        <time>2026-01-18T15:44:41.823Z</time>
      </trkpt>
      <trkpt lat="46.99087" lon="5.90447">
        <ele>487.85</ele>
        <time>2026-01-18T15:44:50.383Z</time>
      </trkpt>
      <trkpt lat="46.99089" lon="5.90432">
        <ele>485.85</ele>
        <time>2026-01-18T15:44:55.477Z</time>
      </trkpt>
      <trkpt lat="46.99093" lon="5.90419">
        <ele>485.37</ele>
        <time>2026-01-18T15:45:02.664Z</time>
      </trkpt>
      <trkpt lat="46.99098" lon="5.90405">
        <ele>485.25</ele>
        <time>2026-01-18T15:45:12.810Z</time>
      </trkpt>
      <trkpt lat="46.99099" lon="5.9039">
        <ele>484.76</ele>
        <time>2026-01-18T15:45:19.658Z</time>
      </trkpt>
      <trkpt lat="46.991" lon="5.90376">
        <ele>483.36</ele>
        <time>2026-01-18T15:45:28.307Z</time>
      </trkpt>
      <trkpt lat="46.99099" lon="5.90359">
        <ele>482.04</ele>
        <time>2026-01-18T15:45:46.304Z</time>
      </trkpt>
      <trkpt lat="46.99096" lon="5.90347">
        <ele>480.65</ele>
        <time>2026-01-18T15:46:04.819Z</time>
      </trkpt>
      <trkpt lat="46.99093" lon="5.90334">
        <ele>479.85</ele>
        <time>2026-01-18T15:46:11.376Z</time>
      </trkpt>
      <trkpt lat="46.99095" lon="5.90321">
        <ele>479.46</ele>
        <time>2026-01-18T15:46:29.819Z</time>
      </trkpt>
      <trkpt lat="46.99097" lon="5.90301">
        <ele>479.29</ele>
        <time>2026-01-18T15:46:35.598Z</time>
      </trkpt>
      <trkpt lat="46.99097" lon="5.90288">
        <ele>478.68</ele>
        <time>2026-01-18T15:46:44.558Z</time>
      </trkpt>
      <trkpt lat="46.99098" lon="5.90275">
        <ele>478.44</ele>
        <time>2026-01-18T15:46:56.874Z</time>
      </trkpt>
      <trkpt lat="46.99097" lon="5.90258">
        <ele>477.43</ele>
        <time>2026-01-18T15:47:10.821Z</time>
      </trkpt>
      <trkpt lat="46.99097" lon="5.90244">
        <ele>477.07</ele>
        <time>2026-01-18T15:47:16.824Z</time>
      </trkpt>
      <trkpt lat="46.99093" lon="5.9023">
        <ele>476.53</ele>
        <time>2026-01-18T15:47:25.824Z</time>
      </trkpt>
      <trkpt lat="46.99095" lon="5.90217">
        <ele>475.35</ele>
        <time>2026-01-18T15:47:33.380Z</time>
      </trkpt>
      <trkpt lat="46.99096" lon="5.90201">
        <ele>474.14</ele>
        <time>2026-01-18T15:48:11.068Z</time>
      </trkpt>
      <trkpt lat="46.99098" lon="5.9018">
        <ele>472.85</ele>
        <time>2026-01-18T15:48:16.305Z</time>
      </trkpt>
      <trkpt lat="46.99104" lon="5.90163">
        <ele>470.72</ele>
        <time>2026-01-18T15:48:25.819Z</time>
      </trkpt>
      <trkpt lat="46.99109" lon="5.90141">
        <ele>469.25</ele>
        <time>2026-01-18T15:48:36.076Z</time>
      </trkpt>
      <trkpt lat="46.99114" lon="5.90131">
        <ele>468.95</ele>
        <time>2026-01-18T15:48:41.285Z</time>
      </trkpt>
      <trkpt lat="46.99115" lon="5.90116">
        <ele>466.47</ele>
        <time>2026-01-18T15:48:57.822Z</time>
      </trkpt>
      <trkpt lat="46.99112" lon="5.90103">
        <ele>465.52</ele>
        <time>2026-01-18T15:49:07.626Z</time>
      </trkpt>
      <trkpt lat="46.99112" lon="5.9008">
        <ele>461.61</ele>
        <time>2026-01-18T15:49:35.820Z</time>
      </trkpt>
      <trkpt lat="46.99109" lon="5.90067">
        <ele>459.15</ele>
        <time>2026-01-18T15:49:41.240Z</time>
      </trkpt>
      <trkpt lat="46.99105" lon="5.90049">
        <ele>452.98</ele>
        <time>2026-01-18T15:50:12.814Z</time>
      </trkpt>
      <trkpt lat="46.99103" lon="5.90035">
        <ele>447.73</ele>
        <time>2026-01-18T15:50:33.505Z</time>
      </trkpt>
      <trkpt lat="46.99102" lon="5.90015">
        <ele>443.65</ele>
        <time>2026-01-18T15:50:38.871Z</time>
      </trkpt>
      <trkpt lat="46.991" lon="5.89998">
        <ele>438.82</ele>
        <time>2026-01-18T15:51:01.439Z</time>
      </trkpt>
      <trkpt lat="46.99094" lon="5.89988">
        <ele>435.54</ele>
        <time>2026-01-18T15:51:15.816Z</time>
      </trkpt>
      <trkpt lat="46.99076" lon="5.89977">
        <ele>431.99</ele>
        <time>2026-01-18T15:51:36.813Z</time>
      </trkpt>
      <trkpt lat="46.99066" lon="5.89975">
        <ele>429.45</ele>
        <time>2026-01-18T15:51:41.822Z</time>
      </trkpt>
      <trkpt lat="46.99061" lon="5.89963">
        <ele>422.88</ele>
        <time>2026-01-18T15:51:55.822Z</time>
      </trkpt>
      <trkpt lat="46.99051" lon="5.89951">
        <ele>455.54</ele>
        <time>2026-01-18T15:52:13.627Z</time>
      </trkpt>
      <trkpt lat="46.99045" lon="5.89939">
        <ele>455.54</ele>
        <time>2026-01-18T15:52:25.816Z</time>
      </trkpt>
      <trkpt lat="46.99053" lon="5.89934">
        <ele>455.54</ele>
        <time>2026-01-18T15:53:18.823Z</time>
      </trkpt>
      <trkpt lat="46.99048" lon="5.89923">
        <ele>455.54</ele>
        <time>2026-01-18T15:53:53.812Z</time>
      </trkpt>
      <trkpt lat="46.99052" lon="5.89911">
        <ele>455.54</ele>
        <time>2026-01-18T15:54:06.718Z</time>
      </trkpt>
      <trkpt lat="46.99056" lon="5.89898">
        <ele>455.54</ele>
        <time>2026-01-18T15:54:18.822Z</time>
      </trkpt>
      <trkpt lat="46.99059" lon="5.89884">
        <ele>455.54</ele>
        <time>2026-01-18T15:54:27.565Z</time>
      </trkpt>
      <trkpt lat="46.99065" lon="5.89871">
        <ele>452.43</ele>
        <time>2026-01-18T15:55:24.181Z</time>
      </trkpt>
      <trkpt lat="46.99068" lon="5.89857">
        <ele>452.45</ele>
        <time>2026-01-18T15:55:30.819Z</time>
      </trkpt>
      <trkpt lat="46.99071" lon="5.89845">
        <ele>452.45</ele>
        <time>2026-01-18T15:55:38.819Z</time>
      </trkpt>
      <trkpt lat="46.99074" lon="5.89832">
        <ele>452.05</ele>
        <time>2026-01-18T15:55:45.815Z</time>
      </trkpt>
      <trkpt lat="46.99072" lon="5.89819">
        <ele>450.92</ele>
        <time>2026-01-18T15:56:11.824Z</time>
      </trkpt>
      <trkpt lat="46.99078" lon="5.89787">
        <ele>450.85</ele>
        <time>2026-01-18T15:56:17.487Z</time>
      </trkpt>
      <trkpt lat="46.99079" lon="5.89774">
        <ele>403.43</ele>
        <time>2026-01-18T15:56:30.562Z</time>
      </trkpt>
      <trkpt lat="46.99082" lon="5.8976">
        <ele>450.62</ele>
        <time>2026-01-18T15:56:46.386Z</time>
      </trkpt>
      <trkpt lat="46.99084" lon="5.89744">
        <ele>450.55</ele>
        <time>2026-01-18T15:57:03.642Z</time>
      </trkpt>
      <trkpt lat="46.99085" lon="5.8973">
        <ele>450.45</ele>
        <time>2026-01-18T15:57:11.747Z</time>
      </trkpt>
      <trkpt lat="46.99086" lon="5.89716">
        <ele>450.45</ele>
        <time>2026-01-18T15:57:16.822Z</time>
      </trkpt>
      <trkpt lat="46.99085" lon="5.89702">
        <ele>450.55</ele>
        <time>2026-01-18T15:58:47.786Z</time>
      </trkpt>
      <trkpt lat="46.99085" lon="5.89688">
        <ele>450.65</ele>
        <time>2026-01-18T15:58:53.822Z</time>
      </trkpt>
      <trkpt lat="46.99086" lon="5.89672">
        <ele>404.37</ele>
        <time>2026-01-18T15:59:07.821Z</time>
      </trkpt>
      <trkpt lat="46.99083" lon="5.89658">
        <ele>449.77</ele>
        <time>2026-01-18T15:59:28.262Z</time>
      </trkpt>
      <trkpt lat="46.99079" lon="5.89644">
        <ele>449.55</ele>
        <time>2026-01-18T15:59:33.816Z</time>
      </trkpt>
      <trkpt lat="46.99078" lon="5.8963">
        <ele>449.55</ele>
        <time>2026-01-18T15:59:45.537Z</time>
      </trkpt>
      <trkpt lat="46.99076" lon="5.89617">
        <ele>449.55</ele>
        <time>2026-01-18T16:00:02.874Z</time>
      </trkpt>
      <trkpt lat="46.99077" lon="5.89631">
        <ele>450.45</ele>
        <time>2026-01-18T16:00:56.498Z</time>
      </trkpt>
      <trkpt lat="46.99082" lon="5.89643">
        <ele>450.45</ele>
        <time>2026-01-18T16:01:03.585Z</time>
      </trkpt>
      <trkpt lat="46.9908" lon="5.89658">
        <ele>399.45</ele>
        <time>2026-01-18T16:01:28.824Z</time>
      </trkpt>
      <trkpt lat="46.9908" lon="5.89643">
        <ele>449.55</ele>
        <time>2026-01-18T16:03:50.849Z</time>
      </trkpt>
      <trkpt lat="46.99077" lon="5.8963">
        <ele>449.55</ele>
        <time>2026-01-18T16:04:08.824Z</time>
      </trkpt>
      <trkpt lat="46.99075" lon="5.89616">
        <ele>449.55</ele>
        <time>2026-01-18T16:04:22.830Z</time>
      </trkpt>
      <trkpt lat="46.99072" lon="5.89603">
        <ele>444.38</ele>
        <time>2026-01-18T16:04:39.324Z</time>
      </trkpt>
      <trkpt lat="46.99071" lon="5.89589">
        <ele>438.95</ele>
        <time>2026-01-18T16:04:53.815Z</time>
      </trkpt>
      <trkpt lat="46.99068" lon="5.89575">
        <ele>442.65</ele>
        <time>2026-01-18T16:05:01.506Z</time>
      </trkpt>
      <trkpt lat="46.99067" lon="5.89554">
        <ele>442.64</ele>
        <time>2026-01-18T16:05:24.817Z</time>
      </trkpt>
      <trkpt lat="46.99063" lon="5.89539">
        <ele>438.95</ele>
        <time>2026-01-18T16:05:36.478Z</time>
      </trkpt>
      <trkpt lat="46.99064" lon="5.89524">
        <ele>439.02</ele>
        <time>2026-01-18T16:05:45.185Z</time>
      </trkpt>
      <trkpt lat="46.9906" lon="5.89512">
        <ele>441.73</ele>
        <time>2026-01-18T16:05:52.822Z</time>
      </trkpt>
      <trkpt lat="46.99057" lon="5.89499">
        <ele>440.21</ele>
        <time>2026-01-18T16:06:08.298Z</time>
      </trkpt>
      <trkpt lat="46.99055" lon="5.89485">
        <ele>440.05</ele>
        <time>2026-01-18T16:06:18.931Z</time>
      </trkpt>
    </trkseg>
  </trk>
</gpx>